PWSweather.com
Personal Weather Stations
Station Observations
HVALPSUND
Hvalpsund, FarsoeDK 9640

HvalpsundFarsoeDK 9640

Lat: 56.705311, Lon: 9.203638

Elevation: 5

Station Type: Vantage Pro2

http://hvalpsundvejr.dk

High Low Average
Temperature 41.0°F5.0°C 35.2°F1.8°C 37.5°F3.1°C
Dew Point 36.5°F2.5°C 32.5°F0.3°C 34.5°F1.4°C
Winds 20.4 mph 32.8 kmh 3.7 mph 6.0 kmh 10.0 mph S16.1 kmh S
Wind Gusts 29.0 mph46.7 kmh 8.0 mph12.9 kmh 15.0 mph24.1 kmh
Humidity 91% 84% 89%
Pressure 29.23 in989.8 mb 29.05 in983.7 mb -
Precipitation 0.20 in5.1 mm - -
Hour Temp Dew Point Humidity Winds Wind Gusts Pressure Precip Precip Rate Daily Precip Total
12:00 AM 35.4°F1.9°C 32.5°F0.3°C 89% 8.5 mph S13.7 kmh S 11.0 mph17.7 kmh 29.09 in985.1 mb 0.00 in0.0 mm 0.00 in0.0 mm 0.04 in1.0 mm
12:01 AM 35.4°F1.9°C 32.5°F0.3°C 89% 10.0 mph S16.1 kmh S 11.0 mph17.7 kmh 29.09 in985.1 mb 0.00 in0.0 mm 0.00 in0.0 mm 0.00 in0.0 mm
12:02 AM 35.4°F1.9°C 32.5°F0.3°C 89% 10.0 mph S16.1 kmh S 10.0 mph16.1 kmh 29.09 in985.1 mb 0.00 in0.0 mm 0.00 in0.0 mm 0.00 in0.0 mm
12:03 AM 35.5°F1.9°C 32.6°F0.3°C 89% 9.6 mph S15.4 kmh S 15.0 mph24.1 kmh 29.09 in985.1 mb 0.00 in0.0 mm 0.00 in0.0 mm 0.00 in0.0 mm
12:04 AM 35.5°F1.9°C 32.6°F0.3°C 89% 8.7 mph S14.0 kmh S 15.0 mph24.1 kmh 29.09 in985.1 mb 0.00 in0.0 mm 0.00 in0.0 mm 0.00 in0.0 mm
12:05 AM 35.4°F1.9°C 32.5°F0.3°C 89% 8.6 mph S13.8 kmh S 13.0 mph20.9 kmh 29.09 in985.1 mb 0.00 in0.0 mm 0.00 in0.0 mm 0.00 in0.0 mm
12:06 AM 35.4°F1.9°C 32.5°F0.3°C 89% 9.0 mph S14.5 kmh S 13.0 mph20.9 kmh 29.09 in985.1 mb 0.00 in0.0 mm 0.00 in0.0 mm 0.00 in0.0 mm
12:07 AM 35.4°F1.9°C 32.5°F0.3°C 89% 8.5 mph S13.7 kmh S 12.0 mph19.3 kmh 29.09 in985.1 mb 0.01 in0.3 mm 0.60 in15.2 mm 0.01 in0.3 mm
12:08 AM 35.4°F1.9°C 32.5°F0.3°C 89% 6.4 mph S10.3 kmh S 11.0 mph17.7 kmh 29.09 in985.1 mb 0.01 in0.3 mm 0.00 in0.0 mm 0.01 in0.3 mm
12:09 AM 35.4°F1.9°C 32.5°F0.3°C 89% 7.7 mph S12.4 kmh S 11.0 mph17.7 kmh 29.09 in985.1 mb 0.01 in0.3 mm 0.00 in0.0 mm 0.01 in0.3 mm
12:10 AM 35.4°F1.9°C 32.5°F0.3°C 89% 9.1 mph S14.6 kmh S 15.0 mph24.1 kmh 29.09 in985.1 mb 0.01 in0.3 mm 0.00 in0.0 mm 0.01 in0.3 mm
12:11 AM 35.4°F1.9°C 32.8°F0.4°C 90% 10.7 mph S17.2 kmh S 16.0 mph25.7 kmh 29.09 in985.1 mb 0.01 in0.3 mm 0.00 in0.0 mm 0.01 in0.3 mm
12:12 AM 35.4°F1.9°C 32.8°F0.4°C 90% 10.2 mph S16.4 kmh S 16.0 mph25.7 kmh 29.09 in985.1 mb 0.01 in0.3 mm 0.00 in0.0 mm 0.01 in0.3 mm
12:13 AM 35.4°F1.9°C 32.8°F0.4°C 90% 9.6 mph S15.4 kmh S 15.0 mph24.1 kmh 29.09 in985.1 mb 0.01 in0.3 mm 0.00 in0.0 mm 0.01 in0.3 mm
12:14 AM 35.5°F1.9°C 32.9°F0.5°C 90% 8.0 mph S12.9 kmh S 14.0 mph22.5 kmh 29.09 in985.1 mb 0.01 in0.3 mm 0.00 in0.0 mm 0.01 in0.3 mm
12:15 AM 35.5°F1.9°C 32.9°F0.5°C 90% 10.2 mph S16.4 kmh S 14.0 mph22.5 kmh 29.09 in985.1 mb 0.01 in0.3 mm 0.00 in0.0 mm 0.01 in0.3 mm
12:16 AM 35.5°F1.9°C 32.9°F0.5°C 90% 9.9 mph S15.9 kmh S 16.0 mph25.7 kmh 29.09 in985.1 mb 0.01 in0.3 mm 0.00 in0.0 mm 0.01 in0.3 mm
12:17 AM 35.5°F1.9°C 32.9°F0.5°C 90% 11.2 mph S18.0 kmh S 16.0 mph25.7 kmh 29.09 in985.1 mb 0.01 in0.3 mm 0.00 in0.0 mm 0.01 in0.3 mm
12:18 AM 35.5°F1.9°C 32.9°F0.5°C 90% 8.1 mph SSW13.0 kmh SSW 16.0 mph25.7 kmh 29.09 in985.1 mb 0.01 in0.3 mm 0.00 in0.0 mm 0.01 in0.3 mm
12:19 AM 35.5°F1.9°C 32.9°F0.5°C 90% 8.9 mph SSW14.3 kmh SSW 14.0 mph22.5 kmh 29.09 in985.1 mb 0.01 in0.3 mm 0.00 in0.0 mm 0.01 in0.3 mm
12:20 AM 35.5°F1.9°C 32.9°F0.5°C 90% 10.2 mph SSW16.4 kmh SSW 14.0 mph22.5 kmh 29.09 in985.1 mb 0.01 in0.3 mm 0.00 in0.0 mm 0.01 in0.3 mm
12:21 AM 35.6°F2.0°C 33.0°F0.6°C 90% 9.4 mph SSW15.1 kmh SSW 14.0 mph22.5 kmh 29.09 in985.1 mb 0.01 in0.3 mm 0.00 in0.0 mm 0.01 in0.3 mm
12:22 AM 35.6°F2.0°C 33.0°F0.6°C 90% 9.6 mph SSW15.4 kmh SSW 18.0 mph29.0 kmh 29.09 in985.1 mb 0.01 in0.3 mm 0.00 in0.0 mm 0.01 in0.3 mm
12:23 AM 35.7°F2.1°C 33.1°F0.6°C 90% 12.2 mph S19.6 kmh S 18.0 mph29.0 kmh 29.09 in985.1 mb 0.01 in0.3 mm 0.00 in0.0 mm 0.01 in0.3 mm
12:24 AM 35.7°F2.1°C 33.1°F0.6°C 90% 10.3 mph SSW16.6 kmh SSW 18.0 mph29.0 kmh 29.09 in985.1 mb 0.01 in0.3 mm 0.00 in0.0 mm 0.01 in0.3 mm
12:25 AM 35.8°F2.1°C 33.2°F0.7°C 90% 11.3 mph SSW18.2 kmh SSW 15.0 mph24.1 kmh 29.09 in985.1 mb 0.01 in0.3 mm 0.00 in0.0 mm 0.01 in0.3 mm
12:26 AM 35.8°F2.1°C 33.2°F0.7°C 90% 10.1 mph SSW16.3 kmh SSW 15.0 mph24.1 kmh 29.09 in985.1 mb 0.01 in0.3 mm 0.00 in0.0 mm 0.01 in0.3 mm
12:27 AM 35.9°F2.2°C 33.3°F0.7°C 90% 10.5 mph S16.9 kmh S 14.0 mph22.5 kmh 29.09 in985.1 mb 0.01 in0.3 mm 0.00 in0.0 mm 0.01 in0.3 mm
12:28 AM 35.9°F2.2°C 33.3°F0.7°C 90% 12.3 mph SSW19.8 kmh SSW 19.0 mph30.6 kmh 29.09 in985.1 mb 0.01 in0.3 mm 0.00 in0.0 mm 0.01 in0.3 mm
12:29 AM 36.0°F2.2°C 33.4°F0.8°C 90% 8.8 mph SSW14.2 kmh SSW 19.0 mph30.6 kmh 29.09 in985.1 mb 0.01 in0.3 mm 0.00 in0.0 mm 0.01 in0.3 mm
12:30 AM 36.0°F2.2°C 33.4°F0.8°C 90% 12.0 mph SSW19.3 kmh SSW 15.0 mph24.1 kmh 29.09 in985.1 mb 0.01 in0.3 mm 0.00 in0.0 mm 0.01 in0.3 mm
12:31 AM 36.0°F2.2°C 33.4°F0.8°C 90% 10.5 mph SSW16.9 kmh SSW 17.0 mph27.4 kmh 29.09 in985.1 mb 0.01 in0.3 mm 0.00 in0.0 mm 0.01 in0.3 mm
12:32 AM 36.0°F2.2°C 33.4°F0.8°C 90% 10.7 mph SSW17.2 kmh SSW 17.0 mph27.4 kmh 29.08 in984.8 mb 0.01 in0.3 mm 0.00 in0.0 mm 0.01 in0.3 mm
12:33 AM 36.1°F2.3°C 33.5°F0.8°C 90% 11.0 mph SSW17.7 kmh SSW 17.0 mph27.4 kmh 29.08 in984.8 mb 0.01 in0.3 mm 0.00 in0.0 mm 0.01 in0.3 mm
12:34 AM 36.1°F2.3°C 33.5°F0.8°C 90% 9.2 mph SSW14.8 kmh SSW 17.0 mph27.4 kmh 29.08 in984.8 mb 0.01 in0.3 mm 0.00 in0.0 mm 0.01 in0.3 mm
12:35 AM 36.1°F2.3°C 33.2°F0.7°C 89% 11.4 mph SSW18.3 kmh SSW 16.0 mph25.7 kmh 29.09 in985.1 mb 0.01 in0.3 mm 0.00 in0.0 mm 0.01 in0.3 mm
12:36 AM 36.2°F2.3°C 33.3°F0.7°C 89% 12.6 mph SSW20.3 kmh SSW 17.0 mph27.4 kmh 29.08 in984.8 mb 0.01 in0.3 mm 0.00 in0.0 mm 0.01 in0.3 mm
12:37 AM 36.2°F2.3°C 33.6°F0.9°C 90% 10.9 mph SSW17.5 kmh SSW 17.0 mph27.4 kmh 29.08 in984.8 mb 0.01 in0.3 mm 0.00 in0.0 mm 0.01 in0.3 mm
12:38 AM 36.2°F2.3°C 33.3°F0.7°C 89% 10.3 mph SSW16.6 kmh SSW 17.0 mph27.4 kmh 29.08 in984.8 mb 0.01 in0.3 mm 0.00 in0.0 mm 0.01 in0.3 mm
12:39 AM 36.2°F2.3°C 33.3°F0.7°C 89% 12.2 mph SSW19.6 kmh SSW 15.0 mph24.1 kmh 29.08 in984.8 mb 0.01 in0.3 mm 0.00 in0.0 mm 0.01 in0.3 mm
12:40 AM 36.3°F2.4°C 33.4°F0.8°C 89% 10.3 mph SSW16.6 kmh SSW 15.0 mph24.1 kmh 29.08 in984.8 mb 0.01 in0.3 mm 0.00 in0.0 mm 0.01 in0.3 mm
12:41 AM 36.3°F2.4°C 33.4°F0.8°C 89% 11.5 mph SSW18.5 kmh SSW 18.0 mph29.0 kmh 29.08 in984.8 mb 0.01 in0.3 mm 0.00 in0.0 mm 0.01 in0.3 mm
12:42 AM 36.3°F2.4°C 33.4°F0.8°C 89% 12.2 mph SSW19.6 kmh SSW 18.0 mph29.0 kmh 29.08 in984.8 mb 0.01 in0.3 mm 0.00 in0.0 mm 0.01 in0.3 mm
12:43 AM 36.3°F2.4°C 33.4°F0.8°C 89% 9.4 mph SSW15.1 kmh SSW 17.0 mph27.4 kmh 29.08 in984.8 mb 0.01 in0.3 mm 0.00 in0.0 mm 0.01 in0.3 mm
12:44 AM 36.3°F2.4°C 33.4°F0.8°C 89% 9.9 mph SW15.9 kmh SW 13.0 mph20.9 kmh 29.08 in984.8 mb 0.01 in0.3 mm 0.00 in0.0 mm 0.01 in0.3 mm
12:45 AM 36.3°F2.4°C 33.4°F0.8°C 89% 11.6 mph SW18.7 kmh SW 15.0 mph24.1 kmh 29.08 in984.8 mb 0.01 in0.3 mm 0.00 in0.0 mm 0.01 in0.3 mm
12:46 AM 36.4°F2.4°C 33.5°F0.8°C 89% 11.7 mph SSW18.8 kmh SSW 19.0 mph30.6 kmh 29.08 in984.8 mb 0.01 in0.3 mm 0.00 in0.0 mm 0.01 in0.3 mm
12:47 AM 36.4°F2.4°C 33.5°F0.8°C 89% 9.7 mph SSW15.6 kmh SSW 19.0 mph30.6 kmh 29.08 in984.8 mb 0.01 in0.3 mm 0.00 in0.0 mm 0.01 in0.3 mm
12:48 AM 36.4°F2.4°C 33.5°F0.8°C 89% 10.9 mph SSW17.5 kmh SSW 15.0 mph24.1 kmh 29.08 in984.8 mb 0.01 in0.3 mm 0.00 in0.0 mm 0.01 in0.3 mm
12:49 AM 36.3°F2.4°C 33.4°F0.8°C 89% 10.5 mph SSW16.9 kmh SSW 15.0 mph24.1 kmh 29.08 in984.8 mb 0.01 in0.3 mm 0.00 in0.0 mm 0.01 in0.3 mm
12:50 AM 36.4°F2.4°C 33.5°F0.8°C 89% 10.4 mph SW16.7 kmh SW 15.0 mph24.1 kmh 29.09 in985.1 mb 0.02 in0.5 mm 0.60 in15.2 mm 0.02 in0.5 mm
12:51 AM 36.4°F2.4°C 33.5°F0.8°C 89% 12.7 mph SSW20.4 kmh SSW 18.0 mph29.0 kmh 29.08 in984.8 mb 0.02 in0.5 mm 0.00 in0.0 mm 0.02 in0.5 mm
12:52 AM 36.4°F2.4°C 33.5°F0.8°C 89% 11.6 mph SSW18.7 kmh SSW 18.0 mph29.0 kmh 29.08 in984.8 mb 0.02 in0.5 mm 0.00 in0.0 mm 0.02 in0.5 mm
12:53 AM 36.4°F2.4°C 33.5°F0.8°C 89% 11.0 mph S17.7 kmh S 19.0 mph30.6 kmh 29.08 in984.8 mb 0.02 in0.5 mm 0.00 in0.0 mm 0.02 in0.5 mm
12:54 AM 36.4°F2.4°C 33.5°F0.8°C 89% 10.3 mph SSW16.6 kmh SSW 19.0 mph30.6 kmh 29.08 in984.8 mb 0.02 in0.5 mm 0.00 in0.0 mm 0.02 in0.5 mm
12:55 AM 36.4°F2.4°C 33.5°F0.8°C 89% 10.5 mph SSW16.9 kmh SSW 15.0 mph24.1 kmh 29.08 in984.8 mb 0.02 in0.5 mm 0.00 in0.0 mm 0.02 in0.5 mm
12:56 AM 36.4°F2.4°C 33.8°F1.0°C 90% 10.8 mph SSW17.4 kmh SSW 14.0 mph22.5 kmh 29.08 in984.8 mb 0.02 in0.5 mm 0.00 in0.0 mm 0.02 in0.5 mm
12:57 AM 36.4°F2.4°C 33.8°F1.0°C 90% 8.5 mph SSW13.7 kmh SSW 14.0 mph22.5 kmh 29.08 in984.8 mb 0.02 in0.5 mm 0.00 in0.0 mm 0.02 in0.5 mm
12:58 AM 36.4°F2.4°C 33.8°F1.0°C 90% 7.9 mph SSW12.7 kmh SSW 12.0 mph19.3 kmh 29.08 in984.8 mb 0.02 in0.5 mm 0.00 in0.0 mm 0.02 in0.5 mm
12:59 AM 36.4°F2.4°C 33.8°F1.0°C 90% 8.0 mph SSW12.9 kmh SSW 11.0 mph17.7 kmh 29.08 in984.8 mb 0.02 in0.5 mm 0.00 in0.0 mm 0.02 in0.5 mm
01:00 AM 36.4°F2.4°C 33.8°F1.0°C 90% 9.7 mph S15.6 kmh S 14.0 mph22.5 kmh 29.08 in984.8 mb 0.02 in0.5 mm 0.00 in0.0 mm 0.02 in0.5 mm
01:01 AM 36.4°F2.4°C 33.8°F1.0°C 90% 8.5 mph SSW13.7 kmh SSW 14.0 mph22.5 kmh 29.08 in984.8 mb 0.02 in0.5 mm 0.00 in0.0 mm 0.02 in0.5 mm
01:02 AM 36.4°F2.4°C 33.8°F1.0°C 90% 13.4 mph SSW21.6 kmh SSW 19.0 mph30.6 kmh 29.08 in984.8 mb 0.02 in0.5 mm 0.00 in0.0 mm 0.02 in0.5 mm
01:03 AM 36.5°F2.5°C 33.9°F1.1°C 90% 12.5 mph SSW20.1 kmh SSW 19.0 mph30.6 kmh 29.08 in984.8 mb 0.02 in0.5 mm 0.00 in0.0 mm 0.02 in0.5 mm
01:04 AM 36.5°F2.5°C 33.9°F1.1°C 90% 11.9 mph SW19.2 kmh SW 19.0 mph30.6 kmh 29.08 in984.8 mb 0.02 in0.5 mm 0.00 in0.0 mm 0.02 in0.5 mm
01:05 AM 36.6°F2.6°C 33.9°F1.1°C 90% 12.0 mph SSW19.3 kmh SSW 16.0 mph25.7 kmh 29.08 in984.8 mb 0.02 in0.5 mm 0.00 in0.0 mm 0.02 in0.5 mm
01:06 AM 36.6°F2.6°C 33.7°F0.9°C 89% 11.9 mph SW19.2 kmh SW 17.0 mph27.4 kmh 29.08 in984.8 mb 0.02 in0.5 mm 0.00 in0.0 mm 0.02 in0.5 mm
01:07 AM 36.6°F2.6°C 33.7°F0.9°C 89% 13.5 mph SSW21.7 kmh SSW 17.0 mph27.4 kmh 29.08 in984.8 mb 0.01 in0.3 mm 0.00 in0.0 mm 0.02 in0.5 mm
01:08 AM 36.6°F2.6°C 33.7°F0.9°C 89% 13.3 mph SW21.4 kmh SW 18.0 mph29.0 kmh 29.08 in984.8 mb 0.01 in0.3 mm 0.00 in0.0 mm 0.02 in0.5 mm
01:09 AM 36.7°F2.6°C 33.8°F1.0°C 89% 11.6 mph SSW18.7 kmh SSW 18.0 mph29.0 kmh 29.08 in984.8 mb 0.01 in0.3 mm 0.00 in0.0 mm 0.02 in0.5 mm
01:10 AM 36.8°F2.7°C 33.9°F1.1°C 89% 11.2 mph SW18.0 kmh SW 15.0 mph24.1 kmh 29.08 in984.8 mb 0.01 in0.3 mm 0.00 in0.0 mm 0.02 in0.5 mm
01:11 AM 36.7°F2.6°C 33.8°F1.0°C 89% 10.3 mph SSW16.6 kmh SSW 15.0 mph24.1 kmh 29.08 in984.8 mb 0.01 in0.3 mm 0.00 in0.0 mm 0.02 in0.5 mm
01:12 AM 36.7°F2.6°C 33.8°F1.0°C 89% 12.1 mph SSW19.5 kmh SSW 16.0 mph25.7 kmh 29.08 in984.8 mb 0.01 in0.3 mm 0.00 in0.0 mm 0.02 in0.5 mm
01:13 AM 36.8°F2.7°C 33.9°F1.1°C 89% 12.3 mph SSW19.8 kmh SSW 16.0 mph25.7 kmh 29.08 in984.8 mb 0.01 in0.3 mm 0.00 in0.0 mm 0.02 in0.5 mm
01:14 AM 36.8°F2.7°C 33.9°F1.1°C 89% 10.3 mph SSW16.6 kmh SSW 16.0 mph25.7 kmh 29.08 in984.8 mb 0.01 in0.3 mm 0.00 in0.0 mm 0.02 in0.5 mm
01:15 AM 36.8°F2.7°C 33.9°F1.1°C 89% 12.6 mph SSW20.3 kmh SSW 18.0 mph29.0 kmh 29.08 in984.8 mb 0.01 in0.3 mm 0.00 in0.0 mm 0.02 in0.5 mm
01:16 AM 36.8°F2.7°C 33.9°F1.1°C 89% 11.5 mph SSW18.5 kmh SSW 18.0 mph29.0 kmh 29.08 in984.8 mb 0.01 in0.3 mm 0.00 in0.0 mm 0.02 in0.5 mm
01:17 AM 36.8°F2.7°C 33.9°F1.1°C 89% 13.1 mph SW21.1 kmh SW 18.0 mph29.0 kmh 29.08 in984.8 mb 0.01 in0.3 mm 0.00 in0.0 mm 0.02 in0.5 mm
01:18 AM 36.8°F2.7°C 33.9°F1.1°C 89% 10.3 mph SSW16.6 kmh SSW 18.0 mph29.0 kmh 29.08 in984.8 mb 0.01 in0.3 mm 0.00 in0.0 mm 0.02 in0.5 mm
01:19 AM 36.8°F2.7°C 33.9°F1.1°C 89% 13.0 mph SW20.9 kmh SW 15.0 mph24.1 kmh 29.08 in984.8 mb 0.01 in0.3 mm 0.00 in0.0 mm 0.02 in0.5 mm
01:20 AM 36.9°F2.7°C 34.0°F1.1°C 89% 14.6 mph SSW23.5 kmh SSW 20.0 mph32.2 kmh 29.08 in984.8 mb 0.01 in0.3 mm 0.00 in0.0 mm 0.02 in0.5 mm
01:21 AM 36.9°F2.7°C 34.0°F1.1°C 89% 9.9 mph SSW15.9 kmh SSW 20.0 mph32.2 kmh 29.08 in984.8 mb 0.01 in0.3 mm 0.00 in0.0 mm 0.02 in0.5 mm
01:22 AM 36.9°F2.7°C 34.0°F1.1°C 89% 11.0 mph SSW17.7 kmh SSW 16.0 mph25.7 kmh 29.08 in984.8 mb 0.01 in0.3 mm 0.00 in0.0 mm 0.02 in0.5 mm
01:23 AM 36.9°F2.7°C 34.0°F1.1°C 89% 11.5 mph SSW18.5 kmh SSW 18.0 mph29.0 kmh 29.08 in984.8 mb 0.01 in0.3 mm 0.00 in0.0 mm 0.02 in0.5 mm
01:24 AM 36.9°F2.7°C 34.0°F1.1°C 89% 11.5 mph SSW18.5 kmh SSW 18.0 mph29.0 kmh 29.08 in984.8 mb 0.01 in0.3 mm 0.00 in0.0 mm 0.02 in0.5 mm
01:25 AM 36.8°F2.7°C 33.9°F1.1°C 89% 10.7 mph SSW17.2 kmh SSW 15.0 mph24.1 kmh 29.08 in984.8 mb 0.01 in0.3 mm 0.00 in0.0 mm 0.02 in0.5 mm
01:26 AM 36.9°F2.7°C 34.0°F1.1°C 89% 10.6 mph SSW17.1 kmh SSW 15.0 mph24.1 kmh 29.08 in984.8 mb 0.01 in0.3 mm 0.00 in0.0 mm 0.02 in0.5 mm
01:27 AM 36.9°F2.7°C 34.0°F1.1°C 89% 9.0 mph SSW14.5 kmh SSW 15.0 mph24.1 kmh 29.08 in984.8 mb 0.01 in0.3 mm 0.00 in0.0 mm 0.02 in0.5 mm
01:28 AM 36.9°F2.7°C 34.0°F1.1°C 89% 10.2 mph SSW16.4 kmh SSW 14.0 mph22.5 kmh 29.08 in984.8 mb 0.01 in0.3 mm 0.00 in0.0 mm 0.02 in0.5 mm
01:29 AM 36.9°F2.7°C 34.0°F1.1°C 89% 12.6 mph SSW20.3 kmh SSW 17.0 mph27.4 kmh 29.08 in984.8 mb 0.01 in0.3 mm 0.00 in0.0 mm 0.02 in0.5 mm
01:30 AM 36.9°F2.7°C 34.0°F1.1°C 89% 10.9 mph SSW17.5 kmh SSW 17.0 mph27.4 kmh 29.08 in984.8 mb 0.01 in0.3 mm 0.00 in0.0 mm 0.02 in0.5 mm
01:31 AM 36.9°F2.7°C 34.0°F1.1°C 89% 11.3 mph SSW18.2 kmh SSW 17.0 mph27.4 kmh 29.08 in984.8 mb 0.01 in0.3 mm 0.00 in0.0 mm 0.02 in0.5 mm
01:32 AM 36.8°F2.7°C 33.9°F1.1°C 89% 9.2 mph SSW14.8 kmh SSW 17.0 mph27.4 kmh 29.08 in984.8 mb 0.01 in0.3 mm 0.00 in0.0 mm 0.02 in0.5 mm
01:33 AM 36.9°F2.7°C 34.0°F1.1°C 89% 10.4 mph SSW16.7 kmh SSW 17.0 mph27.4 kmh 29.08 in984.8 mb 0.01 in0.3 mm 0.00 in0.0 mm 0.02 in0.5 mm
01:34 AM 36.9°F2.7°C 34.0°F1.1°C 89% 10.1 mph SSW16.3 kmh SSW 17.0 mph27.4 kmh 29.08 in984.8 mb 0.01 in0.3 mm 0.00 in0.0 mm 0.02 in0.5 mm
01:35 AM 36.9°F2.7°C 34.0°F1.1°C 89% 10.8 mph SSW17.4 kmh SSW 16.0 mph25.7 kmh 29.08 in984.8 mb 0.01 in0.3 mm 0.00 in0.0 mm 0.02 in0.5 mm
01:36 AM 36.9°F2.7°C 34.0°F1.1°C 89% 13.0 mph SSW20.9 kmh SSW 16.0 mph25.7 kmh 29.08 in984.8 mb 0.01 in0.3 mm 0.00 in0.0 mm 0.02 in0.5 mm
01:37 AM 36.9°F2.7°C 34.0°F1.1°C 89% 10.3 mph S16.6 kmh S 16.0 mph25.7 kmh 29.08 in984.8 mb 0.01 in0.3 mm 0.00 in0.0 mm 0.02 in0.5 mm
01:38 AM 36.8°F2.7°C 33.9°F1.1°C 89% 11.2 mph SSW18.0 kmh SSW 16.0 mph25.7 kmh 29.08 in984.8 mb 0.01 in0.3 mm 0.00 in0.0 mm 0.02 in0.5 mm
01:39 AM 36.9°F2.7°C 34.0°F1.1°C 89% 11.3 mph SSW18.2 kmh SSW 18.0 mph29.0 kmh 29.08 in984.8 mb 0.01 in0.3 mm 0.00 in0.0 mm 0.02 in0.5 mm
01:40 AM 36.9°F2.7°C 34.0°F1.1°C 89% 10.4 mph S16.7 kmh S 18.0 mph29.0 kmh 29.08 in984.8 mb 0.01 in0.3 mm 0.00 in0.0 mm 0.02 in0.5 mm
01:41 AM 36.9°F2.7°C 34.0°F1.1°C 89% 11.2 mph SSW18.0 kmh SSW 14.0 mph22.5 kmh 29.08 in984.8 mb 0.01 in0.3 mm 0.00 in0.0 mm 0.02 in0.5 mm
01:42 AM 36.9°F2.7°C 33.7°F0.9°C 88% 11.3 mph SSW18.2 kmh SSW 17.0 mph27.4 kmh 29.08 in984.8 mb 0.01 in0.3 mm 0.00 in0.0 mm 0.02 in0.5 mm
01:43 AM 36.8°F2.7°C 33.6°F0.9°C 88% 12.2 mph SSW19.6 kmh SSW 18.0 mph29.0 kmh 29.08 in984.8 mb 0.01 in0.3 mm 0.00 in0.0 mm 0.02 in0.5 mm
01:44 AM 36.8°F2.7°C 33.6°F0.9°C 88% 11.2 mph SSW18.0 kmh SSW 18.0 mph29.0 kmh 29.07 in984.4 mb 0.01 in0.3 mm 0.00 in0.0 mm 0.02 in0.5 mm
01:45 AM 36.9°F2.7°C 33.7°F0.9°C 88% 8.6 mph SSW13.8 kmh SSW 14.0 mph22.5 kmh 29.07 in984.4 mb 0.01 in0.3 mm 0.00 in0.0 mm 0.02 in0.5 mm
01:46 AM 36.8°F2.7°C 33.6°F0.9°C 88% 9.4 mph SSW15.1 kmh SSW 13.0 mph20.9 kmh 29.07 in984.4 mb 0.01 in0.3 mm 0.00 in0.0 mm 0.02 in0.5 mm
01:47 AM 36.8°F2.7°C 33.6°F0.9°C 88% 12.0 mph S19.3 kmh S 17.0 mph27.4 kmh 29.07 in984.4 mb 0.01 in0.3 mm 0.00 in0.0 mm 0.02 in0.5 mm
01:48 AM 36.8°F2.7°C 33.6°F0.9°C 88% 10.6 mph SSW17.1 kmh SSW 17.0 mph27.4 kmh 29.08 in984.8 mb 0.01 in0.3 mm 0.00 in0.0 mm 0.02 in0.5 mm
01:49 AM 36.8°F2.7°C 33.6°F0.9°C 88% 9.3 mph SSW15.0 kmh SSW 15.0 mph24.1 kmh 29.07 in984.4 mb 0.01 in0.3 mm 0.00 in0.0 mm 0.02 in0.5 mm
01:50 AM 36.8°F2.7°C 33.6°F0.9°C 88% 11.9 mph SSW19.2 kmh SSW 14.0 mph22.5 kmh 29.07 in984.4 mb 0.00 in0.0 mm 0.00 in0.0 mm 0.02 in0.5 mm
01:51 AM 36.8°F2.7°C 33.6°F0.9°C 88% 11.5 mph S18.5 kmh S 14.0 mph22.5 kmh 29.07 in984.4 mb 0.00 in0.0 mm 0.00 in0.0 mm 0.02 in0.5 mm
01:52 AM 36.8°F2.7°C 33.6°F0.9°C 88% 9.9 mph SSW15.9 kmh SSW 14.0 mph22.5 kmh 29.07 in984.4 mb 0.00 in0.0 mm 0.00 in0.0 mm 0.02 in0.5 mm
01:53 AM 36.8°F2.7°C 33.6°F0.9°C 88% 10.2 mph SSW16.4 kmh SSW 14.0 mph22.5 kmh 29.07 in984.4 mb 0.00 in0.0 mm 0.00 in0.0 mm 0.02 in0.5 mm
01:54 AM 36.8°F2.7°C 33.6°F0.9°C 88% 8.8 mph SSW14.2 kmh SSW 13.0 mph20.9 kmh 29.07 in984.4 mb 0.00 in0.0 mm 0.00 in0.0 mm 0.02 in0.5 mm
01:55 AM 36.8°F2.7°C 33.6°F0.9°C 88% 9.3 mph SSW15.0 kmh SSW 14.0 mph22.5 kmh 29.07 in984.4 mb 0.00 in0.0 mm 0.00 in0.0 mm 0.02 in0.5 mm
01:56 AM 36.7°F2.6°C 33.5°F0.8°C 88% 13.0 mph SSW20.9 kmh SSW 17.0 mph27.4 kmh 29.07 in984.4 mb 0.00 in0.0 mm 0.00 in0.0 mm 0.02 in0.5 mm
01:57 AM 36.7°F2.6°C 33.5°F0.8°C 88% 13.1 mph SSW21.1 kmh SSW 19.0 mph30.6 kmh 29.07 in984.4 mb 0.00 in0.0 mm 0.00 in0.0 mm 0.02 in0.5 mm
01:58 AM 36.7°F2.6°C 33.5°F0.8°C 88% 11.6 mph SSW18.7 kmh SSW 19.0 mph30.6 kmh 29.07 in984.4 mb 0.00 in0.0 mm 0.00 in0.0 mm 0.02 in0.5 mm
01:59 AM 36.7°F2.6°C 33.5°F0.8°C 88% 10.7 mph SSW17.2 kmh SSW 16.0 mph25.7 kmh 29.07 in984.4 mb 0.00 in0.0 mm 0.00 in0.0 mm 0.02 in0.5 mm
02:00 AM 36.7°F2.6°C 33.5°F0.8°C 88% 12.1 mph SSW19.5 kmh SSW 17.0 mph27.4 kmh 29.07 in984.4 mb 0.00 in0.0 mm 0.00 in0.0 mm 0.02 in0.5 mm
02:01 AM 36.7°F2.6°C 33.5°F0.8°C 88% 11.3 mph SSW18.2 kmh SSW 17.0 mph27.4 kmh 29.07 in984.4 mb 0.00 in0.0 mm 0.00 in0.0 mm 0.02 in0.5 mm
02:02 AM 36.7°F2.6°C 33.5°F0.8°C 88% 12.8 mph SSW20.6 kmh SSW 18.0 mph29.0 kmh 29.07 in984.4 mb 0.00 in0.0 mm 0.00 in0.0 mm 0.02 in0.5 mm
02:03 AM 36.7°F2.6°C 33.5°F0.8°C 88% 11.8 mph SSW19.0 kmh SSW 18.0 mph29.0 kmh 29.07 in984.4 mb 0.00 in0.0 mm 0.00 in0.0 mm 0.02 in0.5 mm
02:04 AM 36.7°F2.6°C 33.5°F0.8°C 88% 12.7 mph SSW20.4 kmh SSW 16.0 mph25.7 kmh 29.07 in984.4 mb 0.00 in0.0 mm 0.00 in0.0 mm 0.02 in0.5 mm
02:05 AM 36.7°F2.6°C 33.5°F0.8°C 88% 10.7 mph SSW17.2 kmh SSW 16.0 mph25.7 kmh 29.07 in984.4 mb 0.00 in0.0 mm 0.00 in0.0 mm 0.02 in0.5 mm
02:06 AM 36.7°F2.6°C 33.5°F0.8°C 88% 10.7 mph SSW17.2 kmh SSW 14.0 mph22.5 kmh 29.07 in984.4 mb 0.00 in0.0 mm 0.00 in0.0 mm 0.02 in0.5 mm
02:07 AM 36.6°F2.6°C 33.4°F0.8°C 88% 11.1 mph SSW17.9 kmh SSW 15.0 mph24.1 kmh 29.07 in984.4 mb 0.00 in0.0 mm 0.00 in0.0 mm 0.02 in0.5 mm
02:08 AM 36.7°F2.6°C 33.5°F0.8°C 88% 11.1 mph SSW17.9 kmh SSW 17.0 mph27.4 kmh 29.07 in984.4 mb 0.00 in0.0 mm 0.00 in0.0 mm 0.02 in0.5 mm
02:09 AM 36.7°F2.6°C 33.5°F0.8°C 88% 11.0 mph SSW17.7 kmh SSW 17.0 mph27.4 kmh 29.07 in984.4 mb 0.00 in0.0 mm 0.00 in0.0 mm 0.02 in0.5 mm
02:10 AM 36.7°F2.6°C 33.5°F0.8°C 88% 10.1 mph SSW16.3 kmh SSW 16.0 mph25.7 kmh 29.07 in984.4 mb 0.00 in0.0 mm 0.00 in0.0 mm 0.02 in0.5 mm
02:11 AM 36.7°F2.6°C 33.5°F0.8°C 88% 10.3 mph SSW16.6 kmh SSW 15.0 mph24.1 kmh 29.07 in984.4 mb 0.00 in0.0 mm 0.00 in0.0 mm 0.02 in0.5 mm
02:12 AM 36.7°F2.6°C 33.5°F0.8°C 88% 12.0 mph SSW19.3 kmh SSW 15.0 mph24.1 kmh 29.07 in984.4 mb 0.00 in0.0 mm 0.00 in0.0 mm 0.02 in0.5 mm
02:13 AM 36.7°F2.6°C 33.5°F0.8°C 88% 13.1 mph SW21.1 kmh SW 20.0 mph32.2 kmh 29.07 in984.4 mb 0.00 in0.0 mm 0.00 in0.0 mm 0.02 in0.5 mm
02:14 AM 36.8°F2.7°C 33.6°F0.9°C 88% 15.4 mph SW24.8 kmh SW 22.0 mph35.4 kmh 29.07 in984.4 mb 0.00 in0.0 mm 0.00 in0.0 mm 0.02 in0.5 mm
02:15 AM 36.8°F2.7°C 33.6°F0.9°C 88% 12.3 mph SW19.8 kmh SW 22.0 mph35.4 kmh 29.07 in984.4 mb 0.01 in0.3 mm 0.60 in15.2 mm 0.02 in0.5 mm
02:16 AM 36.8°F2.7°C 33.6°F0.9°C 88% 17.1 mph SW27.5 kmh SW 22.0 mph35.4 kmh 29.07 in984.4 mb 0.01 in0.3 mm 0.00 in0.0 mm 0.02 in0.5 mm
02:17 AM 36.8°F2.7°C 33.6°F0.9°C 88% 16.7 mph SW26.9 kmh SW 22.0 mph35.4 kmh 29.07 in984.4 mb 0.01 in0.3 mm 0.00 in0.0 mm 0.02 in0.5 mm
02:18 AM 36.7°F2.6°C 33.5°F0.8°C 88% 15.8 mph SW25.4 kmh SW 21.0 mph33.8 kmh 29.07 in984.4 mb 0.01 in0.3 mm 0.00 in0.0 mm 0.02 in0.5 mm
02:19 AM 36.6°F2.6°C 33.4°F0.8°C 88% 16.3 mph SW26.2 kmh SW 20.0 mph32.2 kmh 29.07 in984.4 mb 0.01 in0.3 mm 0.00 in0.0 mm 0.02 in0.5 mm
02:20 AM 36.5°F2.5°C 33.3°F0.7°C 88% 13.8 mph SW22.2 kmh SW 20.0 mph32.2 kmh 29.07 in984.4 mb 0.01 in0.3 mm 0.00 in0.0 mm 0.02 in0.5 mm
02:21 AM 36.4°F2.4°C 33.2°F0.7°C 88% 14.1 mph SW22.7 kmh SW 18.0 mph29.0 kmh 29.07 in984.4 mb 0.01 in0.3 mm 0.00 in0.0 mm 0.02 in0.5 mm
02:22 AM 36.3°F2.4°C 33.4°F0.8°C 89% 11.8 mph SW19.0 kmh SW 18.0 mph29.0 kmh 29.07 in984.4 mb 0.01 in0.3 mm 0.00 in0.0 mm 0.02 in0.5 mm
02:23 AM 36.2°F2.3°C 33.3°F0.7°C 89% 11.2 mph SW18.0 kmh SW 14.0 mph22.5 kmh 29.07 in984.4 mb 0.01 in0.3 mm 0.00 in0.0 mm 0.02 in0.5 mm
02:24 AM 36.2°F2.3°C 33.3°F0.7°C 89% 10.0 mph SW16.1 kmh SW 14.0 mph22.5 kmh 29.07 in984.4 mb 0.01 in0.3 mm 0.00 in0.0 mm 0.02 in0.5 mm
02:25 AM 36.1°F2.3°C 33.2°F0.7°C 89% 11.2 mph SW18.0 kmh SW 16.0 mph25.7 kmh 29.07 in984.4 mb 0.01 in0.3 mm 0.00 in0.0 mm 0.02 in0.5 mm
02:26 AM 36.1°F2.3°C 33.2°F0.7°C 89% 14.5 mph SW23.3 kmh SW 19.0 mph30.6 kmh 29.07 in984.4 mb 0.01 in0.3 mm 0.00 in0.0 mm 0.02 in0.5 mm
02:27 AM 36.1°F2.3°C 33.2°F0.7°C 89% 13.4 mph SW21.6 kmh SW 19.0 mph30.6 kmh 29.07 in984.4 mb 0.01 in0.3 mm 0.00 in0.0 mm 0.02 in0.5 mm
02:28 AM 36.1°F2.3°C 33.2°F0.7°C 89% 13.8 mph SW22.2 kmh SW 17.0 mph27.4 kmh 29.07 in984.4 mb 0.01 in0.3 mm 0.00 in0.0 mm 0.02 in0.5 mm
02:29 AM 36.0°F2.2°C 33.1°F0.6°C 89% 13.4 mph SW21.6 kmh SW 19.0 mph30.6 kmh 29.07 in984.4 mb 0.01 in0.3 mm 0.00 in0.0 mm 0.02 in0.5 mm
02:30 AM 36.0°F2.2°C 33.1°F0.6°C 89% 13.8 mph SW22.2 kmh SW 21.0 mph33.8 kmh 29.07 in984.4 mb 0.02 in0.5 mm 0.60 in15.2 mm 0.03 in0.8 mm
02:31 AM 36.0°F2.2°C 33.1°F0.6°C 89% 15.2 mph SW24.5 kmh SW 21.0 mph33.8 kmh 29.07 in984.4 mb 0.02 in0.5 mm 0.00 in0.0 mm 0.03 in0.8 mm
02:32 AM 36.0°F2.2°C 33.1°F0.6°C 89% 13.5 mph SW21.7 kmh SW 19.0 mph30.6 kmh 29.07 in984.4 mb 0.02 in0.5 mm 0.00 in0.0 mm 0.03 in0.8 mm
02:33 AM 36.0°F2.2°C 33.1°F0.6°C 89% 14.1 mph SW22.7 kmh SW 17.0 mph27.4 kmh 29.07 in984.4 mb 0.02 in0.5 mm 0.00 in0.0 mm 0.03 in0.8 mm
02:34 AM 36.0°F2.2°C 33.1°F0.6°C 89% 11.9 mph SW19.2 kmh SW 17.0 mph27.4 kmh 29.07 in984.4 mb 0.02 in0.5 mm 0.00 in0.0 mm 0.03 in0.8 mm
02:35 AM 36.0°F2.2°C 33.4°F0.8°C 90% 9.6 mph SW15.4 kmh SW 16.0 mph25.7 kmh 29.07 in984.4 mb 0.02 in0.5 mm 0.00 in0.0 mm 0.03 in0.8 mm
02:36 AM 36.0°F2.2°C 33.4°F0.8°C 90% 9.6 mph SW15.4 kmh SW 14.0 mph22.5 kmh 29.07 in984.4 mb 0.02 in0.5 mm 0.00 in0.0 mm 0.03 in0.8 mm
02:37 AM 35.9°F2.2°C 33.3°F0.7°C 90% 10.7 mph SW17.2 kmh SW 14.0 mph22.5 kmh 29.07 in984.4 mb 0.02 in0.5 mm 0.00 in0.0 mm 0.03 in0.8 mm
02:38 AM 35.9°F2.2°C 33.3°F0.7°C 90% 11.7 mph SW18.8 kmh SW 14.0 mph22.5 kmh 29.07 in984.4 mb 0.02 in0.5 mm 0.00 in0.0 mm 0.03 in0.8 mm
02:39 AM 35.9°F2.2°C 33.3°F0.7°C 90% 10.0 mph SW16.1 kmh SW 15.0 mph24.1 kmh 29.07 in984.4 mb 0.02 in0.5 mm 0.00 in0.0 mm 0.03 in0.8 mm
02:40 AM 35.9°F2.2°C 33.3°F0.7°C 90% 9.9 mph SSW15.9 kmh SSW 15.0 mph24.1 kmh 29.07 in984.4 mb 0.02 in0.5 mm 0.00 in0.0 mm 0.03 in0.8 mm
02:41 AM 35.9°F2.2°C 33.3°F0.7°C 90% 9.5 mph SSW15.3 kmh SSW 14.0 mph22.5 kmh 29.06 in984.1 mb 0.02 in0.5 mm 0.00 in0.0 mm 0.03 in0.8 mm
02:42 AM 36.0°F2.2°C 33.4°F0.8°C 90% 12.4 mph SW20.0 kmh SW 16.0 mph25.7 kmh 29.06 in984.1 mb 0.02 in0.5 mm 0.00 in0.0 mm 0.03 in0.8 mm
02:43 AM 36.0°F2.2°C 33.1°F0.6°C 89% 12.0 mph SW19.3 kmh SW 16.0 mph25.7 kmh 29.06 in984.1 mb 0.02 in0.5 mm 0.00 in0.0 mm 0.03 in0.8 mm
02:44 AM 36.0°F2.2°C 33.1°F0.6°C 89% 9.0 mph SW14.5 kmh SW 15.0 mph24.1 kmh 29.06 in984.1 mb 0.02 in0.5 mm 0.00 in0.0 mm 0.03 in0.8 mm
02:45 AM 36.0°F2.2°C 33.1°F0.6°C 89% 9.1 mph SW14.6 kmh SW 14.0 mph22.5 kmh 29.06 in984.1 mb 0.02 in0.5 mm 0.00 in0.0 mm 0.03 in0.8 mm
02:46 AM 36.0°F2.2°C 33.1°F0.6°C 89% 12.7 mph SW20.4 kmh SW 20.0 mph32.2 kmh 29.06 in984.1 mb 0.02 in0.5 mm 0.00 in0.0 mm 0.03 in0.8 mm
02:47 AM 36.1°F2.3°C 33.2°F0.7°C 89% 11.7 mph SW18.8 kmh SW 20.0 mph32.2 kmh 29.06 in984.1 mb 0.02 in0.5 mm 0.00 in0.0 mm 0.03 in0.8 mm
02:48 AM 36.1°F2.3°C 33.2°F0.7°C 89% 13.0 mph SW20.9 kmh SW 18.0 mph29.0 kmh 29.06 in984.1 mb 0.02 in0.5 mm 0.00 in0.0 mm 0.03 in0.8 mm
02:49 AM 36.1°F2.3°C 33.2°F0.7°C 89% 10.5 mph SW16.9 kmh SW 18.0 mph29.0 kmh 29.06 in984.1 mb 0.02 in0.5 mm 0.00 in0.0 mm 0.03 in0.8 mm
02:50 AM 36.2°F2.3°C 33.3°F0.7°C 89% 13.7 mph SW22.0 kmh SW 18.0 mph29.0 kmh 29.06 in984.1 mb 0.02 in0.5 mm 0.00 in0.0 mm 0.03 in0.8 mm
02:51 AM 36.2°F2.3°C 33.3°F0.7°C 89% 10.9 mph SSW17.5 kmh SSW 18.0 mph29.0 kmh 29.06 in984.1 mb 0.02 in0.5 mm 0.00 in0.0 mm 0.03 in0.8 mm
02:52 AM 36.2°F2.3°C 33.3°F0.7°C 89% 11.9 mph SSW19.2 kmh SSW 15.0 mph24.1 kmh 29.06 in984.1 mb 0.02 in0.5 mm 0.00 in0.0 mm 0.03 in0.8 mm
02:53 AM 36.2°F2.3°C 33.3°F0.7°C 89% 10.2 mph SSW16.4 kmh SSW 15.0 mph24.1 kmh 29.06 in984.1 mb 0.02 in0.5 mm 0.00 in0.0 mm 0.03 in0.8 mm
02:54 AM 36.2°F2.3°C 33.3°F0.7°C 89% 9.9 mph SSW15.9 kmh SSW 15.0 mph24.1 kmh 29.06 in984.1 mb 0.02 in0.5 mm 0.00 in0.0 mm 0.03 in0.8 mm
02:55 AM 36.2°F2.3°C 33.0°F0.6°C 88% 13.6 mph SSW21.9 kmh SSW 17.0 mph27.4 kmh 29.06 in984.1 mb 0.02 in0.5 mm 0.00 in0.0 mm 0.03 in0.8 mm
02:56 AM 36.2°F2.3°C 33.0°F0.6°C 88% 11.2 mph SSW18.0 kmh SSW 17.0 mph27.4 kmh 29.06 in984.1 mb 0.02 in0.5 mm 0.00 in0.0 mm 0.03 in0.8 mm
02:57 AM 36.2°F2.3°C 33.0°F0.6°C 88% 12.0 mph SSW19.3 kmh SSW 19.0 mph30.6 kmh 29.06 in984.1 mb 0.02 in0.5 mm 0.00 in0.0 mm 0.03 in0.8 mm
02:58 AM 36.2°F2.3°C 33.0°F0.6°C 88% 13.7 mph SSW22.0 kmh SSW 19.0 mph30.6 kmh 29.06 in984.1 mb 0.02 in0.5 mm 0.00 in0.0 mm 0.03 in0.8 mm
02:59 AM 36.2°F2.3°C 33.0°F0.6°C 88% 12.7 mph SSW20.4 kmh SSW 19.0 mph30.6 kmh 29.06 in984.1 mb 0.02 in0.5 mm 0.00 in0.0 mm 0.03 in0.8 mm
03:00 AM 36.3°F2.4°C 33.1°F0.6°C 88% 11.8 mph SW19.0 kmh SW 19.0 mph30.6 kmh 29.06 in984.1 mb 0.02 in0.5 mm 0.00 in0.0 mm 0.03 in0.8 mm
03:01 AM 36.3°F2.4°C 33.4°F0.8°C 89% 10.6 mph SSW17.1 kmh SSW 16.0 mph25.7 kmh 29.06 in984.1 mb 0.02 in0.5 mm 0.00 in0.0 mm 0.03 in0.8 mm
03:02 AM 36.3°F2.4°C 33.4°F0.8°C 89% 9.3 mph SSW15.0 kmh SSW 14.0 mph22.5 kmh 29.06 in984.1 mb 0.02 in0.5 mm 0.00 in0.0 mm 0.03 in0.8 mm
03:03 AM 36.3°F2.4°C 33.1°F0.6°C 88% 14.6 mph SW23.5 kmh SW 20.0 mph32.2 kmh 29.06 in984.1 mb 0.02 in0.5 mm 0.00 in0.0 mm 0.03 in0.8 mm
03:04 AM 36.2°F2.3°C 33.0°F0.6°C 88% 14.6 mph SSW23.5 kmh SSW 20.0 mph32.2 kmh 29.06 in984.1 mb 0.02 in0.5 mm 0.00 in0.0 mm 0.03 in0.8 mm
03:05 AM 36.3°F2.4°C 33.1°F0.6°C 88% 12.5 mph SW20.1 kmh SW 19.0 mph30.6 kmh 29.06 in984.1 mb 0.02 in0.5 mm 0.00 in0.0 mm 0.03 in0.8 mm
03:06 AM 36.3°F2.4°C 33.1°F0.6°C 88% 10.5 mph SW16.9 kmh SW 17.0 mph27.4 kmh 29.06 in984.1 mb 0.02 in0.5 mm 0.00 in0.0 mm 0.03 in0.8 mm
03:07 AM 36.3°F2.4°C 33.4°F0.8°C 89% 12.0 mph SW19.3 kmh SW 21.0 mph33.8 kmh 29.06 in984.1 mb 0.02 in0.5 mm 0.00 in0.0 mm 0.03 in0.8 mm
03:08 AM 36.3°F2.4°C 33.1°F0.6°C 88% 16.8 mph SSW27.0 kmh SSW 21.0 mph33.8 kmh 29.07 in984.4 mb 0.02 in0.5 mm 0.00 in0.0 mm 0.03 in0.8 mm
03:09 AM 36.2°F2.3°C 33.0°F0.6°C 88% 15.4 mph SW24.8 kmh SW 22.0 mph35.4 kmh 29.06 in984.1 mb 0.02 in0.5 mm 0.00 in0.0 mm 0.03 in0.8 mm
03:10 AM 36.2°F2.3°C 33.3°F0.7°C 89% 18.4 mph SSW29.6 kmh SSW 23.0 mph37.0 kmh 29.06 in984.1 mb 0.02 in0.5 mm 0.00 in0.0 mm 0.03 in0.8 mm
03:11 AM 36.2°F2.3°C 33.3°F0.7°C 89% 14.0 mph SSW22.5 kmh SSW 23.0 mph37.0 kmh 29.06 in984.1 mb 0.02 in0.5 mm 0.00 in0.0 mm 0.03 in0.8 mm
03:12 AM 36.2°F2.3°C 33.3°F0.7°C 89% 16.6 mph SSW26.7 kmh SSW 25.0 mph40.2 kmh 29.06 in984.1 mb 0.02 in0.5 mm 0.00 in0.0 mm 0.03 in0.8 mm
03:13 AM 36.2°F2.3°C 33.3°F0.7°C 89% 15.8 mph SSW25.4 kmh SSW 25.0 mph40.2 kmh 29.06 in984.1 mb 0.02 in0.5 mm 0.00 in0.0 mm 0.03 in0.8 mm
03:14 AM 36.2°F2.3°C 33.3°F0.7°C 89% 11.8 mph SW19.0 kmh SW 22.0 mph35.4 kmh 29.06 in984.1 mb 0.02 in0.5 mm 0.00 in0.0 mm 0.04 in1.0 mm
03:15 AM 36.3°F2.4°C 33.4°F0.8°C 89% 13.1 mph SSW21.1 kmh SSW 17.0 mph27.4 kmh 29.06 in984.1 mb 0.02 in0.5 mm 0.00 in0.0 mm 0.04 in1.0 mm
03:16 AM 36.2°F2.3°C 33.3°F0.7°C 89% 12.8 mph SSW20.6 kmh SSW 17.0 mph27.4 kmh 29.06 in984.1 mb 0.02 in0.5 mm 0.00 in0.0 mm 0.04 in1.0 mm
03:17 AM 36.2°F2.3°C 33.3°F0.7°C 89% 15.5 mph SW24.9 kmh SW 21.0 mph33.8 kmh 29.06 in984.1 mb 0.02 in0.5 mm 0.00 in0.0 mm 0.04 in1.0 mm
03:18 AM 36.2°F2.3°C 33.3°F0.7°C 89% 12.3 mph SSW19.8 kmh SSW 21.0 mph33.8 kmh 29.06 in984.1 mb 0.02 in0.5 mm 0.00 in0.0 mm 0.04 in1.0 mm
03:19 AM 36.2°F2.3°C 33.3°F0.7°C 89% 11.8 mph SW19.0 kmh SW 17.0 mph27.4 kmh 29.06 in984.1 mb 0.02 in0.5 mm 0.00 in0.0 mm 0.05 in1.3 mm
03:20 AM 36.2°F2.3°C 33.3°F0.7°C 89% 10.9 mph SW17.5 kmh SW 15.0 mph24.1 kmh 29.06 in984.1 mb 0.02 in0.5 mm 0.00 in0.0 mm 0.05 in1.3 mm
03:21 AM 36.1°F2.3°C 33.2°F0.7°C 89% 12.7 mph SW20.4 kmh SW 15.0 mph24.1 kmh 29.06 in984.1 mb 0.02 in0.5 mm 0.00 in0.0 mm 0.05 in1.3 mm
03:22 AM 36.2°F2.3°C 33.6°F0.9°C 90% 12.4 mph SW20.0 kmh SW 16.0 mph25.7 kmh 29.06 in984.1 mb 0.02 in0.5 mm 0.00 in0.0 mm 0.05 in1.3 mm
03:23 AM 36.2°F2.3°C 33.3°F0.7°C 89% 11.5 mph SW18.5 kmh SW 16.0 mph25.7 kmh 29.06 in984.1 mb 0.02 in0.5 mm 0.00 in0.0 mm 0.05 in1.3 mm
03:24 AM 36.2°F2.3°C 33.3°F0.7°C 89% 10.4 mph SW16.7 kmh SW 16.0 mph25.7 kmh 29.06 in984.1 mb 0.02 in0.5 mm 0.00 in0.0 mm 0.05 in1.3 mm
03:25 AM 36.2°F2.3°C 33.3°F0.7°C 89% 11.5 mph SW18.5 kmh SW 14.0 mph22.5 kmh 29.06 in984.1 mb 0.03 in0.8 mm 0.60 in15.2 mm 0.06 in1.5 mm
03:26 AM 36.2°F2.3°C 33.3°F0.7°C 89% 10.3 mph SW16.6 kmh SW 14.0 mph22.5 kmh 29.06 in984.1 mb 0.03 in0.8 mm 0.00 in0.0 mm 0.06 in1.5 mm
03:27 AM 36.2°F2.3°C 33.3°F0.7°C 89% 11.8 mph SW19.0 kmh SW 14.0 mph22.5 kmh 29.06 in984.1 mb 0.03 in0.8 mm 0.00 in0.0 mm 0.06 in1.5 mm
03:28 AM 36.2°F2.3°C 33.6°F0.9°C 90% 13.5 mph SW21.7 kmh SW 17.0 mph27.4 kmh 29.06 in984.1 mb 0.03 in0.8 mm 0.00 in0.0 mm 0.06 in1.5 mm
03:29 AM 36.2°F2.3°C 33.3°F0.7°C 89% 10.7 mph SW17.2 kmh SW 17.0 mph27.4 kmh 29.06 in984.1 mb 0.03 in0.8 mm 0.00 in0.0 mm 0.06 in1.5 mm
03:30 AM 36.2°F2.3°C 33.3°F0.7°C 89% 12.6 mph SW20.3 kmh SW 15.0 mph24.1 kmh 29.06 in984.1 mb 0.02 in0.5 mm 0.00 in0.0 mm 0.06 in1.5 mm
03:31 AM 36.3°F2.4°C 33.4°F0.8°C 89% 13.4 mph SW21.6 kmh SW 17.0 mph27.4 kmh 29.06 in984.1 mb 0.03 in0.8 mm 0.60 in15.2 mm 0.06 in1.5 mm
03:32 AM 36.3°F2.4°C 33.7°F0.9°C 90% 12.6 mph SW20.3 kmh SW 17.0 mph27.4 kmh 29.06 in984.1 mb 0.03 in0.8 mm 0.00 in0.0 mm 0.06 in1.5 mm
03:33 AM 36.2°F2.3°C 33.3°F0.7°C 89% 10.7 mph SW17.2 kmh SW 15.0 mph24.1 kmh 29.06 in984.1 mb 0.04 in1.0 mm 0.60 in15.2 mm 0.07 in1.8 mm
03:34 AM 36.1°F2.3°C 33.2°F0.7°C 89% 9.6 mph SW15.4 kmh SW 13.0 mph20.9 kmh 29.06 in984.1 mb 0.04 in1.0 mm 0.00 in0.0 mm 0.07 in1.8 mm
03:35 AM 36.1°F2.3°C 33.2°F0.7°C 89% 13.7 mph SW22.0 kmh SW 18.0 mph29.0 kmh 29.06 in984.1 mb 0.05 in1.3 mm 0.60 in15.2 mm 0.08 in2.0 mm
03:36 AM 36.1°F2.3°C 33.2°F0.7°C 89% 16.7 mph SW26.9 kmh SW 21.0 mph33.8 kmh 29.06 in984.1 mb 0.05 in1.3 mm 0.00 in0.0 mm 0.08 in2.0 mm
03:37 AM 36.0°F2.2°C 33.1°F0.6°C 89% 15.4 mph SW24.8 kmh SW 21.0 mph33.8 kmh 29.06 in984.1 mb 0.06 in1.5 mm 0.60 in15.2 mm 0.09 in2.3 mm
03:38 AM 36.0°F2.2°C 33.4°F0.8°C 90% 14.3 mph SW23.0 kmh SW 17.0 mph27.4 kmh 29.06 in984.1 mb 0.06 in1.5 mm 0.00 in0.0 mm 0.09 in2.3 mm
03:39 AM 36.1°F2.3°C 33.5°F0.8°C 90% 13.8 mph SW22.2 kmh SW 17.0 mph27.4 kmh 29.06 in984.1 mb 0.06 in1.5 mm 0.00 in0.0 mm 0.09 in2.3 mm
03:40 AM 36.1°F2.3°C 33.5°F0.8°C 90% 14.7 mph SW23.7 kmh SW 19.0 mph30.6 kmh 29.06 in984.1 mb 0.06 in1.5 mm 0.00 in0.0 mm 0.09 in2.3 mm
03:41 AM 36.1°F2.3°C 33.5°F0.8°C 90% 14.8 mph SW23.8 kmh SW 19.0 mph30.6 kmh 29.06 in984.1 mb 0.06 in1.5 mm 0.00 in0.0 mm 0.09 in2.3 mm
03:42 AM 36.1°F2.3°C 33.5°F0.8°C 90% 13.7 mph SW22.0 kmh SW 18.0 mph29.0 kmh 29.06 in984.1 mb 0.06 in1.5 mm 0.00 in0.0 mm 0.09 in2.3 mm
03:43 AM 36.1°F2.3°C 33.5°F0.8°C 90% 13.2 mph SW21.2 kmh SW 16.0 mph25.7 kmh 29.06 in984.1 mb 0.06 in1.5 mm 0.00 in0.0 mm 0.09 in2.3 mm
03:44 AM 35.9°F2.2°C 33.0°F0.6°C 89% 13.7 mph SW22.0 kmh SW 17.0 mph27.4 kmh 29.06 in984.1 mb 0.06 in1.5 mm 0.00 in0.0 mm 0.09 in2.3 mm
03:45 AM 35.7°F2.1°C 32.8°F0.4°C 89% 12.9 mph SW20.8 kmh SW 17.0 mph27.4 kmh 29.06 in984.1 mb 0.07 in1.8 mm 0.60 in15.2 mm 0.10 in2.5 mm
03:46 AM 35.5°F1.9°C 32.6°F0.3°C 89% 13.5 mph SW21.7 kmh SW 19.0 mph30.6 kmh 29.06 in984.1 mb 0.07 in1.8 mm 0.00 in0.0 mm 0.10 in2.5 mm
03:47 AM 35.4°F1.9°C 32.5°F0.3°C 89% 16.9 mph SW27.2 kmh SW 22.0 mph35.4 kmh 29.06 in984.1 mb 0.08 in2.0 mm 0.60 in15.2 mm 0.11 in2.8 mm
03:48 AM 35.3°F1.8°C 32.7°F0.4°C 90% 14.0 mph SW22.5 kmh SW 22.0 mph35.4 kmh 29.06 in984.1 mb 0.08 in2.0 mm 0.00 in0.0 mm 0.11 in2.8 mm
03:49 AM 35.3°F1.8°C 32.7°F0.4°C 90% 11.3 mph SW18.2 kmh SW 17.0 mph27.4 kmh 29.06 in984.1 mb 0.08 in2.0 mm 0.00 in0.0 mm 0.11 in2.8 mm
03:50 AM 35.2°F1.8°C 32.6°F0.3°C 90% 11.8 mph SW19.0 kmh SW 16.0 mph25.7 kmh 29.06 in984.1 mb 0.08 in2.0 mm 0.00 in0.0 mm 0.11 in2.8 mm
03:51 AM 35.2°F1.8°C 32.6°F0.3°C 90% 11.0 mph SW17.7 kmh SW 16.0 mph25.7 kmh 29.06 in984.1 mb 0.08 in2.0 mm 0.00 in0.0 mm 0.11 in2.8 mm
03:52 AM 35.2°F1.8°C 32.6°F0.3°C 90% 11.2 mph SW18.0 kmh SW 14.0 mph22.5 kmh 29.06 in984.1 mb 0.08 in2.0 mm 0.00 in0.0 mm 0.11 in2.8 mm
03:53 AM 35.2°F1.8°C 32.6°F0.3°C 90% 13.8 mph SW22.2 kmh SW 17.0 mph27.4 kmh 29.05 in983.7 mb 0.08 in2.0 mm 0.00 in0.0 mm 0.11 in2.8 mm
03:54 AM 35.2°F1.8°C 32.6°F0.3°C 90% 11.1 mph SW17.9 kmh SW 17.0 mph27.4 kmh 29.05 in983.7 mb 0.08 in2.0 mm 0.00 in0.0 mm 0.11 in2.8 mm
03:55 AM 35.3°F1.8°C 32.7°F0.4°C 90% 9.1 mph SW14.6 kmh SW 15.0 mph24.1 kmh 29.06 in984.1 mb 0.08 in2.0 mm 0.00 in0.0 mm 0.11 in2.8 mm
03:56 AM 35.3°F1.8°C 32.7°F0.4°C 90% 7.6 mph SSW12.2 kmh SSW 11.0 mph17.7 kmh 29.05 in983.7 mb 0.08 in2.0 mm 0.00 in0.0 mm 0.11 in2.8 mm
03:57 AM 35.3°F1.8°C 32.7°F0.4°C 90% 10.0 mph SW16.1 kmh SW 12.0 mph19.3 kmh 29.05 in983.7 mb 0.08 in2.0 mm 0.00 in0.0 mm 0.11 in2.8 mm
03:58 AM 35.3°F1.8°C 32.7°F0.4°C 90% 7.9 mph SSW12.7 kmh SSW 12.0 mph19.3 kmh 29.05 in983.7 mb 0.08 in2.0 mm 0.00 in0.0 mm 0.11 in2.8 mm
03:59 AM 35.3°F1.8°C 32.7°F0.4°C 90% 9.5 mph SSW15.3 kmh SSW 13.0 mph20.9 kmh 29.06 in984.1 mb 0.08 in2.0 mm 0.00 in0.0 mm 0.11 in2.8 mm
04:00 AM 35.3°F1.8°C 32.7°F0.4°C 90% 9.9 mph SW15.9 kmh SW 14.0 mph22.5 kmh 29.05 in983.7 mb 0.08 in2.0 mm 0.00 in0.0 mm 0.11 in2.8 mm
04:01 AM 35.3°F1.8°C 32.7°F0.4°C 90% 11.3 mph SW18.2 kmh SW 14.0 mph22.5 kmh 29.05 in983.7 mb 0.09 in2.3 mm 0.60 in15.2 mm 0.12 in3.0 mm
04:02 AM 35.4°F1.9°C 32.8°F0.4°C 90% 8.3 mph SW13.4 kmh SW 14.0 mph22.5 kmh 29.05 in983.7 mb 0.09 in2.3 mm 0.00 in0.0 mm 0.12 in3.0 mm
04:03 AM 35.5°F1.9°C 32.9°F0.5°C 90% 8.2 mph SW13.2 kmh SW 11.0 mph17.7 kmh 29.06 in984.1 mb 0.09 in2.3 mm 0.00 in0.0 mm 0.12 in3.0 mm
04:04 AM 35.6°F2.0°C 33.0°F0.6°C 90% 11.4 mph SW18.3 kmh SW 17.0 mph27.4 kmh 29.06 in984.1 mb 0.09 in2.3 mm 0.00 in0.0 mm 0.12 in3.0 mm
04:05 AM 35.7°F2.1°C 33.3°F0.7°C 91% 10.0 mph SW16.1 kmh SW 17.0 mph27.4 kmh 29.05 in983.7 mb 0.09 in2.3 mm 0.00 in0.0 mm 0.12 in3.0 mm
04:06 AM 35.7°F2.1°C 33.3°F0.7°C 91% 11.8 mph SW19.0 kmh SW 18.0 mph29.0 kmh 29.05 in983.7 mb 0.09 in2.3 mm 0.00 in0.0 mm 0.12 in3.0 mm
04:07 AM 35.9°F2.2°C 33.5°F0.8°C 91% 12.6 mph SW20.3 kmh SW 18.0 mph29.0 kmh 29.05 in983.7 mb 0.09 in2.3 mm 0.00 in0.0 mm 0.12 in3.0 mm
04:08 AM 36.0°F2.2°C 33.4°F0.8°C 90% 11.5 mph SW18.5 kmh SW 17.0 mph27.4 kmh 29.05 in983.7 mb 0.09 in2.3 mm 0.00 in0.0 mm 0.12 in3.0 mm
04:09 AM 36.2°F2.3°C 33.8°F1.0°C 91% 11.0 mph SW17.7 kmh SW 17.0 mph27.4 kmh 29.05 in983.7 mb 0.09 in2.3 mm 0.00 in0.0 mm 0.12 in3.0 mm
04:10 AM 36.3°F2.4°C 33.9°F1.1°C 91% 13.6 mph SW21.9 kmh SW 17.0 mph27.4 kmh 29.05 in983.7 mb 0.09 in2.3 mm 0.00 in0.0 mm 0.12 in3.0 mm
04:11 AM 36.5°F2.5°C 33.9°F1.1°C 90% 11.6 mph SW18.7 kmh SW 17.0 mph27.4 kmh 29.05 in983.7 mb 0.09 in2.3 mm 0.00 in0.0 mm 0.12 in3.0 mm
04:12 AM 36.5°F2.5°C 33.9°F1.1°C 90% 14.3 mph SW23.0 kmh SW 22.0 mph35.4 kmh 29.05 in983.7 mb 0.09 in2.3 mm 0.00 in0.0 mm 0.12 in3.0 mm
04:13 AM 36.7°F2.6°C 34.0°F1.1°C 90% 15.0 mph SW24.1 kmh SW 22.0 mph35.4 kmh 29.05 in983.7 mb 0.09 in2.3 mm 0.00 in0.0 mm 0.12 in3.0 mm
04:14 AM 36.8°F2.7°C 34.1°F1.2°C 90% 15.1 mph SW24.3 kmh SW 19.0 mph30.6 kmh 29.05 in983.7 mb 0.08 in2.0 mm 0.00 in0.0 mm 0.12 in3.0 mm
04:15 AM 36.8°F2.7°C 34.1°F1.2°C 90% 14.0 mph SW22.5 kmh SW 19.0 mph30.6 kmh 29.05 in983.7 mb 0.08 in2.0 mm 0.00 in0.0 mm 0.12 in3.0 mm
04:16 AM 36.9°F2.7°C 34.2°F1.2°C 90% 16.5 mph SW26.6 kmh SW 22.0 mph35.4 kmh 29.05 in983.7 mb 0.08 in2.0 mm 0.00 in0.0 mm 0.12 in3.0 mm
04:17 AM 37.1°F2.8°C 34.4°F1.3°C 90% 16.2 mph SW26.1 kmh SW 22.0 mph35.4 kmh 29.05 in983.7 mb 0.08 in2.0 mm 0.00 in0.0 mm 0.12 in3.0 mm
04:18 AM 37.0°F2.8°C 34.3°F1.3°C 90% 14.2 mph SW22.9 kmh SW 21.0 mph33.8 kmh 29.05 in983.7 mb 0.08 in2.0 mm 0.00 in0.0 mm 0.12 in3.0 mm
04:19 AM 37.1°F2.8°C 34.4°F1.3°C 90% 18.8 mph SW30.3 kmh SW 22.0 mph35.4 kmh 29.05 in983.7 mb 0.07 in1.8 mm 0.00 in0.0 mm 0.12 in3.0 mm
04:20 AM 37.2°F2.9°C 34.3°F1.3°C 89% 17.4 mph SW28.0 kmh SW 22.0 mph35.4 kmh 29.05 in983.7 mb 0.07 in1.8 mm 0.00 in0.0 mm 0.12 in3.0 mm
04:21 AM 37.3°F2.9°C 34.4°F1.3°C 89% 15.0 mph SW24.1 kmh SW 21.0 mph33.8 kmh 29.05 in983.7 mb 0.07 in1.8 mm 0.00 in0.0 mm 0.12 in3.0 mm
04:22 AM 37.2°F2.9°C 34.3°F1.3°C 89% 17.7 mph SW28.5 kmh SW 29.0 mph46.7 kmh 29.06 in984.1 mb 0.07 in1.8 mm 0.00 in0.0 mm 0.12 in3.0 mm
04:23 AM 37.3°F2.9°C 34.4°F1.3°C 89% 19.0 mph SW30.6 kmh SW 29.0 mph46.7 kmh 29.06 in984.1 mb 0.07 in1.8 mm 0.00 in0.0 mm 0.12 in3.0 mm
04:24 AM 37.3°F2.9°C 34.4°F1.3°C 89% 16.2 mph SW26.1 kmh SW 22.0 mph35.4 kmh 29.06 in984.1 mb 0.07 in1.8 mm 0.00 in0.0 mm 0.12 in3.0 mm
04:25 AM 37.3°F2.9°C 34.4°F1.3°C 89% 18.6 mph SW29.9 kmh SW 21.0 mph33.8 kmh 29.06 in984.1 mb 0.06 in1.5 mm 0.00 in0.0 mm 0.12 in3.0 mm
04:26 AM 37.3°F2.9°C 34.4°F1.3°C 89% 17.1 mph SW27.5 kmh SW 21.0 mph33.8 kmh 29.06 in984.1 mb 0.06 in1.5 mm 0.00 in0.0 mm 0.12 in3.0 mm
04:27 AM 37.3°F2.9°C 34.4°F1.3°C 89% 9.9 mph SW15.9 kmh SW 21.0 mph33.8 kmh 29.05 in983.7 mb 0.06 in1.5 mm 0.00 in0.0 mm 0.12 in3.0 mm
04:28 AM 37.2°F2.9°C 34.3°F1.3°C 89% 12.7 mph SW20.4 kmh SW 17.0 mph27.4 kmh 29.05 in983.7 mb 0.06 in1.5 mm 0.00 in0.0 mm 0.12 in3.0 mm
04:29 AM 37.1°F2.8°C 34.2°F1.2°C 89% 15.2 mph SW24.5 kmh SW 17.0 mph27.4 kmh 29.06 in984.1 mb 0.06 in1.5 mm 0.00 in0.0 mm 0.12 in3.0 mm
04:30 AM 37.2°F2.9°C 34.3°F1.3°C 89% 17.2 mph SW27.7 kmh SW 24.0 mph38.6 kmh 29.05 in983.7 mb 0.06 in1.5 mm 0.00 in0.0 mm 0.12 in3.0 mm
04:31 AM 37.1°F2.8°C 34.2°F1.2°C 89% 16.8 mph SW27.0 kmh SW 24.0 mph38.6 kmh 29.06 in984.1 mb 0.06 in1.5 mm 0.00 in0.0 mm 0.12 in3.0 mm
04:32 AM 37.1°F2.8°C 34.2°F1.2°C 89% 17.0 mph SW27.4 kmh SW 22.0 mph35.4 kmh 29.06 in984.1 mb 0.06 in1.5 mm 0.00 in0.0 mm 0.12 in3.0 mm
04:33 AM 37.1°F2.8°C 34.2°F1.2°C 89% 16.7 mph SW26.9 kmh SW 21.0 mph33.8 kmh 29.05 in983.7 mb 0.05 in1.3 mm 0.00 in0.0 mm 0.12 in3.0 mm
04:34 AM 37.1°F2.8°C 34.2°F1.2°C 89% 18.8 mph SW30.3 kmh SW 23.0 mph37.0 kmh 29.06 in984.1 mb 0.05 in1.3 mm 0.00 in0.0 mm 0.12 in3.0 mm
04:35 AM 37.1°F2.8°C 34.2°F1.2°C 89% 20.4 mph SW32.8 kmh SW 27.0 mph43.5 kmh 29.06 in984.1 mb 0.05 in1.3 mm 0.00 in0.0 mm 0.13 in3.3 mm
04:36 AM 37.0°F2.8°C 34.1°F1.2°C 89% 18.9 mph SW30.4 kmh SW 27.0 mph43.5 kmh 29.05 in983.7 mb 0.05 in1.3 mm 0.00 in0.0 mm 0.13 in3.3 mm
04:37 AM 37.0°F2.8°C 34.1°F1.2°C 89% 16.0 mph SW25.7 kmh SW 24.0 mph38.6 kmh 29.05 in983.7 mb 0.04 in1.0 mm 0.00 in0.0 mm 0.13 in3.3 mm
04:38 AM 36.9°F2.7°C 34.0°F1.1°C 89% 16.7 mph SW26.9 kmh SW 23.0 mph37.0 kmh 29.05 in983.7 mb 0.04 in1.0 mm 0.00 in0.0 mm 0.13 in3.3 mm
04:39 AM 36.8°F2.7°C 33.9°F1.1°C 89% 18.9 mph SW30.4 kmh SW 23.0 mph37.0 kmh 29.05 in983.7 mb 0.04 in1.0 mm 0.00 in0.0 mm 0.13 in3.3 mm
04:40 AM 36.8°F2.7°C 33.9°F1.1°C 89% 19.1 mph SW30.7 kmh SW 23.0 mph37.0 kmh 29.05 in983.7 mb 0.04 in1.0 mm 0.00 in0.0 mm 0.13 in3.3 mm
04:41 AM 36.8°F2.7°C 33.9°F1.1°C 89% 15.1 mph SW24.3 kmh SW 23.0 mph37.0 kmh 29.05 in983.7 mb 0.03 in0.8 mm 0.00 in0.0 mm 0.13 in3.3 mm
04:42 AM 36.8°F2.7°C 33.9°F1.1°C 89% 18.1 mph SW29.1 kmh SW 23.0 mph37.0 kmh 29.05 in983.7 mb 0.03 in0.8 mm 0.00 in0.0 mm 0.13 in3.3 mm
04:43 AM 36.8°F2.7°C 33.9°F1.1°C 89% 20.3 mph SW32.7 kmh SW 24.0 mph38.6 kmh 29.05 in983.7 mb 0.03 in0.8 mm 0.00 in0.0 mm 0.13 in3.3 mm
04:44 AM 36.9°F2.7°C 34.0°F1.1°C 89% 18.6 mph SW29.9 kmh SW 24.0 mph38.6 kmh 29.05 in983.7 mb 0.03 in0.8 mm 0.00 in0.0 mm 0.13 in3.3 mm
04:45 AM 36.9°F2.7°C 34.0°F1.1°C 89% 15.8 mph SW25.4 kmh SW 22.0 mph35.4 kmh 29.05 in983.7 mb 0.02 in0.5 mm 0.00 in0.0 mm 0.13 in3.3 mm
04:46 AM 37.0°F2.8°C 34.1°F1.2°C 89% 15.9 mph SW25.6 kmh SW 19.0 mph30.6 kmh 29.05 in983.7 mb 0.02 in0.5 mm 0.00 in0.0 mm 0.13 in3.3 mm
04:47 AM 36.9°F2.7°C 34.0°F1.1°C 89% 15.2 mph SW24.5 kmh SW 19.0 mph30.6 kmh 29.05 in983.7 mb 0.02 in0.5 mm 0.00 in0.0 mm 0.13 in3.3 mm
04:48 AM 36.9°F2.7°C 34.0°F1.1°C 89% 13.9 mph SW22.4 kmh SW 20.0 mph32.2 kmh 29.05 in983.7 mb 0.02 in0.5 mm 0.00 in0.0 mm 0.13 in3.3 mm
04:49 AM 37.0°F2.8°C 34.1°F1.2°C 89% 13.1 mph SW21.1 kmh SW 20.0 mph32.2 kmh 29.05 in983.7 mb 0.02 in0.5 mm 0.00 in0.0 mm 0.13 in3.3 mm
04:50 AM 37.0°F2.8°C 34.1°F1.2°C 89% 14.6 mph SW23.5 kmh SW 18.0 mph29.0 kmh 29.05 in983.7 mb 0.02 in0.5 mm 0.00 in0.0 mm 0.13 in3.3 mm
04:51 AM 37.0°F2.8°C 34.1°F1.2°C 89% 13.9 mph SW22.4 kmh SW 18.0 mph29.0 kmh 29.05 in983.7 mb 0.02 in0.5 mm 0.00 in0.0 mm 0.13 in3.3 mm
04:52 AM 37.0°F2.8°C 34.1°F1.2°C 89% 13.8 mph SW22.2 kmh SW 18.0 mph29.0 kmh 29.05 in983.7 mb 0.02 in0.5 mm 0.00 in0.0 mm 0.13 in3.3 mm
04:53 AM 37.0°F2.8°C 34.1°F1.2°C 89% 14.5 mph SW23.3 kmh SW 19.0 mph30.6 kmh 29.06 in984.1 mb 0.02 in0.5 mm 0.00 in0.0 mm 0.13 in3.3 mm
04:54 AM 37.0°F2.8°C 34.1°F1.2°C 89% 13.6 mph SW21.9 kmh SW 19.0 mph30.6 kmh 29.06 in984.1 mb 0.02 in0.5 mm 0.00 in0.0 mm 0.13 in3.3 mm
04:55 AM 37.0°F2.8°C 34.1°F1.2°C 89% 14.3 mph SW23.0 kmh SW 20.0 mph32.2 kmh 29.06 in984.1 mb 0.02 in0.5 mm 0.00 in0.0 mm 0.13 in3.3 mm
04:56 AM 37.1°F2.8°C 34.2°F1.2°C 89% 15.7 mph SW25.3 kmh SW 23.0 mph37.0 kmh 29.06 in984.1 mb 0.02 in0.5 mm 0.00 in0.0 mm 0.13 in3.3 mm
04:57 AM 37.1°F2.8°C 34.2°F1.2°C 89% 13.2 mph SW21.2 kmh SW 23.0 mph37.0 kmh 29.06 in984.1 mb 0.02 in0.5 mm 0.00 in0.0 mm 0.13 in3.3 mm
04:58 AM 37.1°F2.8°C 34.2°F1.2°C 89% 12.6 mph SW20.3 kmh SW 19.0 mph30.6 kmh 29.06 in984.1 mb 0.02 in0.5 mm 0.00 in0.0 mm 0.13 in3.3 mm
04:59 AM 37.1°F2.8°C 34.2°F1.2°C 89% 14.6 mph SW23.5 kmh SW 20.0 mph32.2 kmh 29.06 in984.1 mb 0.02 in0.5 mm 0.00 in0.0 mm 0.13 in3.3 mm
05:00 AM 37.2°F2.9°C 34.3°F1.3°C 89% 16.3 mph SW26.2 kmh SW 21.0 mph33.8 kmh 29.06 in984.1 mb 0.02 in0.5 mm 0.00 in0.0 mm 0.13 in3.3 mm
05:01 AM 37.3°F2.9°C 34.4°F1.3°C 89% 13.0 mph SW20.9 kmh SW 21.0 mph33.8 kmh 29.06 in984.1 mb 0.01 in0.3 mm 0.00 in0.0 mm 0.13 in3.3 mm
05:02 AM 37.3°F2.9°C 34.4°F1.3°C 89% 12.2 mph SW19.6 kmh SW 18.0 mph29.0 kmh 29.06 in984.1 mb 0.01 in0.3 mm 0.00 in0.0 mm 0.13 in3.3 mm
05:03 AM 37.3°F2.9°C 34.4°F1.3°C 89% 15.3 mph SW24.6 kmh SW 20.0 mph32.2 kmh 29.06 in984.1 mb 0.01 in0.3 mm 0.00 in0.0 mm 0.13 in3.3 mm
05:04 AM 37.3°F2.9°C 34.4°F1.3°C 89% 14.2 mph SW22.9 kmh SW 20.0 mph32.2 kmh 29.06 in984.1 mb 0.01 in0.3 mm 0.00 in0.0 mm 0.13 in3.3 mm
05:05 AM 37.4°F3.0°C 34.5°F1.4°C 89% 16.0 mph SW25.7 kmh SW 21.0 mph33.8 kmh 29.06 in984.1 mb 0.01 in0.3 mm 0.00 in0.0 mm 0.13 in3.3 mm
05:06 AM 37.4°F3.0°C 34.5°F1.4°C 89% 16.2 mph SW26.1 kmh SW 21.0 mph33.8 kmh 29.06 in984.1 mb 0.01 in0.3 mm 0.00 in0.0 mm 0.13 in3.3 mm
05:07 AM 37.5°F3.1°C 34.6°F1.4°C 89% 17.9 mph SW28.8 kmh SW 21.0 mph33.8 kmh 29.06 in984.1 mb 0.01 in0.3 mm 0.00 in0.0 mm 0.13 in3.3 mm
05:08 AM 37.5°F3.1°C 34.6°F1.4°C 89% 16.4 mph SW26.4 kmh SW 20.0 mph32.2 kmh 29.06 in984.1 mb 0.01 in0.3 mm 0.00 in0.0 mm 0.13 in3.3 mm
05:09 AM 37.6°F3.1°C 34.7°F1.5°C 89% 17.4 mph SW28.0 kmh SW 21.0 mph33.8 kmh 29.06 in984.1 mb 0.01 in0.3 mm 0.00 in0.0 mm 0.13 in3.3 mm
05:10 AM 37.6°F3.1°C 34.7°F1.5°C 89% 14.5 mph SW23.3 kmh SW 21.0 mph33.8 kmh 29.06 in984.1 mb 0.01 in0.3 mm 0.00 in0.0 mm 0.13 in3.3 mm
05:11 AM 37.7°F3.2°C 34.8°F1.6°C 89% 15.2 mph SW24.5 kmh SW 20.0 mph32.2 kmh 29.06 in984.1 mb 0.01 in0.3 mm 0.00 in0.0 mm 0.13 in3.3 mm
05:12 AM 37.7°F3.2°C 34.8°F1.6°C 89% 18.8 mph SW30.3 kmh SW 22.0 mph35.4 kmh 29.06 in984.1 mb 0.01 in0.3 mm 0.00 in0.0 mm 0.13 in3.3 mm
05:13 AM 37.8°F3.2°C 34.9°F1.6°C 89% 18.4 mph SW29.6 kmh SW 22.0 mph35.4 kmh 29.06 in984.1 mb 0.01 in0.3 mm 0.00 in0.0 mm 0.13 in3.3 mm
05:14 AM 37.8°F3.2°C 34.9°F1.6°C 89% 19.3 mph SW31.1 kmh SW 22.0 mph35.4 kmh 29.06 in984.1 mb 0.01 in0.3 mm 0.00 in0.0 mm 0.13 in3.3 mm
05:15 AM 37.9°F3.3°C 35.0°F1.7°C 89% 15.8 mph SW25.4 kmh SW 22.0 mph35.4 kmh 29.06 in984.1 mb 0.01 in0.3 mm 0.00 in0.0 mm 0.13 in3.3 mm
05:16 AM 37.9°F3.3°C 35.0°F1.7°C 89% 16.1 mph SW25.9 kmh SW 22.0 mph35.4 kmh 29.06 in984.1 mb 0.01 in0.3 mm 0.00 in0.0 mm 0.13 in3.3 mm
05:17 AM 38.0°F3.3°C 35.1°F1.7°C 89% 17.5 mph SW28.2 kmh SW 22.0 mph35.4 kmh 29.06 in984.1 mb 0.01 in0.3 mm 0.00 in0.0 mm 0.13 in3.3 mm
05:18 AM 38.0°F3.3°C 35.1°F1.7°C 89% 18.9 mph SW30.4 kmh SW 22.0 mph35.4 kmh 29.06 in984.1 mb 0.01 in0.3 mm 0.00 in0.0 mm 0.13 in3.3 mm
05:19 AM 38.0°F3.3°C 35.1°F1.7°C 89% 16.4 mph WSW26.4 kmh WSW 22.0 mph35.4 kmh 29.06 in984.1 mb 0.01 in0.3 mm 0.00 in0.0 mm 0.13 in3.3 mm
05:20 AM 38.0°F3.3°C 35.1°F1.7°C 89% 16.7 mph SW26.9 kmh SW 20.0 mph32.2 kmh 29.06 in984.1 mb 0.01 in0.3 mm 0.00 in0.0 mm 0.13 in3.3 mm
05:21 AM 38.1°F3.4°C 35.2°F1.8°C 89% 15.4 mph SW24.8 kmh SW 19.0 mph30.6 kmh 29.06 in984.1 mb 0.01 in0.3 mm 0.00 in0.0 mm 0.13 in3.3 mm
05:22 AM 38.1°F3.4°C 35.2°F1.8°C 89% 16.2 mph SW26.1 kmh SW 19.0 mph30.6 kmh 29.06 in984.1 mb 0.01 in0.3 mm 0.00 in0.0 mm 0.13 in3.3 mm
05:23 AM 38.1°F3.4°C 35.2°F1.8°C 89% 15.9 mph SW25.6 kmh SW 20.0 mph32.2 kmh 29.06 in984.1 mb 0.01 in0.3 mm 0.00 in0.0 mm 0.13 in3.3 mm
05:24 AM 38.1°F3.4°C 35.2°F1.8°C 89% 17.6 mph SW28.3 kmh SW 20.0 mph32.2 kmh 29.06 in984.1 mb 0.01 in0.3 mm 0.00 in0.0 mm 0.13 in3.3 mm
05:25 AM 38.2°F3.4°C 35.2°F1.8°C 89% 14.2 mph SW22.9 kmh SW 20.0 mph32.2 kmh 29.06 in984.1 mb 0.01 in0.3 mm 0.00 in0.0 mm 0.13 in3.3 mm
05:26 AM 38.1°F3.4°C 35.2°F1.8°C 89% 14.0 mph SW22.5 kmh SW 17.0 mph27.4 kmh 29.06 in984.1 mb 0.01 in0.3 mm 0.00 in0.0 mm 0.13 in3.3 mm
05:27 AM 38.1°F3.4°C 34.9°F1.6°C 88% 12.7 mph SW20.4 kmh SW 17.0 mph27.4 kmh 29.06 in984.1 mb 0.01 in0.3 mm 0.00 in0.0 mm 0.13 in3.3 mm
05:28 AM 38.1°F3.4°C 35.2°F1.8°C 89% 12.3 mph SW19.8 kmh SW 16.0 mph25.7 kmh 29.06 in984.1 mb 0.01 in0.3 mm 0.00 in0.0 mm 0.13 in3.3 mm
05:29 AM 38.1°F3.4°C 35.2°F1.8°C 89% 13.0 mph SW20.9 kmh SW 17.0 mph27.4 kmh 29.06 in984.1 mb 0.01 in0.3 mm 0.00 in0.0 mm 0.13 in3.3 mm
05:30 AM 38.1°F3.4°C 35.2°F1.8°C 89% 9.9 mph SW15.9 kmh SW 17.0 mph27.4 kmh 29.06 in984.1 mb 0.01 in0.3 mm 0.00 in0.0 mm 0.13 in3.3 mm
05:31 AM 38.1°F3.4°C 35.2°F1.8°C 89% 12.6 mph SW20.3 kmh SW 15.0 mph24.1 kmh 29.06 in984.1 mb 0.01 in0.3 mm 0.00 in0.0 mm 0.13 in3.3 mm
05:32 AM 38.0°F3.3°C 35.1°F1.7°C 89% 10.5 mph SW16.9 kmh SW 15.0 mph24.1 kmh 29.06 in984.1 mb 0.01 in0.3 mm 0.00 in0.0 mm 0.13 in3.3 mm
05:33 AM 38.0°F3.3°C 35.1°F1.7°C 89% 11.6 mph SW18.7 kmh SW 15.0 mph24.1 kmh 29.06 in984.1 mb 0.01 in0.3 mm 0.00 in0.0 mm 0.13 in3.3 mm
05:34 AM 38.0°F3.3°C 35.1°F1.7°C 89% 10.7 mph SW17.2 kmh SW 15.0 mph24.1 kmh 29.07 in984.4 mb 0.01 in0.3 mm 0.00 in0.0 mm 0.13 in3.3 mm
05:35 AM 38.0°F3.3°C 35.1°F1.7°C 89% 10.7 mph SW17.2 kmh SW 15.0 mph24.1 kmh 29.06 in984.1 mb 0.00 in0.0 mm 0.00 in0.0 mm 0.13 in3.3 mm
05:36 AM 38.0°F3.3°C 35.1°F1.7°C 89% 11.5 mph SW18.5 kmh SW 15.0 mph24.1 kmh 29.06 in984.1 mb 0.00 in0.0 mm 0.00 in0.0 mm 0.13 in3.3 mm
05:37 AM 38.0°F3.3°C 35.1°F1.7°C 89% 12.6 mph SW20.3 kmh SW 16.0 mph25.7 kmh 29.07 in984.4 mb 0.00 in0.0 mm 0.00 in0.0 mm 0.13 in3.3 mm
05:38 AM 38.0°F3.3°C 35.1°F1.7°C 89% 10.9 mph SW17.5 kmh SW 16.0 mph25.7 kmh 29.07 in984.4 mb 0.00 in0.0 mm 0.00 in0.0 mm 0.13 in3.3 mm
05:39 AM 38.0°F3.3°C 35.1°F1.7°C 89% 10.8 mph SW17.4 kmh SW 14.0 mph22.5 kmh 29.07 in984.4 mb 0.00 in0.0 mm 0.00 in0.0 mm 0.13 in3.3 mm
05:40 AM 38.0°F3.3°C 35.1°F1.7°C 89% 8.8 mph SW14.2 kmh SW 14.0 mph22.5 kmh 29.07 in984.4 mb 0.00 in0.0 mm 0.00 in0.0 mm 0.13 in3.3 mm
05:41 AM 38.0°F3.3°C 35.1°F1.7°C 89% 9.9 mph SW15.9 kmh SW 12.0 mph19.3 kmh 29.07 in984.4 mb 0.00 in0.0 mm 0.00 in0.0 mm 0.13 in3.3 mm
05:42 AM 38.0°F3.3°C 35.1°F1.7°C 89% 9.7 mph SW15.6 kmh SW 12.0 mph19.3 kmh 29.07 in984.4 mb 0.00 in0.0 mm 0.00 in0.0 mm 0.13 in3.3 mm
05:43 AM 37.9°F3.3°C 35.0°F1.7°C 89% 9.5 mph SSW15.3 kmh SSW 12.0 mph19.3 kmh 29.07 in984.4 mb 0.00 in0.0 mm 0.00 in0.0 mm 0.13 in3.3 mm
05:44 AM 37.9°F3.3°C 35.0°F1.7°C 89% 10.2 mph SSW16.4 kmh SSW 13.0 mph20.9 kmh 29.07 in984.4 mb 0.00 in0.0 mm 0.00 in0.0 mm 0.13 in3.3 mm
05:45 AM 37.8°F3.2°C 34.9°F1.6°C 89% 9.7 mph SSW15.6 kmh SSW 13.0 mph20.9 kmh 29.07 in984.4 mb 0.00 in0.0 mm 0.00 in0.0 mm 0.13 in3.3 mm
05:46 AM 37.8°F3.2°C 34.9°F1.6°C 89% 9.7 mph SW15.6 kmh SW 12.0 mph19.3 kmh 29.07 in984.4 mb 0.00 in0.0 mm 0.00 in0.0 mm 0.13 in3.3 mm
05:47 AM 37.9°F3.3°C 35.0°F1.7°C 89% 9.8 mph SW15.8 kmh SW 12.0 mph19.3 kmh 29.07 in984.4 mb 0.00 in0.0 mm 0.00 in0.0 mm 0.13 in3.3 mm
05:48 AM 37.9°F3.3°C 35.0°F1.7°C 89% 11.3 mph SSW18.2 kmh SSW 16.0 mph25.7 kmh 29.07 in984.4 mb 0.00 in0.0 mm 0.00 in0.0 mm 0.13 in3.3 mm
05:49 AM 37.8°F3.2°C 34.9°F1.6°C 89% 10.5 mph SW16.9 kmh SW 16.0 mph25.7 kmh 29.07 in984.4 mb 0.00 in0.0 mm 0.00 in0.0 mm 0.13 in3.3 mm
05:50 AM 37.8°F3.2°C 34.9°F1.6°C 89% 9.4 mph SSW15.1 kmh SSW 15.0 mph24.1 kmh 29.07 in984.4 mb 0.00 in0.0 mm 0.00 in0.0 mm 0.13 in3.3 mm
05:51 AM 37.7°F3.2°C 34.8°F1.6°C 89% 10.4 mph SSW16.7 kmh SSW 14.0 mph22.5 kmh 29.07 in984.4 mb 0.00 in0.0 mm 0.00 in0.0 mm 0.13 in3.3 mm
05:52 AM 37.7°F3.2°C 34.8°F1.6°C 89% 10.0 mph SSW16.1 kmh SSW 14.0 mph22.5 kmh 29.07 in984.4 mb 0.00 in0.0 mm 0.00 in0.0 mm 0.13 in3.3 mm
05:53 AM 37.7°F3.2°C 34.8°F1.6°C 89% 10.9 mph SW17.5 kmh SW 15.0 mph24.1 kmh 29.07 in984.4 mb 0.00 in0.0 mm 0.00 in0.0 mm 0.13 in3.3 mm
05:54 AM 37.7°F3.2°C 34.8°F1.6°C 89% 10.4 mph SSW16.7 kmh SSW 15.0 mph24.1 kmh 29.07 in984.4 mb 0.00 in0.0 mm 0.00 in0.0 mm 0.13 in3.3 mm
05:55 AM 37.7°F3.2°C 34.8°F1.6°C 89% 9.5 mph SW15.3 kmh SW 14.0 mph22.5 kmh 29.07 in984.4 mb 0.00 in0.0 mm 0.00 in0.0 mm 0.13 in3.3 mm
05:56 AM 37.7°F3.2°C 34.8°F1.6°C 89% 8.6 mph SSW13.8 kmh SSW 12.0 mph19.3 kmh 29.07 in984.4 mb 0.00 in0.0 mm 0.00 in0.0 mm 0.13 in3.3 mm
05:57 AM 37.7°F3.2°C 34.8°F1.6°C 89% 11.8 mph SSW19.0 kmh SSW 15.0 mph24.1 kmh 29.07 in984.4 mb 0.00 in0.0 mm 0.00 in0.0 mm 0.13 in3.3 mm
05:58 AM 37.7°F3.2°C 34.8°F1.6°C 89% 9.6 mph SSW15.4 kmh SSW 15.0 mph24.1 kmh 29.07 in984.4 mb 0.00 in0.0 mm 0.00 in0.0 mm 0.13 in3.3 mm
05:59 AM 37.7°F3.2°C 34.8°F1.6°C 89% 9.8 mph SW15.8 kmh SW 14.0 mph22.5 kmh 29.07 in984.4 mb 0.00 in0.0 mm 0.00 in0.0 mm 0.13 in3.3 mm
06:00 AM 37.7°F3.2°C 34.8°F1.6°C 89% 11.8 mph SW19.0 kmh SW 15.0 mph24.1 kmh 29.07 in984.4 mb 0.00 in0.0 mm 0.00 in0.0 mm 0.13 in3.3 mm
06:01 AM 37.7°F3.2°C 34.8°F1.6°C 89% 11.5 mph SW18.5 kmh SW 15.0 mph24.1 kmh 29.07 in984.4 mb 0.00 in0.0 mm 0.00 in0.0 mm 0.13 in3.3 mm
06:02 AM 37.7°F3.2°C 34.8°F1.6°C 89% 12.4 mph SW20.0 kmh SW 15.0 mph24.1 kmh 29.07 in984.4 mb 0.00 in0.0 mm 0.00 in0.0 mm 0.13 in3.3 mm
06:03 AM 37.7°F3.2°C 34.8°F1.6°C 89% 11.2 mph SW18.0 kmh SW 15.0 mph24.1 kmh 29.07 in984.4 mb 0.00 in0.0 mm 0.00 in0.0 mm 0.13 in3.3 mm
06:04 AM 37.7°F3.2°C 34.8°F1.6°C 89% 11.0 mph SW17.7 kmh SW 15.0 mph24.1 kmh 29.07 in984.4 mb 0.00 in0.0 mm 0.00 in0.0 mm 0.13 in3.3 mm
06:05 AM 37.7°F3.2°C 34.8°F1.6°C 89% 10.7 mph SW17.2 kmh SW 15.0 mph24.1 kmh 29.07 in984.4 mb 0.00 in0.0 mm 0.00 in0.0 mm 0.13 in3.3 mm
06:06 AM 37.7°F3.2°C 34.8°F1.6°C 89% 9.3 mph SW15.0 kmh SW 14.0 mph22.5 kmh 29.07 in984.4 mb 0.00 in0.0 mm 0.00 in0.0 mm 0.13 in3.3 mm
06:07 AM 37.7°F3.2°C 34.8°F1.6°C 89% 8.1 mph SSW13.0 kmh SSW 14.0 mph22.5 kmh 29.07 in984.4 mb 0.00 in0.0 mm 0.00 in0.0 mm 0.13 in3.3 mm
06:08 AM 37.6°F3.1°C 34.7°F1.5°C 89% 9.3 mph SW15.0 kmh SW 15.0 mph24.1 kmh 29.07 in984.4 mb 0.00 in0.0 mm 0.00 in0.0 mm 0.13 in3.3 mm
06:09 AM 37.6°F3.1°C 34.7°F1.5°C 89% 8.7 mph SW14.0 kmh SW 15.0 mph24.1 kmh 29.07 in984.4 mb 0.00 in0.0 mm 0.00 in0.0 mm 0.13 in3.3 mm
06:10 AM 37.6°F3.1°C 34.7°F1.5°C 89% 12.8 mph SW20.6 kmh SW 15.0 mph24.1 kmh 29.07 in984.4 mb 0.00 in0.0 mm 0.00 in0.0 mm 0.13 in3.3 mm
06:11 AM 37.6°F3.1°C 34.7°F1.5°C 89% 12.1 mph SSW19.5 kmh SSW 16.0 mph25.7 kmh 29.07 in984.4 mb 0.00 in0.0 mm 0.00 in0.0 mm 0.13 in3.3 mm
06:12 AM 37.6°F3.1°C 34.7°F1.5°C 89% 12.1 mph SSW19.5 kmh SSW 16.0 mph25.7 kmh 29.07 in984.4 mb 0.00 in0.0 mm 0.00 in0.0 mm 0.13 in3.3 mm
06:13 AM 37.6°F3.1°C 34.7°F1.5°C 89% 11.5 mph SSW18.5 kmh SSW 17.0 mph27.4 kmh 29.07 in984.4 mb 0.00 in0.0 mm 0.00 in0.0 mm 0.13 in3.3 mm
06:14 AM 37.5°F3.1°C 34.6°F1.4°C 89% 13.2 mph SW21.2 kmh SW 17.0 mph27.4 kmh 29.07 in984.4 mb 0.00 in0.0 mm 0.00 in0.0 mm 0.13 in3.3 mm
06:15 AM 37.5°F3.1°C 34.6°F1.4°C 89% 12.0 mph SW19.3 kmh SW 16.0 mph25.7 kmh 29.07 in984.4 mb 0.00 in0.0 mm 0.00 in0.0 mm 0.13 in3.3 mm
06:16 AM 37.5°F3.1°C 34.6°F1.4°C 89% 11.7 mph SSW18.8 kmh SSW 15.0 mph24.1 kmh 29.07 in984.4 mb 0.00 in0.0 mm 0.00 in0.0 mm 0.13 in3.3 mm
06:17 AM 37.5°F3.1°C 34.6°F1.4°C 89% 12.6 mph SW20.3 kmh SW 16.0 mph25.7 kmh 29.07 in984.4 mb 0.00 in0.0 mm 0.00 in0.0 mm 0.13 in3.3 mm
06:18 AM 37.4°F3.0°C 34.5°F1.4°C 89% 11.2 mph SW18.0 kmh SW 16.0 mph25.7 kmh 29.07 in984.4 mb 0.00 in0.0 mm 0.00 in0.0 mm 0.13 in3.3 mm
06:19 AM 37.4°F3.0°C 34.5°F1.4°C 89% 14.5 mph SW23.3 kmh SW 17.0 mph27.4 kmh 29.07 in984.4 mb 0.00 in0.0 mm 0.00 in0.0 mm 0.13 in3.3 mm
06:20 AM 37.5°F3.1°C 34.6°F1.4°C 89% 11.2 mph SW18.0 kmh SW 17.0 mph27.4 kmh 29.07 in984.4 mb 0.00 in0.0 mm 0.00 in0.0 mm 0.13 in3.3 mm
06:21 AM 37.4°F3.0°C 34.5°F1.4°C 89% 12.9 mph SW20.8 kmh SW 16.0 mph25.7 kmh 29.07 in984.4 mb 0.00 in0.0 mm 0.00 in0.0 mm 0.13 in3.3 mm
06:22 AM 37.4°F3.0°C 34.5°F1.4°C 89% 11.6 mph SW18.7 kmh SW 16.0 mph25.7 kmh 29.07 in984.4 mb 0.00 in0.0 mm 0.00 in0.0 mm 0.13 in3.3 mm
06:23 AM 37.4°F3.0°C 34.5°F1.4°C 89% 10.5 mph SW16.9 kmh SW 16.0 mph25.7 kmh 29.07 in984.4 mb 0.00 in0.0 mm 0.00 in0.0 mm 0.13 in3.3 mm
06:24 AM 37.5°F3.1°C 34.6°F1.4°C 89% 12.8 mph SW20.6 kmh SW 17.0 mph27.4 kmh 29.07 in984.4 mb 0.00 in0.0 mm 0.00 in0.0 mm 0.13 in3.3 mm
06:25 AM 37.4°F3.0°C 34.5°F1.4°C 89% 13.4 mph SW21.6 kmh SW 17.0 mph27.4 kmh 29.07 in984.4 mb 0.00 in0.0 mm 0.00 in0.0 mm 0.13 in3.3 mm
06:26 AM 37.4°F3.0°C 34.5°F1.4°C 89% 13.6 mph SW21.9 kmh SW 18.0 mph29.0 kmh 29.07 in984.4 mb 0.00 in0.0 mm 0.00 in0.0 mm 0.13 in3.3 mm
06:27 AM 37.4°F3.0°C 34.5°F1.4°C 89% 14.5 mph SW23.3 kmh SW 18.0 mph29.0 kmh 29.07 in984.4 mb 0.00 in0.0 mm 0.00 in0.0 mm 0.13 in3.3 mm
06:28 AM 37.4°F3.0°C 34.5°F1.4°C 89% 14.5 mph SW23.3 kmh SW 18.0 mph29.0 kmh 29.07 in984.4 mb 0.00 in0.0 mm 0.00 in0.0 mm 0.13 in3.3 mm
06:29 AM 37.4°F3.0°C 34.5°F1.4°C 89% 14.4 mph SW23.2 kmh SW 18.0 mph29.0 kmh 29.07 in984.4 mb 0.00 in0.0 mm 0.00 in0.0 mm 0.13 in3.3 mm
06:30 AM 37.4°F3.0°C 34.5°F1.4°C 89% 13.7 mph SW22.0 kmh SW 18.0 mph29.0 kmh 29.07 in984.4 mb 0.00 in0.0 mm 0.00 in0.0 mm 0.13 in3.3 mm
06:31 AM 37.4°F3.0°C 34.5°F1.4°C 89% 13.3 mph SW21.4 kmh SW 18.0 mph29.0 kmh 29.07 in984.4 mb 0.00 in0.0 mm 0.00 in0.0 mm 0.13 in3.3 mm
06:32 AM 37.4°F3.0°C 34.5°F1.4°C 89% 12.4 mph SW20.0 kmh SW 18.0 mph29.0 kmh 29.07 in984.4 mb 0.00 in0.0 mm 0.00 in0.0 mm 0.13 in3.3 mm
06:33 AM 37.4°F3.0°C 34.5°F1.4°C 89% 12.2 mph SW19.6 kmh SW 16.0 mph25.7 kmh 29.07 in984.4 mb 0.00 in0.0 mm 0.00 in0.0 mm 0.13 in3.3 mm
06:34 AM 37.3°F2.9°C 34.4°F1.3°C 89% 13.2 mph SW21.2 kmh SW 17.0 mph27.4 kmh 29.07 in984.4 mb 0.00 in0.0 mm 0.00 in0.0 mm 0.13 in3.3 mm
06:35 AM 37.4°F3.0°C 34.5°F1.4°C 89% 14.4 mph SW23.2 kmh SW 18.0 mph29.0 kmh 29.07 in984.4 mb 0.00 in0.0 mm 0.00 in0.0 mm 0.13 in3.3 mm
06:36 AM 37.3°F2.9°C 34.4°F1.3°C 89% 14.5 mph SW23.3 kmh SW 18.0 mph29.0 kmh 29.07 in984.4 mb 0.00 in0.0 mm 0.00 in0.0 mm 0.13 in3.3 mm
06:37 AM 37.3°F2.9°C 34.4°F1.3°C 89% 11.6 mph SW18.7 kmh SW 17.0 mph27.4 kmh 29.07 in984.4 mb 0.00 in0.0 mm 0.00 in0.0 mm 0.13 in3.3 mm
06:38 AM 37.3°F2.9°C 34.4°F1.3°C 89% 13.9 mph SW22.4 kmh SW 17.0 mph27.4 kmh 29.07 in984.4 mb 0.00 in0.0 mm 0.00 in0.0 mm 0.13 in3.3 mm
06:39 AM 37.3°F2.9°C 34.4°F1.3°C 89% 12.6 mph SW20.3 kmh SW 18.0 mph29.0 kmh 29.07 in984.4 mb 0.00 in0.0 mm 0.00 in0.0 mm 0.13 in3.3 mm
06:40 AM 37.3°F2.9°C 34.4°F1.3°C 89% 11.9 mph SW19.2 kmh SW 18.0 mph29.0 kmh 29.07 in984.4 mb 0.00 in0.0 mm 0.00 in0.0 mm 0.13 in3.3 mm
06:41 AM 37.3°F2.9°C 34.4°F1.3°C 89% 11.7 mph SW18.8 kmh SW 15.0 mph24.1 kmh 29.07 in984.4 mb 0.00 in0.0 mm 0.00 in0.0 mm 0.13 in3.3 mm
06:42 AM 37.3°F2.9°C 34.4°F1.3°C 89% 11.8 mph SW19.0 kmh SW 15.0 mph24.1 kmh 29.07 in984.4 mb 0.00 in0.0 mm 0.00 in0.0 mm 0.13 in3.3 mm
06:43 AM 37.2°F2.9°C 34.3°F1.3°C 89% 12.0 mph SW19.3 kmh SW 15.0 mph24.1 kmh 29.07 in984.4 mb 0.00 in0.0 mm 0.00 in0.0 mm 0.13 in3.3 mm
06:44 AM 37.2°F2.9°C 34.3°F1.3°C 89% 9.8 mph SW15.8 kmh SW 15.0 mph24.1 kmh 29.07 in984.4 mb 0.00 in0.0 mm 0.00 in0.0 mm 0.13 in3.3 mm
06:45 AM 37.1°F2.8°C 34.2°F1.2°C 89% 11.6 mph SSW18.7 kmh SSW 15.0 mph24.1 kmh 29.07 in984.4 mb 0.00 in0.0 mm 0.00 in0.0 mm 0.13 in3.3 mm
06:46 AM 37.2°F2.9°C 34.3°F1.3°C 89% 11.9 mph SW19.2 kmh SW 15.0 mph24.1 kmh 29.07 in984.4 mb 0.00 in0.0 mm 0.00 in0.0 mm 0.13 in3.3 mm
06:47 AM 37.1°F2.8°C 34.2°F1.2°C 89% 13.2 mph SW21.2 kmh SW 17.0 mph27.4 kmh 29.07 in984.4 mb 0.00 in0.0 mm 0.00 in0.0 mm 0.13 in3.3 mm
06:48 AM 37.1°F2.8°C 34.2°F1.2°C 89% 10.2 mph SW16.4 kmh SW 17.0 mph27.4 kmh 29.08 in984.8 mb 0.00 in0.0 mm 0.00 in0.0 mm 0.13 in3.3 mm
06:49 AM 37.1°F2.8°C 34.2°F1.2°C 89% 11.8 mph SW19.0 kmh SW 18.0 mph29.0 kmh 29.07 in984.4 mb 0.00 in0.0 mm 0.00 in0.0 mm 0.13 in3.3 mm
06:50 AM 37.1°F2.8°C 34.2°F1.2°C 89% 11.1 mph SW17.9 kmh SW 18.0 mph29.0 kmh 29.07 in984.4 mb 0.00 in0.0 mm 0.00 in0.0 mm 0.13 in3.3 mm
06:51 AM 37.1°F2.8°C 34.2°F1.2°C 89% 10.9 mph SW17.5 kmh SW 15.0 mph24.1 kmh 29.07 in984.4 mb 0.00 in0.0 mm 0.00 in0.0 mm 0.13 in3.3 mm
06:52 AM 37.1°F2.8°C 34.2°F1.2°C 89% 13.1 mph SW21.1 kmh SW 16.0 mph25.7 kmh 29.07 in984.4 mb 0.00 in0.0 mm 0.00 in0.0 mm 0.13 in3.3 mm
06:53 AM 37.1°F2.8°C 34.2°F1.2°C 89% 12.8 mph SW20.6 kmh SW 16.0 mph25.7 kmh 29.07 in984.4 mb 0.00 in0.0 mm 0.00 in0.0 mm 0.13 in3.3 mm
06:54 AM 37.1°F2.8°C 34.2°F1.2°C 89% 14.1 mph SW22.7 kmh SW 17.0 mph27.4 kmh 29.07 in984.4 mb 0.00 in0.0 mm 0.00 in0.0 mm 0.13 in3.3 mm
06:55 AM 37.1°F2.8°C 34.2°F1.2°C 89% 14.2 mph SSW22.9 kmh SSW 19.0 mph30.6 kmh 29.08 in984.8 mb 0.00 in0.0 mm 0.00 in0.0 mm 0.13 in3.3 mm
06:56 AM 37.2°F2.9°C 34.3°F1.3°C 89% 10.2 mph SW16.4 kmh SW 16.0 mph25.7 kmh 29.07 in984.4 mb 0.00 in0.0 mm 0.00 in0.0 mm 0.13 in3.3 mm
06:57 AM 37.2°F2.9°C 34.3°F1.3°C 89% 11.1 mph SW17.9 kmh SW 17.0 mph27.4 kmh 29.07 in984.4 mb 0.00 in0.0 mm 0.00 in0.0 mm 0.13 in3.3 mm
06:58 AM 37.2°F2.9°C 34.3°F1.3°C 89% 13.4 mph SW21.6 kmh SW 19.0 mph30.6 kmh 29.07 in984.4 mb 0.00 in0.0 mm 0.00 in0.0 mm 0.13 in3.3 mm
06:59 AM 37.2°F2.9°C 34.3°F1.3°C 89% 12.7 mph SW20.4 kmh SW 19.0 mph30.6 kmh 29.07 in984.4 mb 0.00 in0.0 mm 0.00 in0.0 mm 0.13 in3.3 mm
07:00 AM 37.2°F2.9°C 34.3°F1.3°C 89% 9.4 mph SSW15.1 kmh SSW 17.0 mph27.4 kmh 29.07 in984.4 mb 0.00 in0.0 mm 0.00 in0.0 mm 0.13 in3.3 mm
07:01 AM 37.2°F2.9°C 34.3°F1.3°C 89% 11.3 mph SW18.2 kmh SW 17.0 mph27.4 kmh 29.07 in984.4 mb 0.00 in0.0 mm 0.00 in0.0 mm 0.13 in3.3 mm
07:02 AM 37.2°F2.9°C 34.3°F1.3°C 89% 11.5 mph SW18.5 kmh SW 15.0 mph24.1 kmh 29.07 in984.4 mb 0.00 in0.0 mm 0.00 in0.0 mm 0.13 in3.3 mm
07:03 AM 37.2°F2.9°C 34.3°F1.3°C 89% 12.0 mph SW19.3 kmh SW 17.0 mph27.4 kmh 29.07 in984.4 mb 0.00 in0.0 mm 0.00 in0.0 mm 0.13 in3.3 mm
07:04 AM 37.2°F2.9°C 34.3°F1.3°C 89% 11.3 mph SW18.2 kmh SW 17.0 mph27.4 kmh 29.08 in984.8 mb 0.00 in0.0 mm 0.00 in0.0 mm 0.13 in3.3 mm
07:05 AM 37.2°F2.9°C 34.3°F1.3°C 89% 11.5 mph SW18.5 kmh SW 16.0 mph25.7 kmh 29.08 in984.8 mb 0.00 in0.0 mm 0.00 in0.0 mm 0.13 in3.3 mm
07:06 AM 37.3°F2.9°C 34.4°F1.3°C 89% 11.3 mph SW18.2 kmh SW 15.0 mph24.1 kmh 29.08 in984.8 mb 0.00 in0.0 mm 0.00 in0.0 mm 0.13 in3.3 mm
07:07 AM 37.3°F2.9°C 34.4°F1.3°C 89% 11.5 mph SW18.5 kmh SW 16.0 mph25.7 kmh 29.07 in984.4 mb 0.00 in0.0 mm 0.00 in0.0 mm 0.13 in3.3 mm
07:08 AM 37.2°F2.9°C 34.3°F1.3°C 89% 11.5 mph SW18.5 kmh SW 17.0 mph27.4 kmh 29.07 in984.4 mb 0.00 in0.0 mm 0.00 in0.0 mm 0.13 in3.3 mm
07:09 AM 37.2°F2.9°C 34.3°F1.3°C 89% 10.9 mph SSW17.5 kmh SSW 17.0 mph27.4 kmh 29.07 in984.4 mb 0.00 in0.0 mm 0.00 in0.0 mm 0.13 in3.3 mm
07:10 AM 37.2°F2.9°C 34.3°F1.3°C 89% 9.5 mph SW15.3 kmh SW 16.0 mph25.7 kmh 29.08 in984.8 mb 0.00 in0.0 mm 0.00 in0.0 mm 0.13 in3.3 mm
07:11 AM 37.2°F2.9°C 34.3°F1.3°C 89% 11.0 mph SW17.7 kmh SW 14.0 mph22.5 kmh 29.08 in984.8 mb 0.00 in0.0 mm 0.00 in0.0 mm 0.13 in3.3 mm
07:12 AM 37.2°F2.9°C 34.3°F1.3°C 89% 8.8 mph SSW14.2 kmh SSW 14.0 mph22.5 kmh 29.08 in984.8 mb 0.00 in0.0 mm 0.00 in0.0 mm 0.13 in3.3 mm
07:13 AM 37.1°F2.8°C 34.2°F1.2°C 89% 11.6 mph SW18.7 kmh SW 18.0 mph29.0 kmh 29.08 in984.8 mb 0.00 in0.0 mm 0.00 in0.0 mm 0.13 in3.3 mm
07:14 AM 37.2°F2.9°C 34.3°F1.3°C 89% 12.9 mph SW20.8 kmh SW 18.0 mph29.0 kmh 29.08 in984.8 mb 0.00 in0.0 mm 0.00 in0.0 mm 0.13 in3.3 mm
07:15 AM 37.2°F2.9°C 34.3°F1.3°C 89% 13.1 mph SW21.1 kmh SW 20.0 mph32.2 kmh 29.08 in984.8 mb 0.00 in0.0 mm 0.00 in0.0 mm 0.13 in3.3 mm
07:16 AM 37.2°F2.9°C 34.3°F1.3°C 89% 12.7 mph SW20.4 kmh SW 20.0 mph32.2 kmh 29.08 in984.8 mb 0.00 in0.0 mm 0.00 in0.0 mm 0.13 in3.3 mm
07:17 AM 37.3°F2.9°C 34.4°F1.3°C 89% 9.7 mph SW15.6 kmh SW 15.0 mph24.1 kmh 29.08 in984.8 mb 0.00 in0.0 mm 0.00 in0.0 mm 0.13 in3.3 mm
07:18 AM 37.2°F2.9°C 34.3°F1.3°C 89% 9.7 mph SSW15.6 kmh SSW 15.0 mph24.1 kmh 29.08 in984.8 mb 0.00 in0.0 mm 0.00 in0.0 mm 0.13 in3.3 mm
07:19 AM 37.2°F2.9°C 34.3°F1.3°C 89% 8.2 mph SSW13.2 kmh SSW 15.0 mph24.1 kmh 29.08 in984.8 mb 0.00 in0.0 mm 0.00 in0.0 mm 0.13 in3.3 mm
07:20 AM 37.1°F2.8°C 34.2°F1.2°C 89% 8.4 mph SSW13.5 kmh SSW 11.0 mph17.7 kmh 29.08 in984.8 mb 0.00 in0.0 mm 0.00 in0.0 mm 0.13 in3.3 mm
07:21 AM 37.1°F2.8°C 34.2°F1.2°C 89% 8.7 mph SSW14.0 kmh SSW 11.0 mph17.7 kmh 29.08 in984.8 mb 0.00 in0.0 mm 0.00 in0.0 mm 0.13 in3.3 mm
07:22 AM 37.1°F2.8°C 34.2°F1.2°C 89% 9.6 mph SW15.4 kmh SW 11.0 mph17.7 kmh 29.08 in984.8 mb 0.00 in0.0 mm 0.00 in0.0 mm 0.13 in3.3 mm
07:23 AM 37.0°F2.8°C 34.1°F1.2°C 89% 8.8 mph SSW14.2 kmh SSW 12.0 mph19.3 kmh 29.08 in984.8 mb 0.00 in0.0 mm 0.00 in0.0 mm 0.13 in3.3 mm
07:24 AM 37.0°F2.8°C 34.1°F1.2°C 89% 10.1 mph SSW16.3 kmh SSW 13.0 mph20.9 kmh 29.08 in984.8 mb 0.00 in0.0 mm 0.00 in0.0 mm 0.13 in3.3 mm
07:25 AM 37.0°F2.8°C 34.1°F1.2°C 89% 8.7 mph SSW14.0 kmh SSW 13.0 mph20.9 kmh 29.08 in984.8 mb 0.00 in0.0 mm 0.00 in0.0 mm 0.13 in3.3 mm
07:26 AM 37.0°F2.8°C 34.1°F1.2°C 89% 9.7 mph SW15.6 kmh SW 15.0 mph24.1 kmh 29.08 in984.8 mb 0.00 in0.0 mm 0.00 in0.0 mm 0.13 in3.3 mm
07:27 AM 37.0°F2.8°C 34.1°F1.2°C 89% 11.5 mph SW18.5 kmh SW 16.0 mph25.7 kmh 29.08 in984.8 mb 0.00 in0.0 mm 0.00 in0.0 mm 0.13 in3.3 mm
07:28 AM 37.0°F2.8°C 34.1°F1.2°C 89% 10.7 mph SW17.2 kmh SW 16.0 mph25.7 kmh 29.08 in984.8 mb 0.00 in0.0 mm 0.00 in0.0 mm 0.13 in3.3 mm
07:29 AM 37.0°F2.8°C 34.1°F1.2°C 89% 10.7 mph SW17.2 kmh SW 14.0 mph22.5 kmh 29.08 in984.8 mb 0.00 in0.0 mm 0.00 in0.0 mm 0.13 in3.3 mm
07:30 AM 37.0°F2.8°C 34.1°F1.2°C 89% 9.5 mph SSW15.3 kmh SSW 13.0 mph20.9 kmh 29.08 in984.8 mb 0.00 in0.0 mm 0.00 in0.0 mm 0.13 in3.3 mm
07:31 AM 37.0°F2.8°C 34.1°F1.2°C 89% 8.8 mph SSW14.2 kmh SSW 12.0 mph19.3 kmh 29.08 in984.8 mb 0.00 in0.0 mm 0.00 in0.0 mm 0.13 in3.3 mm
07:32 AM 37.0°F2.8°C 34.1°F1.2°C 89% 8.5 mph SW13.7 kmh SW 12.0 mph19.3 kmh 29.08 in984.8 mb 0.00 in0.0 mm 0.00 in0.0 mm 0.13 in3.3 mm
07:33 AM 37.0°F2.8°C 34.1°F1.2°C 89% 10.7 mph SW17.2 kmh SW 12.0 mph19.3 kmh 29.08 in984.8 mb 0.00 in0.0 mm 0.00 in0.0 mm 0.13 in3.3 mm
07:34 AM 37.0°F2.8°C 34.1°F1.2°C 89% 9.3 mph SW15.0 kmh SW 12.0 mph19.3 kmh 29.08 in984.8 mb 0.00 in0.0 mm 0.00 in0.0 mm 0.13 in3.3 mm
07:35 AM 37.0°F2.8°C 34.1°F1.2°C 89% 9.2 mph SSW14.8 kmh SSW 13.0 mph20.9 kmh 29.08 in984.8 mb 0.00 in0.0 mm 0.00 in0.0 mm 0.13 in3.3 mm
07:36 AM 37.0°F2.8°C 34.1°F1.2°C 89% 10.4 mph SSW16.7 kmh SSW 13.0 mph20.9 kmh 29.08 in984.8 mb 0.00 in0.0 mm 0.00 in0.0 mm 0.13 in3.3 mm
07:37 AM 37.0°F2.8°C 34.1°F1.2°C 89% 7.9 mph SSW12.7 kmh SSW 13.0 mph20.9 kmh 29.08 in984.8 mb 0.00 in0.0 mm 0.00 in0.0 mm 0.13 in3.3 mm
07:38 AM 37.0°F2.8°C 34.1°F1.2°C 89% 8.2 mph SW13.2 kmh SW 12.0 mph19.3 kmh 29.08 in984.8 mb 0.00 in0.0 mm 0.00 in0.0 mm 0.13 in3.3 mm
07:39 AM 37.0°F2.8°C 34.1°F1.2°C 89% 9.4 mph SSW15.1 kmh SSW 12.0 mph19.3 kmh 29.09 in985.1 mb 0.00 in0.0 mm 0.00 in0.0 mm 0.13 in3.3 mm
07:40 AM 37.0°F2.8°C 34.1°F1.2°C 89% 10.4 mph SSW16.7 kmh SSW 13.0 mph20.9 kmh 29.09 in985.1 mb 0.00 in0.0 mm 0.00 in0.0 mm 0.13 in3.3 mm
07:41 AM 36.9°F2.7°C 34.0°F1.1°C 89% 9.8 mph SSW15.8 kmh SSW 14.0 mph22.5 kmh 29.08 in984.8 mb 0.00 in0.0 mm 0.00 in0.0 mm 0.13 in3.3 mm
07:42 AM 37.0°F2.8°C 34.1°F1.2°C 89% 8.4 mph SSW13.5 kmh SSW 14.0 mph22.5 kmh 29.08 in984.8 mb 0.00 in0.0 mm 0.00 in0.0 mm 0.13 in3.3 mm
07:43 AM 36.9°F2.7°C 34.0°F1.1°C 89% 9.5 mph SSW15.3 kmh SSW 13.0 mph20.9 kmh 29.09 in985.1 mb 0.00 in0.0 mm 0.00 in0.0 mm 0.13 in3.3 mm
07:44 AM 36.9°F2.7°C 34.0°F1.1°C 89% 7.7 mph SSW12.4 kmh SSW 12.0 mph19.3 kmh 29.09 in985.1 mb 0.00 in0.0 mm 0.00 in0.0 mm 0.13 in3.3 mm
07:45 AM 36.8°F2.7°C 33.9°F1.1°C 89% 7.5 mph SSW12.1 kmh SSW 12.0 mph19.3 kmh 29.09 in985.1 mb 0.00 in0.0 mm 0.00 in0.0 mm 0.13 in3.3 mm
07:46 AM 36.8°F2.7°C 33.9°F1.1°C 89% 9.4 mph SSW15.1 kmh SSW 14.0 mph22.5 kmh 29.09 in985.1 mb 0.00 in0.0 mm 0.00 in0.0 mm 0.13 in3.3 mm
07:47 AM 36.8°F2.7°C 33.9°F1.1°C 89% 9.2 mph SSW14.8 kmh SSW 14.0 mph22.5 kmh 29.09 in985.1 mb 0.00 in0.0 mm 0.00 in0.0 mm 0.13 in3.3 mm
07:48 AM 36.8°F2.7°C 33.9°F1.1°C 89% 7.4 mph SSW11.9 kmh SSW 12.0 mph19.3 kmh 29.08 in984.8 mb 0.00 in0.0 mm 0.00 in0.0 mm 0.13 in3.3 mm
07:49 AM 36.8°F2.7°C 33.9°F1.1°C 89% 6.0 mph SSW9.7 kmh SSW 10.0 mph16.1 kmh 29.09 in985.1 mb 0.00 in0.0 mm 0.00 in0.0 mm 0.13 in3.3 mm
07:50 AM 36.7°F2.6°C 33.8°F1.0°C 89% 8.5 mph SSW13.7 kmh SSW 12.0 mph19.3 kmh 29.09 in985.1 mb 0.00 in0.0 mm 0.00 in0.0 mm 0.13 in3.3 mm
07:51 AM 36.6°F2.6°C 33.7°F0.9°C 89% 9.1 mph SSW14.6 kmh SSW 15.0 mph24.1 kmh 29.09 in985.1 mb 0.00 in0.0 mm 0.00 in0.0 mm 0.13 in3.3 mm
07:52 AM 36.6°F2.6°C 33.7°F0.9°C 89% 9.6 mph SSW15.4 kmh SSW 15.0 mph24.1 kmh 29.09 in985.1 mb 0.00 in0.0 mm 0.00 in0.0 mm 0.13 in3.3 mm
07:53 AM 36.6°F2.6°C 33.7°F0.9°C 89% 8.7 mph SSW14.0 kmh SSW 13.0 mph20.9 kmh 29.09 in985.1 mb 0.00 in0.0 mm 0.00 in0.0 mm 0.13 in3.3 mm
07:54 AM 36.6°F2.6°C 33.7°F0.9°C 89% 8.9 mph SSW14.3 kmh SSW 14.0 mph22.5 kmh 29.09 in985.1 mb 0.00 in0.0 mm 0.00 in0.0 mm 0.13 in3.3 mm
07:55 AM 36.5°F2.5°C 33.6°F0.9°C 89% 8.3 mph SSW13.4 kmh SSW 14.0 mph22.5 kmh 29.09 in985.1 mb 0.00 in0.0 mm 0.00 in0.0 mm 0.13 in3.3 mm
07:56 AM 36.5°F2.5°C 33.6°F0.9°C 89% 9.7 mph SSW15.6 kmh SSW 13.0 mph20.9 kmh 29.09 in985.1 mb 0.00 in0.0 mm 0.00 in0.0 mm 0.13 in3.3 mm
07:57 AM 36.4°F2.4°C 33.5°F0.8°C 89% 7.9 mph SSW12.7 kmh SSW 13.0 mph20.9 kmh 29.09 in985.1 mb 0.00 in0.0 mm 0.00 in0.0 mm 0.13 in3.3 mm
07:58 AM 36.4°F2.4°C 33.5°F0.8°C 89% 12.4 mph S20.0 kmh S 16.0 mph25.7 kmh 29.09 in985.1 mb 0.00 in0.0 mm 0.00 in0.0 mm 0.13 in3.3 mm
07:59 AM 36.4°F2.4°C 33.5°F0.8°C 89% 12.5 mph SSW20.1 kmh SSW 16.0 mph25.7 kmh 29.09 in985.1 mb 0.00 in0.0 mm 0.00 in0.0 mm 0.13 in3.3 mm
08:00 AM 36.4°F2.4°C 33.5°F0.8°C 89% 11.6 mph SSW18.7 kmh SSW 15.0 mph24.1 kmh 29.09 in985.1 mb 0.00 in0.0 mm 0.00 in0.0 mm 0.13 in3.3 mm
08:01 AM 36.4°F2.4°C 33.5°F0.8°C 89% 10.9 mph SSW17.5 kmh SSW 15.0 mph24.1 kmh 29.09 in985.1 mb 0.00 in0.0 mm 0.00 in0.0 mm 0.13 in3.3 mm
08:02 AM 36.4°F2.4°C 33.5°F0.8°C 89% 10.6 mph SSW17.1 kmh SSW 15.0 mph24.1 kmh 29.09 in985.1 mb 0.00 in0.0 mm 0.00 in0.0 mm 0.13 in3.3 mm
08:03 AM 36.4°F2.4°C 33.5°F0.8°C 89% 11.6 mph SW18.7 kmh SW 17.0 mph27.4 kmh 29.09 in985.1 mb 0.00 in0.0 mm 0.00 in0.0 mm 0.13 in3.3 mm
08:04 AM 36.4°F2.4°C 33.5°F0.8°C 89% 11.2 mph SSW18.0 kmh SSW 17.0 mph27.4 kmh 29.09 in985.1 mb 0.00 in0.0 mm 0.00 in0.0 mm 0.13 in3.3 mm
08:05 AM 36.3°F2.4°C 33.4°F0.8°C 89% 9.8 mph SSW15.8 kmh SSW 15.0 mph24.1 kmh 29.09 in985.1 mb 0.00 in0.0 mm 0.00 in0.0 mm 0.13 in3.3 mm
08:06 AM 36.3°F2.4°C 33.4°F0.8°C 89% 9.1 mph SSW14.6 kmh SSW 13.0 mph20.9 kmh 29.09 in985.1 mb 0.00 in0.0 mm 0.00 in0.0 mm 0.13 in3.3 mm
08:07 AM 36.3°F2.4°C 33.4°F0.8°C 89% 8.4 mph SSW13.5 kmh SSW 13.0 mph20.9 kmh 29.09 in985.1 mb 0.00 in0.0 mm 0.00 in0.0 mm 0.13 in3.3 mm
08:08 AM 36.3°F2.4°C 33.4°F0.8°C 89% 10.8 mph SSW17.4 kmh SSW 13.0 mph20.9 kmh 29.09 in985.1 mb 0.00 in0.0 mm 0.00 in0.0 mm 0.13 in3.3 mm
08:09 AM 36.3°F2.4°C 33.7°F0.9°C 90% 10.0 mph SSW16.1 kmh SSW 13.0 mph20.9 kmh 29.09 in985.1 mb 0.00 in0.0 mm 0.00 in0.0 mm 0.13 in3.3 mm
08:10 AM 36.3°F2.4°C 33.4°F0.8°C 89% 9.7 mph SSW15.6 kmh SSW 13.0 mph20.9 kmh 29.09 in985.1 mb 0.00 in0.0 mm 0.00 in0.0 mm 0.13 in3.3 mm
08:11 AM 36.3°F2.4°C 33.4°F0.8°C 89% 7.8 mph SSW12.6 kmh SSW 13.0 mph20.9 kmh 29.09 in985.1 mb 0.00 in0.0 mm 0.00 in0.0 mm 0.13 in3.3 mm
08:12 AM 36.3°F2.4°C 33.4°F0.8°C 89% 8.0 mph SSW12.9 kmh SSW 12.0 mph19.3 kmh 29.10 in985.4 mb 0.00 in0.0 mm 0.00 in0.0 mm 0.13 in3.3 mm
08:13 AM 36.3°F2.4°C 33.4°F0.8°C 89% 12.0 mph SSW19.3 kmh SSW 16.0 mph25.7 kmh 29.09 in985.1 mb 0.00 in0.0 mm 0.00 in0.0 mm 0.13 in3.3 mm
08:14 AM 36.3°F2.4°C 33.7°F0.9°C 90% 8.1 mph SSW13.0 kmh SSW 16.0 mph25.7 kmh 29.09 in985.1 mb 0.00 in0.0 mm 0.00 in0.0 mm 0.13 in3.3 mm
08:15 AM 36.3°F2.4°C 33.7°F0.9°C 90% 9.5 mph SSW15.3 kmh SSW 12.0 mph19.3 kmh 29.09 in985.1 mb 0.00 in0.0 mm 0.00 in0.0 mm 0.13 in3.3 mm
08:16 AM 36.3°F2.4°C 33.7°F0.9°C 90% 8.5 mph SSW13.7 kmh SSW 12.0 mph19.3 kmh 29.09 in985.1 mb 0.00 in0.0 mm 0.00 in0.0 mm 0.13 in3.3 mm
08:17 AM 36.3°F2.4°C 33.4°F0.8°C 89% 10.5 mph S16.9 kmh S 12.0 mph19.3 kmh 29.09 in985.1 mb 0.00 in0.0 mm 0.00 in0.0 mm 0.13 in3.3 mm
08:18 AM 36.3°F2.4°C 33.7°F0.9°C 90% 8.0 mph SSW12.9 kmh SSW 12.0 mph19.3 kmh 29.09 in985.1 mb 0.00 in0.0 mm 0.00 in0.0 mm 0.13 in3.3 mm
08:19 AM 36.3°F2.4°C 33.7°F0.9°C 90% 6.5 mph S10.5 kmh S 12.0 mph19.3 kmh 29.09 in985.1 mb 0.00 in0.0 mm 0.00 in0.0 mm 0.13 in3.3 mm
08:20 AM 36.4°F2.4°C 33.8°F1.0°C 90% 10.6 mph SSW17.1 kmh SSW 14.0 mph22.5 kmh 29.09 in985.1 mb 0.00 in0.0 mm 0.00 in0.0 mm 0.13 in3.3 mm
08:21 AM 36.3°F2.4°C 33.7°F0.9°C 90% 9.9 mph SSW15.9 kmh SSW 14.0 mph22.5 kmh 29.09 in985.1 mb 0.00 in0.0 mm 0.00 in0.0 mm 0.13 in3.3 mm
08:22 AM 36.3°F2.4°C 33.4°F0.8°C 89% 8.1 mph S13.0 kmh S 13.0 mph20.9 kmh 29.09 in985.1 mb 0.00 in0.0 mm 0.00 in0.0 mm 0.13 in3.3 mm
08:23 AM 36.3°F2.4°C 33.7°F0.9°C 90% 8.6 mph SSW13.8 kmh SSW 13.0 mph20.9 kmh 29.09 in985.1 mb 0.00 in0.0 mm 0.00 in0.0 mm 0.13 in3.3 mm
08:24 AM 36.3°F2.4°C 33.7°F0.9°C 90% 9.6 mph SSW15.4 kmh SSW 14.0 mph22.5 kmh 29.09 in985.1 mb 0.00 in0.0 mm 0.00 in0.0 mm 0.13 in3.3 mm
08:25 AM 36.3°F2.4°C 33.7°F0.9°C 90% 11.1 mph SSW17.9 kmh SSW 14.0 mph22.5 kmh 29.09 in985.1 mb 0.00 in0.0 mm 0.00 in0.0 mm 0.13 in3.3 mm
08:26 AM 36.3°F2.4°C 33.7°F0.9°C 90% 9.6 mph SSW15.4 kmh SSW 14.0 mph22.5 kmh 29.09 in985.1 mb 0.00 in0.0 mm 0.00 in0.0 mm 0.13 in3.3 mm
08:27 AM 36.3°F2.4°C 33.7°F0.9°C 90% 9.4 mph SSW15.1 kmh SSW 13.0 mph20.9 kmh 29.09 in985.1 mb 0.00 in0.0 mm 0.00 in0.0 mm 0.13 in3.3 mm
08:28 AM 36.3°F2.4°C 33.7°F0.9°C 90% 9.6 mph SSW15.4 kmh SSW 13.0 mph20.9 kmh 29.09 in985.1 mb 0.00 in0.0 mm 0.00 in0.0 mm 0.13 in3.3 mm
08:29 AM 36.4°F2.4°C 33.8°F1.0°C 90% 10.0 mph SSW16.1 kmh SSW 14.0 mph22.5 kmh 29.09 in985.1 mb 0.00 in0.0 mm 0.00 in0.0 mm 0.13 in3.3 mm
08:30 AM 36.3°F2.4°C 33.7°F0.9°C 90% 9.1 mph SSW14.6 kmh SSW 14.0 mph22.5 kmh 29.09 in985.1 mb 0.00 in0.0 mm 0.00 in0.0 mm 0.13 in3.3 mm
08:31 AM 36.3°F2.4°C 33.7°F0.9°C 90% 6.5 mph SSW10.5 kmh SSW 12.0 mph19.3 kmh 29.09 in985.1 mb 0.00 in0.0 mm 0.00 in0.0 mm 0.13 in3.3 mm
08:32 AM 36.3°F2.4°C 33.7°F0.9°C 90% 8.9 mph S14.3 kmh S 15.0 mph24.1 kmh 29.09 in985.1 mb 0.00 in0.0 mm 0.00 in0.0 mm 0.13 in3.3 mm
08:33 AM 36.3°F2.4°C 33.7°F0.9°C 90% 9.8 mph SSW15.8 kmh SSW 15.0 mph24.1 kmh 29.09 in985.1 mb 0.00 in0.0 mm 0.00 in0.0 mm 0.13 in3.3 mm
08:34 AM 36.3°F2.4°C 33.7°F0.9°C 90% 8.7 mph S14.0 kmh S 14.0 mph22.5 kmh 29.09 in985.1 mb 0.00 in0.0 mm 0.00 in0.0 mm 0.13 in3.3 mm
08:35 AM 36.3°F2.4°C 33.7°F0.9°C 90% 10.1 mph SSW16.3 kmh SSW 14.0 mph22.5 kmh 29.09 in985.1 mb 0.00 in0.0 mm 0.00 in0.0 mm 0.13 in3.3 mm
08:36 AM 36.3°F2.4°C 33.7°F0.9°C 90% 8.8 mph SSW14.2 kmh SSW 14.0 mph22.5 kmh 29.09 in985.1 mb 0.00 in0.0 mm 0.00 in0.0 mm 0.13 in3.3 mm
08:37 AM 36.3°F2.4°C 33.7°F0.9°C 90% 9.1 mph SSW14.6 kmh SSW 16.0 mph25.7 kmh 29.09 in985.1 mb 0.00 in0.0 mm 0.00 in0.0 mm 0.13 in3.3 mm
08:38 AM 36.4°F2.4°C 33.8°F1.0°C 90% 9.3 mph SSW15.0 kmh SSW 16.0 mph25.7 kmh 29.10 in985.4 mb 0.00 in0.0 mm 0.00 in0.0 mm 0.13 in3.3 mm
08:39 AM 36.4°F2.4°C 33.8°F1.0°C 90% 10.6 mph SSW17.1 kmh SSW 16.0 mph25.7 kmh 29.10 in985.4 mb 0.00 in0.0 mm 0.00 in0.0 mm 0.13 in3.3 mm
08:40 AM 36.4°F2.4°C 33.8°F1.0°C 90% 10.5 mph SSW16.9 kmh SSW 16.0 mph25.7 kmh 29.10 in985.4 mb 0.00 in0.0 mm 0.00 in0.0 mm 0.13 in3.3 mm
08:41 AM 36.4°F2.4°C 33.8°F1.0°C 90% 11.0 mph S17.7 kmh S 16.0 mph25.7 kmh 29.10 in985.4 mb 0.00 in0.0 mm 0.00 in0.0 mm 0.13 in3.3 mm
08:42 AM 36.4°F2.4°C 33.8°F1.0°C 90% 8.3 mph SSW13.4 kmh SSW 16.0 mph25.7 kmh 29.10 in985.4 mb 0.00 in0.0 mm 0.00 in0.0 mm 0.13 in3.3 mm
08:43 AM 36.5°F2.5°C 33.9°F1.1°C 90% 10.4 mph SSW16.7 kmh SSW 14.0 mph22.5 kmh 29.10 in985.4 mb 0.00 in0.0 mm 0.00 in0.0 mm 0.13 in3.3 mm
08:44 AM 36.5°F2.5°C 33.9°F1.1°C 90% 10.7 mph SSW17.2 kmh SSW 15.0 mph24.1 kmh 29.10 in985.4 mb 0.00 in0.0 mm 0.00 in0.0 mm 0.13 in3.3 mm
08:45 AM 36.5°F2.5°C 33.9°F1.1°C 90% 9.9 mph SSW15.9 kmh SSW 15.0 mph24.1 kmh 29.10 in985.4 mb 0.00 in0.0 mm 0.00 in0.0 mm 0.13 in3.3 mm
08:46 AM 36.5°F2.5°C 33.9°F1.1°C 90% 9.6 mph SSW15.4 kmh SSW 15.0 mph24.1 kmh 29.10 in985.4 mb 0.00 in0.0 mm 0.00 in0.0 mm 0.13 in3.3 mm
08:47 AM 36.5°F2.5°C 33.9°F1.1°C 90% 8.7 mph SSW14.0 kmh SSW 15.0 mph24.1 kmh 29.10 in985.4 mb 0.00 in0.0 mm 0.00 in0.0 mm 0.13 in3.3 mm
08:48 AM 36.5°F2.5°C 33.9°F1.1°C 90% 8.6 mph SSW13.8 kmh SSW 14.0 mph22.5 kmh 29.10 in985.4 mb 0.00 in0.0 mm 0.00 in0.0 mm 0.13 in3.3 mm
08:49 AM 36.6°F2.6°C 33.9°F1.1°C 90% 8.5 mph SSW13.7 kmh SSW 14.0 mph22.5 kmh 29.10 in985.4 mb 0.00 in0.0 mm 0.00 in0.0 mm 0.13 in3.3 mm
08:50 AM 36.6°F2.6°C 33.9°F1.1°C 90% 11.5 mph SSW18.5 kmh SSW 16.0 mph25.7 kmh 29.10 in985.4 mb 0.00 in0.0 mm 0.00 in0.0 mm 0.13 in3.3 mm
08:51 AM 36.6°F2.6°C 33.9°F1.1°C 90% 10.5 mph SSW16.9 kmh SSW 16.0 mph25.7 kmh 29.10 in985.4 mb 0.00 in0.0 mm 0.00 in0.0 mm 0.13 in3.3 mm
08:52 AM 36.6°F2.6°C 33.9°F1.1°C 90% 11.6 mph SSW18.7 kmh SSW 15.0 mph24.1 kmh 29.10 in985.4 mb 0.00 in0.0 mm 0.00 in0.0 mm 0.13 in3.3 mm
08:53 AM 36.7°F2.6°C 34.0°F1.1°C 90% 10.2 mph SSW16.4 kmh SSW 15.0 mph24.1 kmh 29.10 in985.4 mb 0.00 in0.0 mm 0.00 in0.0 mm 0.13 in3.3 mm
08:54 AM 36.7°F2.6°C 34.0°F1.1°C 90% 9.8 mph SSW15.8 kmh SSW 15.0 mph24.1 kmh 29.10 in985.4 mb 0.00 in0.0 mm 0.00 in0.0 mm 0.13 in3.3 mm
08:55 AM 36.7°F2.6°C 34.0°F1.1°C 90% 9.0 mph SSW14.5 kmh SSW 14.0 mph22.5 kmh 29.10 in985.4 mb 0.00 in0.0 mm 0.00 in0.0 mm 0.13 in3.3 mm
08:56 AM 36.7°F2.6°C 34.0°F1.1°C 90% 8.3 mph SSW13.4 kmh SSW 13.0 mph20.9 kmh 29.10 in985.4 mb 0.00 in0.0 mm 0.00 in0.0 mm 0.13 in3.3 mm
08:57 AM 36.7°F2.6°C 34.0°F1.1°C 90% 8.4 mph SSW13.5 kmh SSW 14.0 mph22.5 kmh 29.10 in985.4 mb 0.00 in0.0 mm 0.00 in0.0 mm 0.13 in3.3 mm
08:58 AM 36.8°F2.7°C 34.1°F1.2°C 90% 10.5 mph SSW16.9 kmh SSW 14.0 mph22.5 kmh 29.10 in985.4 mb 0.00 in0.0 mm 0.00 in0.0 mm 0.13 in3.3 mm
08:59 AM 36.8°F2.7°C 34.1°F1.2°C 90% 9.8 mph SSW15.8 kmh SSW 14.0 mph22.5 kmh 29.10 in985.4 mb 0.00 in0.0 mm 0.00 in0.0 mm 0.13 in3.3 mm
09:00 AM 36.8°F2.7°C 34.1°F1.2°C 90% 9.6 mph SSW15.4 kmh SSW 13.0 mph20.9 kmh 29.10 in985.4 mb 0.00 in0.0 mm 0.00 in0.0 mm 0.13 in3.3 mm
09:01 AM 36.8°F2.7°C 34.1°F1.2°C 90% 8.0 mph SSW12.9 kmh SSW 12.0 mph19.3 kmh 29.10 in985.4 mb 0.00 in0.0 mm 0.00 in0.0 mm 0.13 in3.3 mm
09:02 AM 36.8°F2.7°C 34.1°F1.2°C 90% 9.9 mph SSW15.9 kmh SSW 14.0 mph22.5 kmh 29.10 in985.4 mb 0.00 in0.0 mm 0.00 in0.0 mm 0.13 in3.3 mm
09:03 AM 36.9°F2.7°C 34.2°F1.2°C 90% 10.6 mph SSW17.1 kmh SSW 14.0 mph22.5 kmh 29.10 in985.4 mb 0.00 in0.0 mm 0.00 in0.0 mm 0.13 in3.3 mm
09:04 AM 36.8°F2.7°C 34.1°F1.2°C 90% 8.5 mph SSW13.7 kmh SSW 14.0 mph22.5 kmh 29.10 in985.4 mb 0.00 in0.0 mm 0.00 in0.0 mm 0.13 in3.3 mm
09:05 AM 36.8°F2.7°C 34.1°F1.2°C 90% 7.2 mph SSW11.6 kmh SSW 12.0 mph19.3 kmh 29.10 in985.4 mb 0.00 in0.0 mm 0.00 in0.0 mm 0.13 in3.3 mm
09:06 AM 36.9°F2.7°C 34.2°F1.2°C 90% 11.0 mph SSW17.7 kmh SSW 17.0 mph27.4 kmh 29.10 in985.4 mb 0.00 in0.0 mm 0.00 in0.0 mm 0.13 in3.3 mm
09:07 AM 36.9°F2.7°C 34.2°F1.2°C 90% 9.5 mph SSW15.3 kmh SSW 17.0 mph27.4 kmh 29.10 in985.4 mb 0.00 in0.0 mm 0.00 in0.0 mm 0.13 in3.3 mm
09:08 AM 36.9°F2.7°C 34.2°F1.2°C 90% 10.0 mph SSW16.1 kmh SSW 13.0 mph20.9 kmh 29.10 in985.4 mb 0.00 in0.0 mm 0.00 in0.0 mm 0.13 in3.3 mm
09:09 AM 36.9°F2.7°C 34.2°F1.2°C 90% 10.0 mph SSW16.1 kmh SSW 13.0 mph20.9 kmh 29.10 in985.4 mb 0.00 in0.0 mm 0.00 in0.0 mm 0.13 in3.3 mm
09:10 AM 36.9°F2.7°C 34.2°F1.2°C 90% 10.6 mph SSW17.1 kmh SSW 16.0 mph25.7 kmh 29.10 in985.4 mb 0.00 in0.0 mm 0.00 in0.0 mm 0.13 in3.3 mm
09:11 AM 36.9°F2.7°C 34.2°F1.2°C 90% 10.8 mph S17.4 kmh S 16.0 mph25.7 kmh 29.10 in985.4 mb 0.00 in0.0 mm 0.00 in0.0 mm 0.13 in3.3 mm
09:12 AM 37.0°F2.8°C 34.3°F1.3°C 90% 8.5 mph S13.7 kmh S 14.0 mph22.5 kmh 29.10 in985.4 mb 0.00 in0.0 mm 0.00 in0.0 mm 0.13 in3.3 mm
09:13 AM 36.9°F2.7°C 34.2°F1.2°C 90% 9.2 mph S14.8 kmh S 15.0 mph24.1 kmh 29.10 in985.4 mb 0.00 in0.0 mm 0.00 in0.0 mm 0.13 in3.3 mm
09:14 AM 36.9°F2.7°C 34.2°F1.2°C 90% 10.0 mph SSW16.1 kmh SSW 16.0 mph25.7 kmh 29.10 in985.4 mb 0.00 in0.0 mm 0.00 in0.0 mm 0.13 in3.3 mm
09:15 AM 36.9°F2.7°C 34.2°F1.2°C 90% 8.6 mph S13.8 kmh S 16.0 mph25.7 kmh 29.10 in985.4 mb 0.00 in0.0 mm 0.00 in0.0 mm 0.13 in3.3 mm
09:16 AM 36.9°F2.7°C 34.2°F1.2°C 90% 14.1 mph SSW22.7 kmh SSW 22.0 mph35.4 kmh 29.10 in985.4 mb 0.00 in0.0 mm 0.00 in0.0 mm 0.13 in3.3 mm
09:17 AM 36.9°F2.7°C 34.2°F1.2°C 90% 11.7 mph SSW18.8 kmh SSW 22.0 mph35.4 kmh 29.10 in985.4 mb 0.00 in0.0 mm 0.00 in0.0 mm 0.13 in3.3 mm
09:18 AM 36.9°F2.7°C 34.2°F1.2°C 90% 10.4 mph SSW16.7 kmh SSW 16.0 mph25.7 kmh 29.10 in985.4 mb 0.00 in0.0 mm 0.00 in0.0 mm 0.13 in3.3 mm
09:19 AM 36.9°F2.7°C 34.0°F1.1°C 89% 13.8 mph SSW22.2 kmh SSW 19.0 mph30.6 kmh 29.10 in985.4 mb 0.00 in0.0 mm 0.00 in0.0 mm 0.13 in3.3 mm
09:20 AM 37.0°F2.8°C 34.1°F1.2°C 89% 13.5 mph SSW21.7 kmh SSW 19.0 mph30.6 kmh 29.10 in985.4 mb 0.00 in0.0 mm 0.00 in0.0 mm 0.13 in3.3 mm
09:21 AM 37.0°F2.8°C 34.1°F1.2°C 89% 14.5 mph SSW23.3 kmh SSW 18.0 mph29.0 kmh 29.10 in985.4 mb 0.00 in0.0 mm 0.00 in0.0 mm 0.13 in3.3 mm
09:22 AM 37.1°F2.8°C 34.2°F1.2°C 89% 12.4 mph SSW20.0 kmh SSW 16.0 mph25.7 kmh 29.10 in985.4 mb 0.00 in0.0 mm 0.00 in0.0 mm 0.13 in3.3 mm
09:23 AM 37.1°F2.8°C 34.2°F1.2°C 89% 13.2 mph SSW21.2 kmh SSW 18.0 mph29.0 kmh 29.10 in985.4 mb 0.00 in0.0 mm 0.00 in0.0 mm 0.13 in3.3 mm
09:24 AM 37.1°F2.8°C 34.2°F1.2°C 89% 10.3 mph SSW16.6 kmh SSW 18.0 mph29.0 kmh 29.11 in985.8 mb 0.00 in0.0 mm 0.00 in0.0 mm 0.13 in3.3 mm
09:25 AM 37.1°F2.8°C 34.2°F1.2°C 89% 8.5 mph SSW13.7 kmh SSW 14.0 mph22.5 kmh 29.10 in985.4 mb 0.00 in0.0 mm 0.00 in0.0 mm 0.13 in3.3 mm
09:26 AM 37.1°F2.8°C 34.2°F1.2°C 89% 11.8 mph SSW19.0 kmh SSW 16.0 mph25.7 kmh 29.10 in985.4 mb 0.00 in0.0 mm 0.00 in0.0 mm 0.13 in3.3 mm
09:27 AM 37.1°F2.8°C 34.2°F1.2°C 89% 9.0 mph SSW14.5 kmh SSW 16.0 mph25.7 kmh 29.10 in985.4 mb 0.00 in0.0 mm 0.00 in0.0 mm 0.13 in3.3 mm
09:28 AM 37.1°F2.8°C 34.2°F1.2°C 89% 10.8 mph S17.4 kmh S 16.0 mph25.7 kmh 29.10 in985.4 mb 0.00 in0.0 mm 0.00 in0.0 mm 0.13 in3.3 mm
09:29 AM 37.1°F2.8°C 34.2°F1.2°C 89% 11.5 mph SSW18.5 kmh SSW 16.0 mph25.7 kmh 29.10 in985.4 mb 0.00 in0.0 mm 0.00 in0.0 mm 0.13 in3.3 mm
09:30 AM 37.2°F2.9°C 34.3°F1.3°C 89% 11.7 mph SSW18.8 kmh SSW 16.0 mph25.7 kmh 29.11 in985.8 mb 0.00 in0.0 mm 0.00 in0.0 mm 0.13 in3.3 mm
09:31 AM 37.3°F2.9°C 34.4°F1.3°C 89% 9.4 mph S15.1 kmh S 16.0 mph25.7 kmh 29.10 in985.4 mb 0.00 in0.0 mm 0.00 in0.0 mm 0.13 in3.3 mm
09:32 AM 37.3°F2.9°C 34.4°F1.3°C 89% 10.0 mph S16.1 kmh S 14.0 mph22.5 kmh 29.11 in985.8 mb 0.00 in0.0 mm 0.00 in0.0 mm 0.13 in3.3 mm
09:33 AM 37.3°F2.9°C 34.4°F1.3°C 89% 10.7 mph SSW17.2 kmh SSW 16.0 mph25.7 kmh 29.11 in985.8 mb 0.00 in0.0 mm 0.00 in0.0 mm 0.13 in3.3 mm
09:34 AM 37.3°F2.9°C 34.4°F1.3°C 89% 12.4 mph S20.0 kmh S 17.0 mph27.4 kmh 29.11 in985.8 mb 0.00 in0.0 mm 0.00 in0.0 mm 0.13 in3.3 mm
09:35 AM 37.3°F2.9°C 34.4°F1.3°C 89% 9.4 mph SSW15.1 kmh SSW 17.0 mph27.4 kmh 29.11 in985.8 mb 0.00 in0.0 mm 0.00 in0.0 mm 0.13 in3.3 mm
09:36 AM 37.3°F2.9°C 34.4°F1.3°C 89% 9.5 mph SW15.3 kmh SW 15.0 mph24.1 kmh 29.11 in985.8 mb 0.00 in0.0 mm 0.00 in0.0 mm 0.13 in3.3 mm
09:37 AM 37.3°F2.9°C 34.4°F1.3°C 89% 9.9 mph SSW15.9 kmh SSW 15.0 mph24.1 kmh 29.11 in985.8 mb 0.00 in0.0 mm 0.00 in0.0 mm 0.13 in3.3 mm
09:38 AM 37.3°F2.9°C 34.4°F1.3°C 89% 9.5 mph SW15.3 kmh SW 14.0 mph22.5 kmh 29.11 in985.8 mb 0.00 in0.0 mm 0.00 in0.0 mm 0.13 in3.3 mm
09:39 AM 37.2°F2.9°C 34.3°F1.3°C 89% 8.6 mph SSW13.8 kmh SSW 11.0 mph17.7 kmh 29.11 in985.8 mb 0.00 in0.0 mm 0.00 in0.0 mm 0.13 in3.3 mm
09:40 AM 37.2°F2.9°C 34.3°F1.3°C 89% 11.8 mph SSW19.0 kmh SSW 14.0 mph22.5 kmh 29.11 in985.8 mb 0.00 in0.0 mm 0.00 in0.0 mm 0.13 in3.3 mm
09:41 AM 37.2°F2.9°C 34.0°F1.1°C 88% 12.6 mph SSW20.3 kmh SSW 16.0 mph25.7 kmh 29.11 in985.8 mb 0.00 in0.0 mm 0.00 in0.0 mm 0.13 in3.3 mm
09:42 AM 37.2°F2.9°C 34.0°F1.1°C 88% 8.5 mph SSW13.7 kmh SSW 16.0 mph25.7 kmh 29.11 in985.8 mb 0.00 in0.0 mm 0.00 in0.0 mm 0.13 in3.3 mm
09:43 AM 37.2°F2.9°C 34.0°F1.1°C 88% 8.4 mph SSW13.5 kmh SSW 11.0 mph17.7 kmh 29.11 in985.8 mb 0.00 in0.0 mm 0.00 in0.0 mm 0.13 in3.3 mm
09:44 AM 37.3°F2.9°C 34.1°F1.2°C 88% 10.1 mph SSW16.3 kmh SSW 13.0 mph20.9 kmh 29.11 in985.8 mb 0.00 in0.0 mm 0.00 in0.0 mm 0.13 in3.3 mm
09:45 AM 37.3°F2.9°C 34.1°F1.2°C 88% 11.2 mph SSW18.0 kmh SSW 13.0 mph20.9 kmh 29.11 in985.8 mb 0.00 in0.0 mm 0.00 in0.0 mm 0.13 in3.3 mm
09:46 AM 37.3°F2.9°C 34.1°F1.2°C 88% 10.6 mph SSW17.1 kmh SSW 14.0 mph22.5 kmh 29.11 in985.8 mb 0.00 in0.0 mm 0.00 in0.0 mm 0.13 in3.3 mm
09:47 AM 37.3°F2.9°C 34.1°F1.2°C 88% 9.7 mph SSW15.6 kmh SSW 14.0 mph22.5 kmh 29.11 in985.8 mb 0.00 in0.0 mm 0.00 in0.0 mm 0.13 in3.3 mm
09:48 AM 37.3°F2.9°C 34.1°F1.2°C 88% 11.6 mph S18.7 kmh S 14.0 mph22.5 kmh 29.11 in985.8 mb 0.00 in0.0 mm 0.00 in0.0 mm 0.13 in3.3 mm
09:49 AM 37.3°F2.9°C 34.1°F1.2°C 88% 9.9 mph SSW15.9 kmh SSW 14.0 mph22.5 kmh 29.11 in985.8 mb 0.00 in0.0 mm 0.00 in0.0 mm 0.13 in3.3 mm
09:50 AM 37.3°F2.9°C 34.1°F1.2°C 88% 10.8 mph SSW17.4 kmh SSW 15.0 mph24.1 kmh 29.11 in985.8 mb 0.00 in0.0 mm 0.00 in0.0 mm 0.13 in3.3 mm
09:51 AM 37.4°F3.0°C 34.2°F1.2°C 88% 10.5 mph S16.9 kmh S 15.0 mph24.1 kmh 29.11 in985.8 mb 0.00 in0.0 mm 0.00 in0.0 mm 0.13 in3.3 mm
09:52 AM 37.4°F3.0°C 34.2°F1.2°C 88% 12.7 mph SSW20.4 kmh SSW 17.0 mph27.4 kmh 29.11 in985.8 mb 0.00 in0.0 mm 0.00 in0.0 mm 0.13 in3.3 mm
09:53 AM 37.3°F2.9°C 34.1°F1.2°C 88% 10.8 mph SSW17.4 kmh SSW 17.0 mph27.4 kmh 29.11 in985.8 mb 0.00 in0.0 mm 0.00 in0.0 mm 0.13 in3.3 mm
09:54 AM 37.4°F3.0°C 34.2°F1.2°C 88% 9.1 mph SSW14.6 kmh SSW 15.0 mph24.1 kmh 29.11 in985.8 mb 0.00 in0.0 mm 0.00 in0.0 mm 0.13 in3.3 mm
09:55 AM 37.4°F3.0°C 34.2°F1.2°C 88% 7.8 mph SSW12.6 kmh SSW 12.0 mph19.3 kmh 29.11 in985.8 mb 0.00 in0.0 mm 0.00 in0.0 mm 0.13 in3.3 mm
09:56 AM 37.4°F3.0°C 34.2°F1.2°C 88% 9.3 mph SSW15.0 kmh SSW 15.0 mph24.1 kmh 29.11 in985.8 mb 0.00 in0.0 mm 0.00 in0.0 mm 0.13 in3.3 mm
09:57 AM 37.4°F3.0°C 34.2°F1.2°C 88% 11.4 mph SSW18.3 kmh SSW 15.0 mph24.1 kmh 29.11 in985.8 mb 0.00 in0.0 mm 0.00 in0.0 mm 0.13 in3.3 mm
09:58 AM 37.5°F3.1°C 34.3°F1.3°C 88% 9.3 mph SSW15.0 kmh SSW 15.0 mph24.1 kmh 29.11 in985.8 mb 0.00 in0.0 mm 0.00 in0.0 mm 0.13 in3.3 mm
09:59 AM 37.4°F3.0°C 34.2°F1.2°C 88% 9.4 mph SW15.1 kmh SW 13.0 mph20.9 kmh 29.11 in985.8 mb 0.00 in0.0 mm 0.00 in0.0 mm 0.13 in3.3 mm
10:00 AM 37.4°F3.0°C 34.2°F1.2°C 88% 10.7 mph SW17.2 kmh SW 15.0 mph24.1 kmh 29.11 in985.8 mb 0.00 in0.0 mm 0.00 in0.0 mm 0.13 in3.3 mm
10:01 AM 37.4°F3.0°C 34.2°F1.2°C 88% 8.3 mph SSW13.4 kmh SSW 15.0 mph24.1 kmh 29.11 in985.8 mb 0.00 in0.0 mm 0.00 in0.0 mm 0.13 in3.3 mm
10:02 AM 37.4°F3.0°C 34.2°F1.2°C 88% 9.7 mph SSW15.6 kmh SSW 12.0 mph19.3 kmh 29.11 in985.8 mb 0.00 in0.0 mm 0.00 in0.0 mm 0.13 in3.3 mm
10:03 AM 37.4°F3.0°C 33.9°F1.1°C 87% 13.0 mph SSW20.9 kmh SSW 17.0 mph27.4 kmh 29.11 in985.8 mb 0.00 in0.0 mm 0.00 in0.0 mm 0.13 in3.3 mm
10:04 AM 37.3°F2.9°C 33.8°F1.0°C 87% 9.8 mph SSW15.8 kmh SSW 17.0 mph27.4 kmh 29.11 in985.8 mb 0.00 in0.0 mm 0.00 in0.0 mm 0.13 in3.3 mm
10:05 AM 37.3°F2.9°C 33.8°F1.0°C 87% 10.4 mph SSW16.7 kmh SSW 15.0 mph24.1 kmh 29.11 in985.8 mb 0.00 in0.0 mm 0.00 in0.0 mm 0.13 in3.3 mm
10:06 AM 37.4°F3.0°C 33.9°F1.1°C 87% 10.0 mph SSW16.1 kmh SSW 15.0 mph24.1 kmh 29.11 in985.8 mb 0.00 in0.0 mm 0.00 in0.0 mm 0.13 in3.3 mm
10:07 AM 37.4°F3.0°C 33.9°F1.1°C 87% 11.2 mph SSW18.0 kmh SSW 14.0 mph22.5 kmh 29.11 in985.8 mb 0.00 in0.0 mm 0.00 in0.0 mm 0.13 in3.3 mm
10:08 AM 37.5°F3.1°C 34.0°F1.1°C 87% 11.7 mph SSW18.8 kmh SSW 15.0 mph24.1 kmh 29.11 in985.8 mb 0.00 in0.0 mm 0.00 in0.0 mm 0.13 in3.3 mm
10:09 AM 37.5°F3.1°C 34.0°F1.1°C 87% 14.6 mph S23.5 kmh S 24.0 mph38.6 kmh 29.11 in985.8 mb 0.00 in0.0 mm 0.00 in0.0 mm 0.13 in3.3 mm
10:10 AM 37.6°F3.1°C 33.8°F1.0°C 86% 11.7 mph SSW18.8 kmh SSW 24.0 mph38.6 kmh 29.11 in985.8 mb 0.00 in0.0 mm 0.00 in0.0 mm 0.13 in3.3 mm
10:11 AM 37.6°F3.1°C 33.8°F1.0°C 86% 13.5 mph SSW21.7 kmh SSW 19.0 mph30.6 kmh 29.11 in985.8 mb 0.00 in0.0 mm 0.00 in0.0 mm 0.13 in3.3 mm
10:12 AM 37.6°F3.1°C 33.8°F1.0°C 86% 11.0 mph S17.7 kmh S 19.0 mph30.6 kmh 29.11 in985.8 mb 0.00 in0.0 mm 0.00 in0.0 mm 0.13 in3.3 mm
10:13 AM 37.7°F3.2°C 33.9°F1.1°C 86% 6.8 mph SSW10.9 kmh SSW 14.0 mph22.5 kmh 29.11 in985.8 mb 0.00 in0.0 mm 0.00 in0.0 mm 0.13 in3.3 mm
10:14 AM 37.7°F3.2°C 33.9°F1.1°C 86% 8.7 mph SSW14.0 kmh SSW 14.0 mph22.5 kmh 29.11 in985.8 mb 0.00 in0.0 mm 0.00 in0.0 mm 0.13 in3.3 mm
10:15 AM 37.7°F3.2°C 33.9°F1.1°C 86% 8.7 mph S14.0 kmh S 14.0 mph22.5 kmh 29.11 in985.8 mb 0.00 in0.0 mm 0.00 in0.0 mm 0.13 in3.3 mm
10:16 AM 37.8°F3.2°C 34.0°F1.1°C 86% 7.7 mph SSW12.4 kmh SSW 12.0 mph19.3 kmh 29.11 in985.8 mb 0.00 in0.0 mm 0.00 in0.0 mm 0.13 in3.3 mm
10:17 AM 37.8°F3.2°C 34.0°F1.1°C 86% 9.0 mph SSW14.5 kmh SSW 11.0 mph17.7 kmh 29.12 in986.1 mb 0.00 in0.0 mm 0.00 in0.0 mm 0.13 in3.3 mm
10:18 AM 37.7°F3.2°C 33.9°F1.1°C 86% 8.2 mph S13.2 kmh S 12.0 mph19.3 kmh 29.11 in985.8 mb 0.00 in0.0 mm 0.00 in0.0 mm 0.13 in3.3 mm
10:19 AM 37.8°F3.2°C 34.0°F1.1°C 86% 10.8 mph SSW17.4 kmh SSW 16.0 mph25.7 kmh 29.11 in985.8 mb 0.00 in0.0 mm 0.00 in0.0 mm 0.13 in3.3 mm
10:20 AM 37.8°F3.2°C 34.0°F1.1°C 86% 8.7 mph SSW14.0 kmh SSW 16.0 mph25.7 kmh 29.11 in985.8 mb 0.00 in0.0 mm 0.00 in0.0 mm 0.13 in3.3 mm
10:21 AM 37.9°F3.3°C 34.1°F1.2°C 86% 10.6 mph SSW17.1 kmh SSW 14.0 mph22.5 kmh 29.11 in985.8 mb 0.00 in0.0 mm 0.00 in0.0 mm 0.13 in3.3 mm
10:22 AM 37.8°F3.2°C 33.7°F0.9°C 85% 10.3 mph SSW16.6 kmh SSW 16.0 mph25.7 kmh 29.11 in985.8 mb 0.00 in0.0 mm 0.00 in0.0 mm 0.13 in3.3 mm
10:23 AM 37.9°F3.3°C 33.8°F1.0°C 85% 11.4 mph SSW18.3 kmh SSW 17.0 mph27.4 kmh 29.11 in985.8 mb 0.00 in0.0 mm 0.00 in0.0 mm 0.13 in3.3 mm
10:24 AM 37.9°F3.3°C 33.8°F1.0°C 85% 8.5 mph S13.7 kmh S 17.0 mph27.4 kmh 29.11 in985.8 mb 0.00 in0.0 mm 0.00 in0.0 mm 0.13 in3.3 mm
10:25 AM 37.9°F3.3°C 33.8°F1.0°C 85% 8.0 mph SSW12.9 kmh SSW 12.0 mph19.3 kmh 29.11 in985.8 mb 0.00 in0.0 mm 0.00 in0.0 mm 0.13 in3.3 mm
10:26 AM 37.9°F3.3°C 33.8°F1.0°C 85% 10.4 mph SSW16.7 kmh SSW 13.0 mph20.9 kmh 29.11 in985.8 mb 0.00 in0.0 mm 0.00 in0.0 mm 0.13 in3.3 mm
10:27 AM 37.9°F3.3°C 33.8°F1.0°C 85% 10.3 mph S16.6 kmh S 13.0 mph20.9 kmh 29.11 in985.8 mb 0.00 in0.0 mm 0.00 in0.0 mm 0.13 in3.3 mm
10:28 AM 38.0°F3.3°C 33.9°F1.1°C 85% 8.4 mph SSW13.5 kmh SSW 13.0 mph20.9 kmh 29.11 in985.8 mb 0.00 in0.0 mm 0.00 in0.0 mm 0.13 in3.3 mm
10:29 AM 37.9°F3.3°C 33.8°F1.0°C 85% 7.7 mph S12.4 kmh S 13.0 mph20.9 kmh 29.11 in985.8 mb 0.00 in0.0 mm 0.00 in0.0 mm 0.13 in3.3 mm
10:30 AM 37.9°F3.3°C 33.8°F1.0°C 85% 9.4 mph SSW15.1 kmh SSW 13.0 mph20.9 kmh 29.11 in985.8 mb 0.00 in0.0 mm 0.00 in0.0 mm 0.13 in3.3 mm
10:31 AM 37.9°F3.3°C 33.8°F1.0°C 85% 9.3 mph SSW15.0 kmh SSW 14.0 mph22.5 kmh 29.11 in985.8 mb 0.00 in0.0 mm 0.00 in0.0 mm 0.13 in3.3 mm
10:32 AM 37.9°F3.3°C 33.8°F1.0°C 85% 8.5 mph SSW13.7 kmh SSW 14.0 mph22.5 kmh 29.11 in985.8 mb 0.00 in0.0 mm 0.00 in0.0 mm 0.13 in3.3 mm
10:33 AM 37.9°F3.3°C 33.8°F1.0°C 85% 11.6 mph SSW18.7 kmh SSW 17.0 mph27.4 kmh 29.11 in985.8 mb 0.00 in0.0 mm 0.00 in0.0 mm 0.13 in3.3 mm
10:34 AM 37.9°F3.3°C 33.8°F1.0°C 85% 10.7 mph SSW17.2 kmh SSW 17.0 mph27.4 kmh 29.11 in985.8 mb 0.00 in0.0 mm 0.00 in0.0 mm 0.13 in3.3 mm
10:35 AM 38.0°F3.3°C 33.9°F1.1°C 85% 11.4 mph SSW18.3 kmh SSW 17.0 mph27.4 kmh 29.11 in985.8 mb 0.00 in0.0 mm 0.00 in0.0 mm 0.13 in3.3 mm
10:36 AM 38.0°F3.3°C 33.9°F1.1°C 85% 9.4 mph SSW15.1 kmh SSW 16.0 mph25.7 kmh 29.12 in986.1 mb 0.00 in0.0 mm 0.00 in0.0 mm 0.13 in3.3 mm
10:37 AM 37.9°F3.3°C 33.8°F1.0°C 85% 9.7 mph SSW15.6 kmh SSW 16.0 mph25.7 kmh 29.11 in985.8 mb 0.00 in0.0 mm 0.00 in0.0 mm 0.13 in3.3 mm
10:38 AM 37.9°F3.3°C 33.8°F1.0°C 85% 10.5 mph SSW16.9 kmh SSW 16.0 mph25.7 kmh 29.12 in986.1 mb 0.00 in0.0 mm 0.00 in0.0 mm 0.13 in3.3 mm
10:39 AM 38.0°F3.3°C 33.9°F1.1°C 85% 11.2 mph SSW18.0 kmh SSW 16.0 mph25.7 kmh 29.11 in985.8 mb 0.00 in0.0 mm 0.00 in0.0 mm 0.13 in3.3 mm
10:40 AM 38.0°F3.3°C 33.9°F1.1°C 85% 11.9 mph S19.2 kmh S 17.0 mph27.4 kmh 29.11 in985.8 mb 0.00 in0.0 mm 0.00 in0.0 mm 0.13 in3.3 mm
10:41 AM 38.0°F3.3°C 33.9°F1.1°C 85% 10.5 mph SSW16.9 kmh SSW 17.0 mph27.4 kmh 29.11 in985.8 mb 0.00 in0.0 mm 0.00 in0.0 mm 0.13 in3.3 mm
10:42 AM 38.0°F3.3°C 33.9°F1.1°C 85% 7.6 mph SSW12.2 kmh SSW 16.0 mph25.7 kmh 29.11 in985.8 mb 0.00 in0.0 mm 0.00 in0.0 mm 0.13 in3.3 mm
10:43 AM 38.0°F3.3°C 33.9°F1.1°C 85% 10.3 mph S16.6 kmh S 14.0 mph22.5 kmh 29.12 in986.1 mb 0.00 in0.0 mm 0.00 in0.0 mm 0.13 in3.3 mm
10:44 AM 38.0°F3.3°C 33.9°F1.1°C 85% 9.1 mph SSW14.6 kmh SSW 14.0 mph22.5 kmh 29.12 in986.1 mb 0.00 in0.0 mm 0.00 in0.0 mm 0.13 in3.3 mm
10:45 AM 38.0°F3.3°C 33.9°F1.1°C 85% 10.3 mph SSW16.6 kmh SSW 14.0 mph22.5 kmh 29.12 in986.1 mb 0.00 in0.0 mm 0.00 in0.0 mm 0.13 in3.3 mm
10:46 AM 38.0°F3.3°C 34.2°F1.2°C 86% 10.2 mph S16.4 kmh S 14.0 mph22.5 kmh 29.12 in986.1 mb 0.00 in0.0 mm 0.00 in0.0 mm 0.13 in3.3 mm
10:47 AM 38.0°F3.3°C 34.2°F1.2°C 86% 10.2 mph S16.4 kmh S 17.0 mph27.4 kmh 29.12 in986.1 mb 0.00 in0.0 mm 0.00 in0.0 mm 0.13 in3.3 mm
10:48 AM 37.9°F3.3°C 34.1°F1.2°C 86% 9.4 mph S15.1 kmh S 17.0 mph27.4 kmh 29.12 in986.1 mb 0.00 in0.0 mm 0.00 in0.0 mm 0.13 in3.3 mm
10:49 AM 38.0°F3.3°C 34.2°F1.2°C 86% 11.6 mph S18.7 kmh S 15.0 mph24.1 kmh 29.12 in986.1 mb 0.00 in0.0 mm 0.00 in0.0 mm 0.13 in3.3 mm
10:50 AM 38.0°F3.3°C 34.2°F1.2°C 86% 11.9 mph S19.2 kmh S 18.0 mph29.0 kmh 29.12 in986.1 mb 0.00 in0.0 mm 0.00 in0.0 mm 0.13 in3.3 mm
10:51 AM 38.0°F3.3°C 34.2°F1.2°C 86% 13.7 mph S22.0 kmh S 18.0 mph29.0 kmh 29.12 in986.1 mb 0.00 in0.0 mm 0.00 in0.0 mm 0.13 in3.3 mm
10:52 AM 38.0°F3.3°C 34.2°F1.2°C 86% 12.2 mph SSW19.6 kmh SSW 17.0 mph27.4 kmh 29.12 in986.1 mb 0.00 in0.0 mm 0.00 in0.0 mm 0.13 in3.3 mm
10:53 AM 37.9°F3.3°C 34.1°F1.2°C 86% 11.6 mph S18.7 kmh S 19.0 mph30.6 kmh 29.12 in986.1 mb 0.00 in0.0 mm 0.00 in0.0 mm 0.13 in3.3 mm
10:54 AM 37.9°F3.3°C 34.1°F1.2°C 86% 13.2 mph S21.2 kmh S 19.0 mph30.6 kmh 29.12 in986.1 mb 0.00 in0.0 mm 0.00 in0.0 mm 0.13 in3.3 mm
10:55 AM 38.0°F3.3°C 34.5°F1.4°C 87% 11.8 mph SSW19.0 kmh SSW 19.0 mph30.6 kmh 29.12 in986.1 mb 0.00 in0.0 mm 0.00 in0.0 mm 0.13 in3.3 mm
10:56 AM 38.0°F3.3°C 34.5°F1.4°C 87% 12.3 mph S19.8 kmh S 18.0 mph29.0 kmh 29.12 in986.1 mb 0.00 in0.0 mm 0.00 in0.0 mm 0.13 in3.3 mm
10:57 AM 38.0°F3.3°C 34.5°F1.4°C 87% 13.7 mph SSW22.0 kmh SSW 23.0 mph37.0 kmh 29.12 in986.1 mb 0.00 in0.0 mm 0.00 in0.0 mm 0.13 in3.3 mm
10:58 AM 38.1°F3.4°C 34.6°F1.4°C 87% 12.5 mph S20.1 kmh S 23.0 mph37.0 kmh 29.12 in986.1 mb 0.00 in0.0 mm 0.00 in0.0 mm 0.13 in3.3 mm
10:59 AM 38.1°F3.4°C 34.6°F1.4°C 87% 9.1 mph SSW14.6 kmh SSW 18.0 mph29.0 kmh 29.12 in986.1 mb 0.00 in0.0 mm 0.00 in0.0 mm 0.13 in3.3 mm
11:00 AM 38.2°F3.4°C 34.7°F1.5°C 87% 13.3 mph S21.4 kmh S 18.0 mph29.0 kmh 29.12 in986.1 mb 0.00 in0.0 mm 0.00 in0.0 mm 0.13 in3.3 mm
11:01 AM 38.2°F3.4°C 34.7°F1.5°C 87% 12.6 mph S20.3 kmh S 19.0 mph30.6 kmh 29.12 in986.1 mb 0.00 in0.0 mm 0.00 in0.0 mm 0.13 in3.3 mm
11:02 AM 38.3°F3.5°C 34.8°F1.6°C 87% 13.9 mph SSW22.4 kmh SSW 19.0 mph30.6 kmh 29.12 in986.1 mb 0.00 in0.0 mm 0.00 in0.0 mm 0.13 in3.3 mm
11:03 AM 38.3°F3.5°C 34.5°F1.4°C 86% 9.7 mph SSW15.6 kmh SSW 19.0 mph30.6 kmh 29.12 in986.1 mb 0.00 in0.0 mm 0.00 in0.0 mm 0.13 in3.3 mm
11:04 AM 38.4°F3.6°C 34.6°F1.4°C 86% 10.9 mph S17.5 kmh S 15.0 mph24.1 kmh 29.12 in986.1 mb 0.00 in0.0 mm 0.00 in0.0 mm 0.13 in3.3 mm
11:05 AM 38.4°F3.6°C 34.6°F1.4°C 86% 10.3 mph SSW16.6 kmh SSW 15.0 mph24.1 kmh 29.12 in986.1 mb 0.00 in0.0 mm 0.00 in0.0 mm 0.13 in3.3 mm
11:06 AM 38.4°F3.6°C 34.9°F1.6°C 87% 10.6 mph S17.1 kmh S 15.0 mph24.1 kmh 29.12 in986.1 mb 0.00 in0.0 mm 0.00 in0.0 mm 0.13 in3.3 mm
11:07 AM 38.4°F3.6°C 34.9°F1.6°C 87% 12.5 mph SSW20.1 kmh SSW 16.0 mph25.7 kmh 29.12 in986.1 mb 0.00 in0.0 mm 0.00 in0.0 mm 0.13 in3.3 mm
11:08 AM 38.4°F3.6°C 34.9°F1.6°C 87% 9.6 mph SSW15.4 kmh SSW 16.0 mph25.7 kmh 29.12 in986.1 mb 0.00 in0.0 mm 0.00 in0.0 mm 0.13 in3.3 mm
11:09 AM 38.4°F3.6°C 34.9°F1.6°C 87% 11.5 mph SSW18.5 kmh SSW 14.0 mph22.5 kmh 29.12 in986.1 mb 0.00 in0.0 mm 0.00 in0.0 mm 0.13 in3.3 mm
11:10 AM 38.4°F3.6°C 34.9°F1.6°C 87% 7.1 mph S11.4 kmh S 14.0 mph22.5 kmh 29.12 in986.1 mb 0.00 in0.0 mm 0.00 in0.0 mm 0.13 in3.3 mm
11:11 AM 38.5°F3.6°C 35.0°F1.7°C 87% 11.0 mph S17.7 kmh S 15.0 mph24.1 kmh 29.12 in986.1 mb 0.00 in0.0 mm 0.00 in0.0 mm 0.13 in3.3 mm
11:12 AM 38.5°F3.6°C 35.0°F1.7°C 87% 8.2 mph S13.2 kmh S 15.0 mph24.1 kmh 29.12 in986.1 mb 0.00 in0.0 mm 0.00 in0.0 mm 0.13 in3.3 mm
11:13 AM 38.4°F3.6°C 34.9°F1.6°C 87% 7.7 mph S12.4 kmh S 11.0 mph17.7 kmh 29.12 in986.1 mb 0.00 in0.0 mm 0.00 in0.0 mm 0.13 in3.3 mm
11:14 AM 38.6°F3.7°C 35.1°F1.7°C 87% 7.9 mph S12.7 kmh S 13.0 mph20.9 kmh 29.12 in986.1 mb 0.00 in0.0 mm 0.00 in0.0 mm 0.13 in3.3 mm
11:15 AM 38.6°F3.7°C 35.1°F1.7°C 87% 10.3 mph SSW16.6 kmh SSW 15.0 mph24.1 kmh 29.12 in986.1 mb 0.00 in0.0 mm 0.00 in0.0 mm 0.13 in3.3 mm
11:16 AM 38.6°F3.7°C 35.1°F1.7°C 87% 9.7 mph S15.6 kmh S 14.0 mph22.5 kmh 29.12 in986.1 mb 0.00 in0.0 mm 0.00 in0.0 mm 0.13 in3.3 mm
11:17 AM 38.6°F3.7°C 35.1°F1.7°C 87% 10.4 mph S16.7 kmh S 15.0 mph24.1 kmh 29.12 in986.1 mb 0.00 in0.0 mm 0.00 in0.0 mm 0.13 in3.3 mm
11:18 AM 38.6°F3.7°C 35.1°F1.7°C 87% 10.8 mph S17.4 kmh S 18.0 mph29.0 kmh 29.13 in986.5 mb 0.00 in0.0 mm 0.00 in0.0 mm 0.13 in3.3 mm
11:19 AM 38.7°F3.7°C 35.2°F1.8°C 87% 9.9 mph S15.9 kmh S 18.0 mph29.0 kmh 29.13 in986.5 mb 0.00 in0.0 mm 0.00 in0.0 mm 0.13 in3.3 mm
11:20 AM 38.7°F3.7°C 35.2°F1.8°C 87% 10.6 mph SSW17.1 kmh SSW 14.0 mph22.5 kmh 29.13 in986.5 mb 0.00 in0.0 mm 0.00 in0.0 mm 0.13 in3.3 mm
11:21 AM 38.8°F3.8°C 35.3°F1.8°C 87% 8.6 mph S13.8 kmh S 14.0 mph22.5 kmh 29.13 in986.5 mb 0.00 in0.0 mm 0.00 in0.0 mm 0.13 in3.3 mm
11:22 AM 38.8°F3.8°C 35.3°F1.8°C 87% 8.6 mph S13.8 kmh S 12.0 mph19.3 kmh 29.13 in986.5 mb 0.00 in0.0 mm 0.00 in0.0 mm 0.13 in3.3 mm
11:23 AM 38.8°F3.8°C 35.3°F1.8°C 87% 9.1 mph S14.6 kmh S 12.0 mph19.3 kmh 29.13 in986.5 mb 0.00 in0.0 mm 0.00 in0.0 mm 0.13 in3.3 mm
11:24 AM 38.9°F3.8°C 35.4°F1.9°C 87% 9.6 mph S15.4 kmh S 12.0 mph19.3 kmh 29.13 in986.5 mb 0.00 in0.0 mm 0.00 in0.0 mm 0.13 in3.3 mm
11:25 AM 38.9°F3.8°C 35.4°F1.9°C 87% 10.0 mph S16.1 kmh S 13.0 mph20.9 kmh 29.13 in986.5 mb 0.00 in0.0 mm 0.00 in0.0 mm 0.13 in3.3 mm
11:26 AM 38.9°F3.8°C 35.4°F1.9°C 87% 7.3 mph S11.7 kmh S 13.0 mph20.9 kmh 29.13 in986.5 mb 0.00 in0.0 mm 0.00 in0.0 mm 0.13 in3.3 mm
11:27 AM 39.1°F3.9°C 35.6°F2.0°C 87% 10.1 mph S16.3 kmh S 15.0 mph24.1 kmh 29.13 in986.5 mb 0.00 in0.0 mm 0.00 in0.0 mm 0.13 in3.3 mm
11:28 AM 39.1°F3.9°C 35.6°F2.0°C 87% 10.1 mph S16.3 kmh S 15.0 mph24.1 kmh 29.13 in986.5 mb 0.00 in0.0 mm 0.00 in0.0 mm 0.13 in3.3 mm
11:29 AM 39.1°F3.9°C 35.6°F2.0°C 87% 10.7 mph SSW17.2 kmh SSW 14.0 mph22.5 kmh 29.13 in986.5 mb 0.00 in0.0 mm 0.00 in0.0 mm 0.13 in3.3 mm
11:30 AM 39.1°F3.9°C 35.3°F1.8°C 86% 8.0 mph SSW12.9 kmh SSW 14.0 mph22.5 kmh 29.13 in986.5 mb 0.00 in0.0 mm 0.00 in0.0 mm 0.13 in3.3 mm
11:31 AM 39.1°F3.9°C 35.3°F1.8°C 86% 9.9 mph S15.9 kmh S 13.0 mph20.9 kmh 29.13 in986.5 mb 0.00 in0.0 mm 0.00 in0.0 mm 0.13 in3.3 mm
11:32 AM 39.1°F3.9°C 35.3°F1.8°C 86% 9.6 mph S15.4 kmh S 13.0 mph20.9 kmh 29.13 in986.5 mb 0.00 in0.0 mm 0.00 in0.0 mm 0.13 in3.3 mm
11:33 AM 39.1°F3.9°C 35.3°F1.8°C 86% 10.2 mph SSW16.4 kmh SSW 13.0 mph20.9 kmh 29.13 in986.5 mb 0.00 in0.0 mm 0.00 in0.0 mm 0.13 in3.3 mm
11:34 AM 39.2°F4.0°C 35.4°F1.9°C 86% 8.0 mph S12.9 kmh S 13.0 mph20.9 kmh 29.13 in986.5 mb 0.00 in0.0 mm 0.00 in0.0 mm 0.13 in3.3 mm
11:35 AM 39.2°F4.0°C 35.7°F2.1°C 87% 12.2 mph SSW19.6 kmh SSW 20.0 mph32.2 kmh 29.13 in986.5 mb 0.00 in0.0 mm 0.00 in0.0 mm 0.13 in3.3 mm
11:36 AM 39.2°F4.0°C 35.4°F1.9°C 86% 12.5 mph SSW20.1 kmh SSW 20.0 mph32.2 kmh 29.13 in986.5 mb 0.00 in0.0 mm 0.00 in0.0 mm 0.13 in3.3 mm
11:37 AM 39.2°F4.0°C 35.4°F1.9°C 86% 8.1 mph S13.0 kmh S 17.0 mph27.4 kmh 29.13 in986.5 mb 0.00 in0.0 mm 0.00 in0.0 mm 0.13 in3.3 mm
11:38 AM 39.3°F4.1°C 35.5°F1.9°C 86% 11.5 mph S18.5 kmh S 16.0 mph25.7 kmh 29.13 in986.5 mb 0.00 in0.0 mm 0.00 in0.0 mm 0.13 in3.3 mm
11:39 AM 39.3°F4.1°C 35.5°F1.9°C 86% 13.5 mph SSW21.7 kmh SSW 17.0 mph27.4 kmh 29.13 in986.5 mb 0.00 in0.0 mm 0.00 in0.0 mm 0.13 in3.3 mm
11:40 AM 39.3°F4.1°C 35.5°F1.9°C 86% 12.1 mph S19.5 kmh S 21.0 mph33.8 kmh 29.13 in986.5 mb 0.00 in0.0 mm 0.00 in0.0 mm 0.13 in3.3 mm
11:41 AM 39.4°F4.1°C 35.6°F2.0°C 86% 8.1 mph SSW13.0 kmh SSW 21.0 mph33.8 kmh 29.13 in986.5 mb 0.00 in0.0 mm 0.00 in0.0 mm 0.13 in3.3 mm
11:42 AM 39.5°F4.2°C 35.7°F2.1°C 86% 12.6 mph S20.3 kmh S 18.0 mph29.0 kmh 29.13 in986.5 mb 0.00 in0.0 mm 0.00 in0.0 mm 0.13 in3.3 mm
11:43 AM 39.6°F4.2°C 35.8°F2.1°C 86% 8.6 mph SSW13.8 kmh SSW 18.0 mph29.0 kmh 29.13 in986.5 mb 0.00 in0.0 mm 0.00 in0.0 mm 0.13 in3.3 mm
11:44 AM 39.7°F4.3°C 35.6°F2.0°C 85% 11.9 mph SSW19.2 kmh SSW 17.0 mph27.4 kmh 29.13 in986.5 mb 0.00 in0.0 mm 0.00 in0.0 mm 0.13 in3.3 mm
11:45 AM 39.7°F4.3°C 35.6°F2.0°C 85% 11.9 mph SSW19.2 kmh SSW 17.0 mph27.4 kmh 29.12 in986.1 mb 0.00 in0.0 mm 0.00 in0.0 mm 0.13 in3.3 mm
11:46 AM 39.9°F4.4°C 35.8°F2.1°C 85% 9.5 mph S15.3 kmh S 16.0 mph25.7 kmh 29.13 in986.5 mb 0.00 in0.0 mm 0.00 in0.0 mm 0.13 in3.3 mm
11:47 AM 39.9°F4.4°C 35.8°F2.1°C 85% 10.0 mph SSW16.1 kmh SSW 16.0 mph25.7 kmh 29.13 in986.5 mb 0.00 in0.0 mm 0.00 in0.0 mm 0.13 in3.3 mm
11:48 AM 40.0°F4.4°C 35.9°F2.2°C 85% 8.9 mph SSW14.3 kmh SSW 14.0 mph22.5 kmh 29.13 in986.5 mb 0.00 in0.0 mm 0.00 in0.0 mm 0.13 in3.3 mm
11:49 AM 40.1°F4.5°C 36.0°F2.2°C 85% 10.0 mph SSW16.1 kmh SSW 15.0 mph24.1 kmh 29.13 in986.5 mb 0.00 in0.0 mm 0.00 in0.0 mm 0.13 in3.3 mm
11:50 AM 40.2°F4.6°C 36.1°F2.3°C 85% 9.3 mph S15.0 kmh S 15.0 mph24.1 kmh 29.13 in986.5 mb 0.00 in0.0 mm 0.00 in0.0 mm 0.13 in3.3 mm
11:51 AM 40.2°F4.6°C 36.1°F2.3°C 85% 12.2 mph SSW19.6 kmh SSW 18.0 mph29.0 kmh 29.13 in986.5 mb 0.00 in0.0 mm 0.00 in0.0 mm 0.13 in3.3 mm
11:52 AM 40.1°F4.5°C 35.7°F2.1°C 84% 12.2 mph S19.6 kmh S 21.0 mph33.8 kmh 29.13 in986.5 mb 0.00 in0.0 mm 0.00 in0.0 mm 0.13 in3.3 mm
11:53 AM 40.1°F4.5°C 35.7°F2.1°C 84% 16.9 mph SSW27.2 kmh SSW 22.0 mph35.4 kmh 29.13 in986.5 mb 0.00 in0.0 mm 0.00 in0.0 mm 0.13 in3.3 mm
11:54 AM 40.1°F4.5°C 35.7°F2.1°C 84% 10.9 mph S17.5 kmh S 21.0 mph33.8 kmh 29.13 in986.5 mb 0.00 in0.0 mm 0.00 in0.0 mm 0.13 in3.3 mm
11:55 AM 40.2°F4.6°C 35.8°F2.1°C 84% 12.8 mph SSW20.6 kmh SSW 17.0 mph27.4 kmh 29.13 in986.5 mb 0.00 in0.0 mm 0.00 in0.0 mm 0.13 in3.3 mm
11:56 AM 40.2°F4.6°C 35.8°F2.1°C 84% 10.5 mph SSW16.9 kmh SSW 17.0 mph27.4 kmh 29.13 in986.5 mb 0.00 in0.0 mm 0.00 in0.0 mm 0.13 in3.3 mm
11:57 AM 40.2°F4.6°C 35.8°F2.1°C 84% 9.5 mph SSW15.3 kmh SSW 14.0 mph22.5 kmh 29.13 in986.5 mb 0.00 in0.0 mm 0.00 in0.0 mm 0.13 in3.3 mm
11:58 AM 40.2°F4.6°C 35.8°F2.1°C 84% 13.0 mph SSW20.9 kmh SSW 17.0 mph27.4 kmh 29.13 in986.5 mb 0.00 in0.0 mm 0.00 in0.0 mm 0.13 in3.3 mm
11:59 AM 40.2°F4.6°C 35.8°F2.1°C 84% 14.4 mph S23.2 kmh S 20.0 mph32.2 kmh 29.13 in986.5 mb 0.00 in0.0 mm 0.00 in0.0 mm 0.13 in3.3 mm
12:00 PM 40.3°F4.6°C 35.9°F2.2°C 84% 12.0 mph S19.3 kmh S 20.0 mph32.2 kmh 29.13 in986.5 mb 0.00 in0.0 mm 0.00 in0.0 mm 0.13 in3.3 mm
12:01 PM 40.3°F4.6°C 35.9°F2.2°C 84% 9.4 mph SSW15.1 kmh SSW 18.0 mph29.0 kmh 29.13 in986.5 mb 0.00 in0.0 mm 0.00 in0.0 mm 0.13 in3.3 mm
12:02 PM 40.3°F4.6°C 35.9°F2.2°C 84% 10.8 mph S17.4 kmh S 18.0 mph29.0 kmh 29.12 in986.1 mb 0.00 in0.0 mm 0.00 in0.0 mm 0.13 in3.3 mm
12:03 PM 40.3°F4.6°C 35.9°F2.2°C 84% 14.0 mph S22.5 kmh S 20.0 mph32.2 kmh 29.12 in986.1 mb 0.00 in0.0 mm 0.00 in0.0 mm 0.13 in3.3 mm
12:04 PM 40.3°F4.6°C 35.9°F2.2°C 84% 9.3 mph SSW15.0 kmh SSW 20.0 mph32.2 kmh 29.13 in986.5 mb 0.00 in0.0 mm 0.00 in0.0 mm 0.13 in3.3 mm
12:05 PM 40.3°F4.6°C 35.9°F2.2°C 84% 9.6 mph S15.4 kmh S 13.0 mph20.9 kmh 29.12 in986.1 mb 0.00 in0.0 mm 0.00 in0.0 mm 0.13 in3.3 mm
12:06 PM 40.4°F4.7°C 36.0°F2.2°C 84% 11.1 mph SSW17.9 kmh SSW 17.0 mph27.4 kmh 29.13 in986.5 mb 0.00 in0.0 mm 0.00 in0.0 mm 0.13 in3.3 mm
12:07 PM 40.4°F4.7°C 36.0°F2.2°C 84% 14.4 mph SSW23.2 kmh SSW 18.0 mph29.0 kmh 29.13 in986.5 mb 0.00 in0.0 mm 0.00 in0.0 mm 0.13 in3.3 mm
12:08 PM 40.4°F4.7°C 36.0°F2.2°C 84% 12.5 mph S20.1 kmh S 18.0 mph29.0 kmh 29.12 in986.1 mb 0.00 in0.0 mm 0.00 in0.0 mm 0.13 in3.3 mm
12:09 PM 40.3°F4.6°C 35.9°F2.2°C 84% 14.2 mph S22.9 kmh S 20.0 mph32.2 kmh 29.12 in986.1 mb 0.00 in0.0 mm 0.00 in0.0 mm 0.13 in3.3 mm
12:10 PM 40.4°F4.7°C 36.0°F2.2°C 84% 16.2 mph S26.1 kmh S 23.0 mph37.0 kmh 29.12 in986.1 mb 0.00 in0.0 mm 0.00 in0.0 mm 0.13 in3.3 mm
12:11 PM 40.3°F4.6°C 35.9°F2.2°C 84% 12.1 mph S19.5 kmh S 23.0 mph37.0 kmh 29.12 in986.1 mb 0.00 in0.0 mm 0.00 in0.0 mm 0.13 in3.3 mm
12:12 PM 40.3°F4.6°C 35.9°F2.2°C 84% 13.3 mph S21.4 kmh S 18.0 mph29.0 kmh 29.12 in986.1 mb 0.00 in0.0 mm 0.00 in0.0 mm 0.13 in3.3 mm
12:13 PM 40.3°F4.6°C 35.9°F2.2°C 84% 9.5 mph S15.3 kmh S 18.0 mph29.0 kmh 29.12 in986.1 mb 0.00 in0.0 mm 0.00 in0.0 mm 0.13 in3.3 mm
12:14 PM 40.3°F4.6°C 35.9°F2.2°C 84% 10.9 mph S17.5 kmh S 17.0 mph27.4 kmh 29.12 in986.1 mb 0.00 in0.0 mm 0.00 in0.0 mm 0.13 in3.3 mm
12:15 PM 40.3°F4.6°C 36.2°F2.3°C 85% 10.0 mph S16.1 kmh S 17.0 mph27.4 kmh 29.12 in986.1 mb 0.00 in0.0 mm 0.00 in0.0 mm 0.13 in3.3 mm
12:16 PM 40.3°F4.6°C 36.2°F2.3°C 85% 11.8 mph S19.0 kmh S 20.0 mph32.2 kmh 29.12 in986.1 mb 0.00 in0.0 mm 0.00 in0.0 mm 0.13 in3.3 mm
12:17 PM 40.3°F4.6°C 36.2°F2.3°C 85% 11.9 mph S19.2 kmh S 20.0 mph32.2 kmh 29.12 in986.1 mb 0.00 in0.0 mm 0.00 in0.0 mm 0.13 in3.3 mm
12:18 PM 40.3°F4.6°C 35.9°F2.2°C 84% 9.1 mph S14.6 kmh S 19.0 mph30.6 kmh 29.12 in986.1 mb 0.00 in0.0 mm 0.00 in0.0 mm 0.13 in3.3 mm
12:19 PM 40.3°F4.6°C 36.2°F2.3°C 85% 12.2 mph S19.6 kmh S 16.0 mph25.7 kmh 29.12 in986.1 mb 0.00 in0.0 mm 0.00 in0.0 mm 0.13 in3.3 mm
12:20 PM 40.3°F4.6°C 36.2°F2.3°C 85% 15.7 mph S25.3 kmh S 22.0 mph35.4 kmh 29.12 in986.1 mb 0.00 in0.0 mm 0.00 in0.0 mm 0.13 in3.3 mm
12:21 PM 40.2°F4.6°C 35.8°F2.1°C 84% 9.5 mph S15.3 kmh S 22.0 mph35.4 kmh 29.12 in986.1 mb 0.00 in0.0 mm 0.00 in0.0 mm 0.13 in3.3 mm
12:22 PM 40.3°F4.6°C 35.9°F2.2°C 84% 9.1 mph S14.6 kmh S 15.0 mph24.1 kmh 29.12 in986.1 mb 0.00 in0.0 mm 0.00 in0.0 mm 0.13 in3.3 mm
12:23 PM 40.3°F4.6°C 36.2°F2.3°C 85% 10.3 mph S16.6 kmh S 14.0 mph22.5 kmh 29.12 in986.1 mb 0.00 in0.0 mm 0.00 in0.0 mm 0.13 in3.3 mm
12:24 PM 40.4°F4.7°C 36.0°F2.2°C 84% 11.9 mph S19.2 kmh S 17.0 mph27.4 kmh 29.12 in986.1 mb 0.00 in0.0 mm 0.00 in0.0 mm 0.13 in3.3 mm
12:25 PM 40.4°F4.7°C 36.3°F2.4°C 85% 11.8 mph SSW19.0 kmh SSW 17.0 mph27.4 kmh 29.12 in986.1 mb 0.00 in0.0 mm 0.00 in0.0 mm 0.13 in3.3 mm
12:26 PM 40.5°F4.7°C 36.4°F2.4°C 85% 7.5 mph S12.1 kmh S 16.0 mph25.7 kmh 29.12 in986.1 mb 0.00 in0.0 mm 0.00 in0.0 mm 0.13 in3.3 mm
12:27 PM 40.5°F4.7°C 36.4°F2.4°C 85% 11.0 mph SSW17.7 kmh SSW 14.0 mph22.5 kmh 29.12 in986.1 mb 0.00 in0.0 mm 0.00 in0.0 mm 0.13 in3.3 mm
12:28 PM 40.5°F4.7°C 36.1°F2.3°C 84% 10.1 mph S16.3 kmh S 14.0 mph22.5 kmh 29.12 in986.1 mb 0.00 in0.0 mm 0.00 in0.0 mm 0.13 in3.3 mm
12:29 PM 40.6°F4.8°C 36.4°F2.4°C 85% 10.8 mph S17.4 kmh S 17.0 mph27.4 kmh 29.12 in986.1 mb 0.00 in0.0 mm 0.00 in0.0 mm 0.13 in3.3 mm
12:30 PM 40.6°F4.8°C 36.4°F2.4°C 85% 9.1 mph S14.6 kmh S 17.0 mph27.4 kmh 29.12 in986.1 mb 0.00 in0.0 mm 0.00 in0.0 mm 0.13 in3.3 mm
12:31 PM 40.7°F4.8°C 36.5°F2.5°C 85% 11.3 mph S18.2 kmh S 16.0 mph25.7 kmh 29.12 in986.1 mb 0.00 in0.0 mm 0.00 in0.0 mm 0.13 in3.3 mm
12:32 PM 40.7°F4.8°C 36.2°F2.3°C 84% 15.8 mph S25.4 kmh S 21.0 mph33.8 kmh 29.12 in986.1 mb 0.00 in0.0 mm 0.00 in0.0 mm 0.13 in3.3 mm
12:33 PM 40.8°F4.9°C 36.3°F2.4°C 84% 10.2 mph S16.4 kmh S 21.0 mph33.8 kmh 29.12 in986.1 mb 0.00 in0.0 mm 0.00 in0.0 mm 0.13 in3.3 mm
12:34 PM 40.9°F4.9°C 36.4°F2.4°C 84% 10.6 mph S17.1 kmh S 14.0 mph22.5 kmh 29.12 in986.1 mb 0.00 in0.0 mm 0.00 in0.0 mm 0.13 in3.3 mm
12:35 PM 40.9°F4.9°C 36.4°F2.4°C 84% 12.5 mph S20.1 kmh S 17.0 mph27.4 kmh 29.12 in986.1 mb 0.00 in0.0 mm 0.00 in0.0 mm 0.13 in3.3 mm
12:36 PM 40.9°F4.9°C 36.4°F2.4°C 84% 12.2 mph S19.6 kmh S 21.0 mph33.8 kmh 29.12 in986.1 mb 0.00 in0.0 mm 0.00 in0.0 mm 0.13 in3.3 mm
12:37 PM 41.0°F5.0°C 36.5°F2.5°C 84% 13.2 mph S21.2 kmh S 21.0 mph33.8 kmh 29.12 in986.1 mb 0.00 in0.0 mm 0.00 in0.0 mm 0.13 in3.3 mm
12:38 PM 41.0°F5.0°C 36.5°F2.5°C 84% 9.7 mph S15.6 kmh S 18.0 mph29.0 kmh 29.12 in986.1 mb 0.00 in0.0 mm 0.00 in0.0 mm 0.13 in3.3 mm
12:39 PM 41.0°F5.0°C 36.5°F2.5°C 84% 8.4 mph S13.5 kmh S 16.0 mph25.7 kmh 29.12 in986.1 mb 0.00 in0.0 mm 0.00 in0.0 mm 0.13 in3.3 mm
12:40 PM 41.0°F5.0°C 36.5°F2.5°C 84% 9.6 mph S15.4 kmh S 16.0 mph25.7 kmh 29.12 in986.1 mb 0.00 in0.0 mm 0.00 in0.0 mm 0.13 in3.3 mm
12:41 PM 41.0°F5.0°C 36.5°F2.5°C 84% 7.7 mph S12.4 kmh S 14.0 mph22.5 kmh 29.12 in986.1 mb 0.00 in0.0 mm 0.00 in0.0 mm 0.13 in3.3 mm
12:42 PM 41.0°F5.0°C 36.5°F2.5°C 84% 10.8 mph S17.4 kmh S 17.0 mph27.4 kmh 29.12 in986.1 mb 0.00 in0.0 mm 0.00 in0.0 mm 0.13 in3.3 mm
05:39 PM 38.8°F3.8°C 35.3°F1.8°C 87% 5.1 mph SE8.2 kmh SE 10.0 mph16.1 kmh 29.14 in986.8 mb 0.00 in0.0 mm 0.00 in0.0 mm 0.15 in3.8 mm
05:40 PM 38.7°F3.7°C 35.2°F1.8°C 87% 7.7 mph SSE12.4 kmh SSE 13.0 mph20.9 kmh 29.14 in986.8 mb 0.00 in0.0 mm 0.00 in0.0 mm 0.15 in3.8 mm
05:41 PM 38.7°F3.7°C 35.2°F1.8°C 87% 9.6 mph SSE15.4 kmh SSE 13.0 mph20.9 kmh 29.14 in986.8 mb 0.00 in0.0 mm 0.00 in0.0 mm 0.15 in3.8 mm
05:42 PM 38.7°F3.7°C 35.2°F1.8°C 87% 8.4 mph SSE13.5 kmh SSE 13.0 mph20.9 kmh 29.14 in986.8 mb 0.00 in0.0 mm 0.00 in0.0 mm 0.15 in3.8 mm
05:43 PM 38.6°F3.7°C 35.1°F1.7°C 87% 8.0 mph SE12.9 kmh SE 11.0 mph17.7 kmh 29.14 in986.8 mb 0.00 in0.0 mm 0.00 in0.0 mm 0.15 in3.8 mm
05:44 PM 38.6°F3.7°C 35.1°F1.7°C 87% 8.2 mph SE13.2 kmh SE 13.0 mph20.9 kmh 29.14 in986.8 mb 0.00 in0.0 mm 0.00 in0.0 mm 0.15 in3.8 mm
05:45 PM 38.6°F3.7°C 35.1°F1.7°C 87% 6.6 mph SE10.6 kmh SE 13.0 mph20.9 kmh 29.14 in986.8 mb 0.00 in0.0 mm 0.00 in0.0 mm 0.15 in3.8 mm
05:46 PM 38.6°F3.7°C 35.1°F1.7°C 87% 6.4 mph SE10.3 kmh SE 11.0 mph17.7 kmh 29.14 in986.8 mb 0.00 in0.0 mm 0.00 in0.0 mm 0.15 in3.8 mm
05:47 PM 38.6°F3.7°C 35.1°F1.7°C 87% 8.6 mph SE13.8 kmh SE 15.0 mph24.1 kmh 29.14 in986.8 mb 0.00 in0.0 mm 0.00 in0.0 mm 0.15 in3.8 mm
05:48 PM 38.6°F3.7°C 35.4°F1.9°C 88% 8.4 mph SSE13.5 kmh SSE 15.0 mph24.1 kmh 29.14 in986.8 mb 0.00 in0.0 mm 0.00 in0.0 mm 0.15 in3.8 mm
05:49 PM 38.5°F3.6°C 35.3°F1.8°C 88% 9.4 mph SE15.1 kmh SE 13.0 mph20.9 kmh 29.14 in986.8 mb 0.00 in0.0 mm 0.00 in0.0 mm 0.15 in3.8 mm
05:50 PM 38.5°F3.6°C 35.3°F1.8°C 88% 8.2 mph SE13.2 kmh SE 12.0 mph19.3 kmh 29.14 in986.8 mb 0.00 in0.0 mm 0.00 in0.0 mm 0.15 in3.8 mm
05:51 PM 38.5°F3.6°C 35.3°F1.8°C 88% 8.5 mph SE13.7 kmh SE 11.0 mph17.7 kmh 29.14 in986.8 mb 0.00 in0.0 mm 0.00 in0.0 mm 0.15 in3.8 mm
05:52 PM 38.5°F3.6°C 35.3°F1.8°C 88% 10.1 mph SE16.3 kmh SE 15.0 mph24.1 kmh 29.14 in986.8 mb 0.00 in0.0 mm 0.00 in0.0 mm 0.15 in3.8 mm
05:53 PM 38.5°F3.6°C 35.3°F1.8°C 88% 7.3 mph SE11.7 kmh SE 15.0 mph24.1 kmh 29.14 in986.8 mb 0.00 in0.0 mm 0.00 in0.0 mm 0.15 in3.8 mm
05:54 PM 38.5°F3.6°C 35.3°F1.8°C 88% 9.0 mph SE14.5 kmh SE 13.0 mph20.9 kmh 29.14 in986.8 mb 0.00 in0.0 mm 0.00 in0.0 mm 0.15 in3.8 mm
05:55 PM 38.5°F3.6°C 35.3°F1.8°C 88% 9.9 mph SE15.9 kmh SE 13.0 mph20.9 kmh 29.14 in986.8 mb 0.00 in0.0 mm 0.00 in0.0 mm 0.15 in3.8 mm
05:56 PM 38.4°F3.6°C 34.9°F1.6°C 87% 8.6 mph SE13.8 kmh SE 13.0 mph20.9 kmh 29.14 in986.8 mb 0.00 in0.0 mm 0.00 in0.0 mm 0.15 in3.8 mm
05:57 PM 38.5°F3.6°C 35.0°F1.7°C 87% 7.1 mph SE11.4 kmh SE 12.0 mph19.3 kmh 29.14 in986.8 mb 0.00 in0.0 mm 0.00 in0.0 mm 0.15 in3.8 mm
05:58 PM 38.4°F3.6°C 34.9°F1.6°C 87% 6.9 mph SE11.1 kmh SE 10.0 mph16.1 kmh 29.14 in986.8 mb 0.00 in0.0 mm 0.00 in0.0 mm 0.15 in3.8 mm
05:59 PM 38.4°F3.6°C 34.9°F1.6°C 87% 7.6 mph SE12.2 kmh SE 10.0 mph16.1 kmh 29.14 in986.8 mb 0.00 in0.0 mm 0.00 in0.0 mm 0.15 in3.8 mm
06:00 PM 38.4°F3.6°C 34.9°F1.6°C 87% 10.0 mph SE16.1 kmh SE 14.0 mph22.5 kmh 29.14 in986.8 mb 0.00 in0.0 mm 0.00 in0.0 mm 0.15 in3.8 mm
06:01 PM 38.4°F3.6°C 35.2°F1.8°C 88% 7.3 mph SE11.7 kmh SE 14.0 mph22.5 kmh 29.14 in986.8 mb 0.00 in0.0 mm 0.00 in0.0 mm 0.15 in3.8 mm
06:02 PM 38.4°F3.6°C 35.2°F1.8°C 88% 8.1 mph SE13.0 kmh SE 11.0 mph17.7 kmh 29.14 in986.8 mb 0.00 in0.0 mm 0.00 in0.0 mm 0.15 in3.8 mm
06:03 PM 38.4°F3.6°C 35.2°F1.8°C 88% 8.6 mph SE13.8 kmh SE 15.0 mph24.1 kmh 29.14 in986.8 mb 0.00 in0.0 mm 0.00 in0.0 mm 0.15 in3.8 mm
06:04 PM 38.4°F3.6°C 35.2°F1.8°C 88% 7.9 mph SE12.7 kmh SE 15.0 mph24.1 kmh 29.14 in986.8 mb 0.00 in0.0 mm 0.00 in0.0 mm 0.15 in3.8 mm
06:05 PM 38.3°F3.5°C 35.1°F1.7°C 88% 8.3 mph SE13.4 kmh SE 12.0 mph19.3 kmh 29.14 in986.8 mb 0.00 in0.0 mm 0.00 in0.0 mm 0.15 in3.8 mm
06:06 PM 38.3°F3.5°C 35.1°F1.7°C 88% 10.0 mph SE16.1 kmh SE 14.0 mph22.5 kmh 29.14 in986.8 mb 0.00 in0.0 mm 0.00 in0.0 mm 0.15 in3.8 mm
06:07 PM 38.3°F3.5°C 35.1°F1.7°C 88% 10.1 mph SE16.3 kmh SE 15.0 mph24.1 kmh 29.14 in986.8 mb 0.00 in0.0 mm 0.00 in0.0 mm 0.15 in3.8 mm
06:08 PM 38.3°F3.5°C 35.1°F1.7°C 88% 10.2 mph SE16.4 kmh SE 15.0 mph24.1 kmh 29.14 in986.8 mb 0.00 in0.0 mm 0.00 in0.0 mm 0.15 in3.8 mm
06:09 PM 38.2°F3.4°C 35.0°F1.7°C 88% 9.8 mph SE15.8 kmh SE 14.0 mph22.5 kmh 29.14 in986.8 mb 0.00 in0.0 mm 0.00 in0.0 mm 0.15 in3.8 mm
06:10 PM 38.2°F3.4°C 35.0°F1.7°C 88% 10.9 mph SE17.5 kmh SE 16.0 mph25.7 kmh 29.14 in986.8 mb 0.00 in0.0 mm 0.00 in0.0 mm 0.15 in3.8 mm
06:11 PM 38.2°F3.4°C 35.0°F1.7°C 88% 9.5 mph SE15.3 kmh SE 16.0 mph25.7 kmh 29.14 in986.8 mb 0.00 in0.0 mm 0.00 in0.0 mm 0.15 in3.8 mm
06:12 PM 38.2°F3.4°C 35.0°F1.7°C 88% 10.6 mph SE17.1 kmh SE 13.0 mph20.9 kmh 29.14 in986.8 mb 0.00 in0.0 mm 0.00 in0.0 mm 0.15 in3.8 mm
06:13 PM 38.1°F3.4°C 34.9°F1.6°C 88% 8.9 mph SE14.3 kmh SE 13.0 mph20.9 kmh 29.14 in986.8 mb 0.00 in0.0 mm 0.00 in0.0 mm 0.15 in3.8 mm
06:14 PM 38.1°F3.4°C 34.9°F1.6°C 88% 9.7 mph SE15.6 kmh SE 14.0 mph22.5 kmh 29.14 in986.8 mb 0.00 in0.0 mm 0.00 in0.0 mm 0.15 in3.8 mm
06:15 PM 38.1°F3.4°C 34.9°F1.6°C 88% 9.5 mph SE15.3 kmh SE 14.0 mph22.5 kmh 29.14 in986.8 mb 0.00 in0.0 mm 0.00 in0.0 mm 0.15 in3.8 mm
06:16 PM 38.1°F3.4°C 34.9°F1.6°C 88% 8.8 mph SE14.2 kmh SE 14.0 mph22.5 kmh 29.14 in986.8 mb 0.00 in0.0 mm 0.00 in0.0 mm 0.15 in3.8 mm
06:17 PM 38.0°F3.3°C 34.8°F1.6°C 88% 8.3 mph SE13.4 kmh SE 12.0 mph19.3 kmh 29.14 in986.8 mb 0.00 in0.0 mm 0.00 in0.0 mm 0.15 in3.8 mm
06:18 PM 38.0°F3.3°C 34.8°F1.6°C 88% 9.4 mph SE15.1 kmh SE 13.0 mph20.9 kmh 29.14 in986.8 mb 0.00 in0.0 mm 0.00 in0.0 mm 0.15 in3.8 mm
06:19 PM 38.0°F3.3°C 34.8°F1.6°C 88% 9.2 mph SE14.8 kmh SE 13.0 mph20.9 kmh 29.15 in987.1 mb 0.00 in0.0 mm 0.00 in0.0 mm 0.15 in3.8 mm
06:20 PM 38.0°F3.3°C 34.8°F1.6°C 88% 9.3 mph SE15.0 kmh SE 13.0 mph20.9 kmh 29.14 in986.8 mb 0.00 in0.0 mm 0.00 in0.0 mm 0.15 in3.8 mm
06:21 PM 38.0°F3.3°C 34.8°F1.6°C 88% 8.4 mph SE13.5 kmh SE 14.0 mph22.5 kmh 29.14 in986.8 mb 0.00 in0.0 mm 0.00 in0.0 mm 0.15 in3.8 mm
06:22 PM 38.0°F3.3°C 34.8°F1.6°C 88% 11.2 mph SE18.0 kmh SE 15.0 mph24.1 kmh 29.14 in986.8 mb 0.00 in0.0 mm 0.00 in0.0 mm 0.15 in3.8 mm
06:23 PM 37.9°F3.3°C 34.7°F1.5°C 88% 10.3 mph SE16.6 kmh SE 15.0 mph24.1 kmh 29.14 in986.8 mb 0.00 in0.0 mm 0.00 in0.0 mm 0.15 in3.8 mm
06:24 PM 37.9°F3.3°C 34.7°F1.5°C 88% 8.7 mph SE14.0 kmh SE 13.0 mph20.9 kmh 29.14 in986.8 mb 0.00 in0.0 mm 0.00 in0.0 mm 0.15 in3.8 mm
06:25 PM 37.9°F3.3°C 34.7°F1.5°C 88% 7.9 mph SE12.7 kmh SE 13.0 mph20.9 kmh 29.14 in986.8 mb 0.00 in0.0 mm 0.00 in0.0 mm 0.15 in3.8 mm
06:26 PM 37.9°F3.3°C 34.7°F1.5°C 88% 9.5 mph SE15.3 kmh SE 12.0 mph19.3 kmh 29.15 in987.1 mb 0.00 in0.0 mm 0.00 in0.0 mm 0.15 in3.8 mm
06:27 PM 37.9°F3.3°C 34.7°F1.5°C 88% 11.7 mph SE18.8 kmh SE 14.0 mph22.5 kmh 29.15 in987.1 mb 0.00 in0.0 mm 0.00 in0.0 mm 0.15 in3.8 mm
06:28 PM 37.9°F3.3°C 34.7°F1.5°C 88% 8.8 mph SE14.2 kmh SE 14.0 mph22.5 kmh 29.14 in986.8 mb 0.00 in0.0 mm 0.00 in0.0 mm 0.15 in3.8 mm
06:29 PM 37.9°F3.3°C 34.7°F1.5°C 88% 9.2 mph SE14.8 kmh SE 13.0 mph20.9 kmh 29.15 in987.1 mb 0.00 in0.0 mm 0.00 in0.0 mm 0.15 in3.8 mm
06:30 PM 37.9°F3.3°C 34.7°F1.5°C 88% 9.7 mph SE15.6 kmh SE 13.0 mph20.9 kmh 29.15 in987.1 mb 0.00 in0.0 mm 0.00 in0.0 mm 0.15 in3.8 mm
06:31 PM 37.9°F3.3°C 34.7°F1.5°C 88% 9.7 mph SE15.6 kmh SE 11.0 mph17.7 kmh 29.15 in987.1 mb 0.00 in0.0 mm 0.00 in0.0 mm 0.15 in3.8 mm
06:32 PM 37.9°F3.3°C 34.7°F1.5°C 88% 8.9 mph SE14.3 kmh SE 11.0 mph17.7 kmh 29.15 in987.1 mb 0.00 in0.0 mm 0.00 in0.0 mm 0.15 in3.8 mm
06:33 PM 38.0°F3.3°C 34.8°F1.6°C 88% 10.0 mph SE16.1 kmh SE 13.0 mph20.9 kmh 29.15 in987.1 mb 0.00 in0.0 mm 0.00 in0.0 mm 0.15 in3.8 mm
06:34 PM 38.0°F3.3°C 35.1°F1.7°C 89% 10.5 mph ESE16.9 kmh ESE 13.0 mph20.9 kmh 29.15 in987.1 mb 0.00 in0.0 mm 0.00 in0.0 mm 0.15 in3.8 mm
06:35 PM 38.0°F3.3°C 35.1°F1.7°C 89% 9.0 mph SE14.5 kmh SE 13.0 mph20.9 kmh 29.15 in987.1 mb 0.00 in0.0 mm 0.00 in0.0 mm 0.15 in3.8 mm
06:36 PM 38.0°F3.3°C 34.8°F1.6°C 88% 7.3 mph SE11.7 kmh SE 12.0 mph19.3 kmh 29.15 in987.1 mb 0.00 in0.0 mm 0.00 in0.0 mm 0.15 in3.8 mm
06:37 PM 38.0°F3.3°C 34.8°F1.6°C 88% 8.5 mph SE13.7 kmh SE 13.0 mph20.9 kmh 29.15 in987.1 mb 0.00 in0.0 mm 0.00 in0.0 mm 0.15 in3.8 mm
06:38 PM 38.0°F3.3°C 34.8°F1.6°C 88% 9.6 mph SE15.4 kmh SE 14.0 mph22.5 kmh 29.15 in987.1 mb 0.00 in0.0 mm 0.00 in0.0 mm 0.15 in3.8 mm
06:39 PM 38.0°F3.3°C 34.8°F1.6°C 88% 9.0 mph ESE14.5 kmh ESE 14.0 mph22.5 kmh 29.15 in987.1 mb 0.00 in0.0 mm 0.00 in0.0 mm 0.15 in3.8 mm
06:40 PM 38.0°F3.3°C 34.8°F1.6°C 88% 8.3 mph SE13.4 kmh SE 12.0 mph19.3 kmh 29.15 in987.1 mb 0.00 in0.0 mm 0.00 in0.0 mm 0.15 in3.8 mm
06:41 PM 38.1°F3.4°C 34.9°F1.6°C 88% 6.4 mph SE10.3 kmh SE 12.0 mph19.3 kmh 29.15 in987.1 mb 0.00 in0.0 mm 0.00 in0.0 mm 0.15 in3.8 mm
06:42 PM 38.1°F3.4°C 34.9°F1.6°C 88% 8.9 mph SE14.3 kmh SE 12.0 mph19.3 kmh 29.15 in987.1 mb 0.00 in0.0 mm 0.00 in0.0 mm 0.15 in3.8 mm
06:43 PM 38.1°F3.4°C 34.9°F1.6°C 88% 9.0 mph SE14.5 kmh SE 12.0 mph19.3 kmh 29.15 in987.1 mb 0.00 in0.0 mm 0.00 in0.0 mm 0.15 in3.8 mm
06:44 PM 38.1°F3.4°C 34.9°F1.6°C 88% 9.0 mph SE14.5 kmh SE 12.0 mph19.3 kmh 29.15 in987.1 mb 0.00 in0.0 mm 0.00 in0.0 mm 0.15 in3.8 mm
06:45 PM 38.1°F3.4°C 34.9°F1.6°C 88% 6.1 mph ESE9.8 kmh ESE 11.0 mph17.7 kmh 29.15 in987.1 mb 0.00 in0.0 mm 0.00 in0.0 mm 0.15 in3.8 mm
06:46 PM 38.1°F3.4°C 34.9°F1.6°C 88% 8.6 mph ESE13.8 kmh ESE 11.0 mph17.7 kmh 29.15 in987.1 mb 0.00 in0.0 mm 0.00 in0.0 mm 0.15 in3.8 mm
06:47 PM 38.1°F3.4°C 34.9°F1.6°C 88% 9.8 mph ESE15.8 kmh ESE 14.0 mph22.5 kmh 29.15 in987.1 mb 0.00 in0.0 mm 0.00 in0.0 mm 0.15 in3.8 mm
06:48 PM 38.1°F3.4°C 34.9°F1.6°C 88% 9.5 mph SE15.3 kmh SE 14.0 mph22.5 kmh 29.15 in987.1 mb 0.00 in0.0 mm 0.00 in0.0 mm 0.15 in3.8 mm
06:49 PM 38.1°F3.4°C 34.9°F1.6°C 88% 9.5 mph ESE15.3 kmh ESE 12.0 mph19.3 kmh 29.15 in987.1 mb 0.00 in0.0 mm 0.00 in0.0 mm 0.15 in3.8 mm
06:50 PM 38.1°F3.4°C 34.9°F1.6°C 88% 8.5 mph ESE13.7 kmh ESE 12.0 mph19.3 kmh 29.15 in987.1 mb 0.00 in0.0 mm 0.00 in0.0 mm 0.15 in3.8 mm
06:51 PM 38.1°F3.4°C 34.9°F1.6°C 88% 8.1 mph ESE13.0 kmh ESE 11.0 mph17.7 kmh 29.15 in987.1 mb 0.00 in0.0 mm 0.00 in0.0 mm 0.15 in3.8 mm
06:52 PM 38.1°F3.4°C 34.9°F1.6°C 88% 9.8 mph SE15.8 kmh SE 14.0 mph22.5 kmh 29.15 in987.1 mb 0.00 in0.0 mm 0.00 in0.0 mm 0.15 in3.8 mm
06:53 PM 38.1°F3.4°C 34.9°F1.6°C 88% 10.7 mph ESE17.2 kmh ESE 16.0 mph25.7 kmh 29.15 in987.1 mb 0.00 in0.0 mm 0.00 in0.0 mm 0.15 in3.8 mm
06:54 PM 38.1°F3.4°C 34.9°F1.6°C 88% 9.1 mph ESE14.6 kmh ESE 16.0 mph25.7 kmh 29.15 in987.1 mb 0.00 in0.0 mm 0.00 in0.0 mm 0.15 in3.8 mm
06:55 PM 38.2°F3.4°C 35.0°F1.7°C 88% 10.4 mph SE16.7 kmh SE 13.0 mph20.9 kmh 29.15 in987.1 mb 0.00 in0.0 mm 0.00 in0.0 mm 0.15 in3.8 mm
06:56 PM 38.2°F3.4°C 35.0°F1.7°C 88% 9.5 mph ESE15.3 kmh ESE 13.0 mph20.9 kmh 29.15 in987.1 mb 0.00 in0.0 mm 0.00 in0.0 mm 0.15 in3.8 mm
06:57 PM 38.2°F3.4°C 35.0°F1.7°C 88% 8.9 mph ESE14.3 kmh ESE 13.0 mph20.9 kmh 29.15 in987.1 mb 0.00 in0.0 mm 0.00 in0.0 mm 0.15 in3.8 mm
06:58 PM 38.2°F3.4°C 35.0°F1.7°C 88% 8.5 mph ESE13.7 kmh ESE 12.0 mph19.3 kmh 29.15 in987.1 mb 0.00 in0.0 mm 0.00 in0.0 mm 0.15 in3.8 mm
06:59 PM 38.2°F3.4°C 35.0°F1.7°C 88% 8.6 mph ESE13.8 kmh ESE 10.0 mph16.1 kmh 29.15 in987.1 mb 0.00 in0.0 mm 0.00 in0.0 mm 0.15 in3.8 mm
07:00 PM 38.2°F3.4°C 35.0°F1.7°C 88% 8.2 mph ESE13.2 kmh ESE 10.0 mph16.1 kmh 29.15 in987.1 mb 0.00 in0.0 mm 0.00 in0.0 mm 0.15 in3.8 mm
07:01 PM 38.2°F3.4°C 35.0°F1.7°C 88% 8.6 mph ESE13.8 kmh ESE 11.0 mph17.7 kmh 29.15 in987.1 mb 0.00 in0.0 mm 0.00 in0.0 mm 0.15 in3.8 mm
07:02 PM 38.2°F3.4°C 35.0°F1.7°C 88% 9.0 mph ESE14.5 kmh ESE 13.0 mph20.9 kmh 29.15 in987.1 mb 0.00 in0.0 mm 0.00 in0.0 mm 0.15 in3.8 mm
07:03 PM 38.2°F3.4°C 35.0°F1.7°C 88% 9.3 mph ESE15.0 kmh ESE 13.0 mph20.9 kmh 29.15 in987.1 mb 0.00 in0.0 mm 0.00 in0.0 mm 0.15 in3.8 mm
07:04 PM 38.2°F3.4°C 35.0°F1.7°C 88% 9.1 mph ESE14.6 kmh ESE 12.0 mph19.3 kmh 29.15 in987.1 mb 0.00 in0.0 mm 0.00 in0.0 mm 0.15 in3.8 mm
07:05 PM 38.2°F3.4°C 35.2°F1.8°C 89% 9.2 mph ESE14.8 kmh ESE 12.0 mph19.3 kmh 29.15 in987.1 mb 0.00 in0.0 mm 0.00 in0.0 mm 0.15 in3.8 mm
07:06 PM 38.2°F3.4°C 35.0°F1.7°C 88% 8.5 mph ESE13.7 kmh ESE 14.0 mph22.5 kmh 29.15 in987.1 mb 0.00 in0.0 mm 0.00 in0.0 mm 0.15 in3.8 mm
07:07 PM 38.2°F3.4°C 35.2°F1.8°C 89% 8.1 mph ESE13.0 kmh ESE 14.0 mph22.5 kmh 29.15 in987.1 mb 0.00 in0.0 mm 0.00 in0.0 mm 0.15 in3.8 mm
07:08 PM 38.2°F3.4°C 35.2°F1.8°C 89% 6.4 mph ESE10.3 kmh ESE 11.0 mph17.7 kmh 29.15 in987.1 mb 0.00 in0.0 mm 0.00 in0.0 mm 0.15 in3.8 mm
07:09 PM 38.1°F3.4°C 35.2°F1.8°C 89% 8.6 mph ESE13.8 kmh ESE 12.0 mph19.3 kmh 29.15 in987.1 mb 0.00 in0.0 mm 0.00 in0.0 mm 0.15 in3.8 mm
07:10 PM 38.2°F3.4°C 35.2°F1.8°C 89% 9.5 mph ESE15.3 kmh ESE 12.0 mph19.3 kmh 29.15 in987.1 mb 0.00 in0.0 mm 0.00 in0.0 mm 0.15 in3.8 mm
07:11 PM 38.2°F3.4°C 35.2°F1.8°C 89% 10.0 mph ESE16.1 kmh ESE 14.0 mph22.5 kmh 29.15 in987.1 mb 0.00 in0.0 mm 0.00 in0.0 mm 0.15 in3.8 mm
07:12 PM 38.1°F3.4°C 35.2°F1.8°C 89% 10.3 mph SE16.6 kmh SE 14.0 mph22.5 kmh 29.15 in987.1 mb 0.00 in0.0 mm 0.00 in0.0 mm 0.15 in3.8 mm
07:13 PM 38.1°F3.4°C 35.2°F1.8°C 89% 7.8 mph SE12.6 kmh SE 13.0 mph20.9 kmh 29.15 in987.1 mb 0.00 in0.0 mm 0.00 in0.0 mm 0.15 in3.8 mm
07:14 PM 38.1°F3.4°C 35.2°F1.8°C 89% 6.3 mph ESE10.1 kmh ESE 13.0 mph20.9 kmh 29.15 in987.1 mb 0.00 in0.0 mm 0.00 in0.0 mm 0.15 in3.8 mm
07:15 PM 38.1°F3.4°C 35.2°F1.8°C 89% 7.7 mph ESE12.4 kmh ESE 11.0 mph17.7 kmh 29.15 in987.1 mb 0.00 in0.0 mm 0.00 in0.0 mm 0.15 in3.8 mm
07:16 PM 38.2°F3.4°C 35.2°F1.8°C 89% 10.1 mph SE16.3 kmh SE 17.0 mph27.4 kmh 29.15 in987.1 mb 0.00 in0.0 mm 0.00 in0.0 mm 0.15 in3.8 mm
07:17 PM 38.1°F3.4°C 35.2°F1.8°C 89% 10.1 mph SE16.3 kmh SE 17.0 mph27.4 kmh 29.15 in987.1 mb 0.00 in0.0 mm 0.00 in0.0 mm 0.15 in3.8 mm
07:18 PM 38.1°F3.4°C 35.2°F1.8°C 89% 7.9 mph SE12.7 kmh SE 15.0 mph24.1 kmh 29.15 in987.1 mb 0.00 in0.0 mm 0.00 in0.0 mm 0.15 in3.8 mm
07:19 PM 38.1°F3.4°C 35.2°F1.8°C 89% 8.2 mph SE13.2 kmh SE 13.0 mph20.9 kmh 29.15 in987.1 mb 0.00 in0.0 mm 0.00 in0.0 mm 0.15 in3.8 mm
07:20 PM 38.1°F3.4°C 35.2°F1.8°C 89% 7.5 mph SE12.1 kmh SE 12.0 mph19.3 kmh 29.16 in987.5 mb 0.00 in0.0 mm 0.00 in0.0 mm 0.15 in3.8 mm
07:21 PM 38.1°F3.4°C 35.2°F1.8°C 89% 6.8 mph SE10.9 kmh SE 12.0 mph19.3 kmh 29.16 in987.5 mb 0.00 in0.0 mm 0.00 in0.0 mm 0.15 in3.8 mm
07:22 PM 38.1°F3.4°C 35.2°F1.8°C 89% 9.6 mph SE15.4 kmh SE 12.0 mph19.3 kmh 29.16 in987.5 mb 0.00 in0.0 mm 0.00 in0.0 mm 0.15 in3.8 mm
07:23 PM 38.1°F3.4°C 35.2°F1.8°C 89% 7.5 mph SE12.1 kmh SE 12.0 mph19.3 kmh 29.16 in987.5 mb 0.00 in0.0 mm 0.00 in0.0 mm 0.15 in3.8 mm
07:24 PM 38.1°F3.4°C 35.2°F1.8°C 89% 9.3 mph SE15.0 kmh SE 13.0 mph20.9 kmh 29.16 in987.5 mb 0.00 in0.0 mm 0.00 in0.0 mm 0.15 in3.8 mm
07:25 PM 38.1°F3.4°C 35.2°F1.8°C 89% 9.6 mph SE15.4 kmh SE 13.0 mph20.9 kmh 29.16 in987.5 mb 0.00 in0.0 mm 0.00 in0.0 mm 0.15 in3.8 mm
07:26 PM 38.1°F3.4°C 35.2°F1.8°C 89% 8.8 mph SE14.2 kmh SE 12.0 mph19.3 kmh 29.16 in987.5 mb 0.00 in0.0 mm 0.00 in0.0 mm 0.15 in3.8 mm
07:27 PM 38.0°F3.3°C 35.1°F1.7°C 89% 10.2 mph SE16.4 kmh SE 15.0 mph24.1 kmh 29.16 in987.5 mb 0.00 in0.0 mm 0.00 in0.0 mm 0.15 in3.8 mm
07:28 PM 38.1°F3.4°C 35.2°F1.8°C 89% 8.2 mph SE13.2 kmh SE 15.0 mph24.1 kmh 29.16 in987.5 mb 0.00 in0.0 mm 0.00 in0.0 mm 0.15 in3.8 mm
07:29 PM 38.1°F3.4°C 35.2°F1.8°C 89% 8.3 mph ESE13.4 kmh ESE 12.0 mph19.3 kmh 29.16 in987.5 mb 0.00 in0.0 mm 0.00 in0.0 mm 0.15 in3.8 mm
07:30 PM 38.0°F3.3°C 35.1°F1.7°C 89% 10.2 mph SE16.4 kmh SE 13.0 mph20.9 kmh 29.16 in987.5 mb 0.00 in0.0 mm 0.00 in0.0 mm 0.15 in3.8 mm
07:31 PM 38.0°F3.3°C 35.1°F1.7°C 89% 9.7 mph ESE15.6 kmh ESE 13.0 mph20.9 kmh 29.16 in987.5 mb 0.00 in0.0 mm 0.00 in0.0 mm 0.15 in3.8 mm
07:32 PM 38.0°F3.3°C 35.1°F1.7°C 89% 7.9 mph ESE12.7 kmh ESE 13.0 mph20.9 kmh 29.16 in987.5 mb 0.00 in0.0 mm 0.00 in0.0 mm 0.15 in3.8 mm
07:33 PM 38.0°F3.3°C 35.1°F1.7°C 89% 8.8 mph ESE14.2 kmh ESE 11.0 mph17.7 kmh 29.16 in987.5 mb 0.00 in0.0 mm 0.00 in0.0 mm 0.15 in3.8 mm
07:34 PM 38.0°F3.3°C 35.1°F1.7°C 89% 8.5 mph SE13.7 kmh SE 12.0 mph19.3 kmh 29.16 in987.5 mb 0.00 in0.0 mm 0.00 in0.0 mm 0.15 in3.8 mm
07:35 PM 37.9°F3.3°C 35.0°F1.7°C 89% 11.4 mph SE18.3 kmh SE 15.0 mph24.1 kmh 29.16 in987.5 mb 0.00 in0.0 mm 0.00 in0.0 mm 0.15 in3.8 mm
07:36 PM 37.9°F3.3°C 35.0°F1.7°C 89% 10.5 mph ESE16.9 kmh ESE 15.0 mph24.1 kmh 29.16 in987.5 mb 0.00 in0.0 mm 0.00 in0.0 mm 0.15 in3.8 mm
07:37 PM 37.9°F3.3°C 35.0°F1.7°C 89% 12.0 mph ESE19.3 kmh ESE 17.0 mph27.4 kmh 29.16 in987.5 mb 0.00 in0.0 mm 0.00 in0.0 mm 0.15 in3.8 mm
07:38 PM 37.8°F3.2°C 34.9°F1.6°C 89% 9.4 mph SE15.1 kmh SE 16.0 mph25.7 kmh 29.16 in987.5 mb 0.00 in0.0 mm 0.00 in0.0 mm 0.15 in3.8 mm
07:39 PM 37.8°F3.2°C 34.9°F1.6°C 89% 11.3 mph SE18.2 kmh SE 15.0 mph24.1 kmh 29.16 in987.5 mb 0.00 in0.0 mm 0.00 in0.0 mm 0.15 in3.8 mm
07:40 PM 37.8°F3.2°C 34.9°F1.6°C 89% 9.9 mph SE15.9 kmh SE 15.0 mph24.1 kmh 29.16 in987.5 mb 0.00 in0.0 mm 0.00 in0.0 mm 0.15 in3.8 mm
07:41 PM 37.7°F3.2°C 34.8°F1.6°C 89% 7.5 mph SE12.1 kmh SE 13.0 mph20.9 kmh 29.16 in987.5 mb 0.00 in0.0 mm 0.00 in0.0 mm 0.15 in3.8 mm
07:42 PM 37.7°F3.2°C 34.8°F1.6°C 89% 8.3 mph SE13.4 kmh SE 10.0 mph16.1 kmh 29.16 in987.5 mb 0.00 in0.0 mm 0.00 in0.0 mm 0.15 in3.8 mm
07:43 PM 37.7°F3.2°C 34.8°F1.6°C 89% 9.0 mph SE14.5 kmh SE 11.0 mph17.7 kmh 29.16 in987.5 mb 0.00 in0.0 mm 0.00 in0.0 mm 0.15 in3.8 mm
07:44 PM 37.6°F3.1°C 34.7°F1.5°C 89% 9.1 mph SE14.6 kmh SE 12.0 mph19.3 kmh 29.16 in987.5 mb 0.00 in0.0 mm 0.00 in0.0 mm 0.15 in3.8 mm
07:45 PM 37.6°F3.1°C 34.7°F1.5°C 89% 8.9 mph SE14.3 kmh SE 12.0 mph19.3 kmh 29.16 in987.5 mb 0.00 in0.0 mm 0.00 in0.0 mm 0.15 in3.8 mm
07:46 PM 37.6°F3.1°C 34.7°F1.5°C 89% 9.3 mph ESE15.0 kmh ESE 12.0 mph19.3 kmh 29.16 in987.5 mb 0.00 in0.0 mm 0.00 in0.0 mm 0.15 in3.8 mm
07:47 PM 37.6°F3.1°C 34.7°F1.5°C 89% 8.6 mph SE13.8 kmh SE 12.0 mph19.3 kmh 29.16 in987.5 mb 0.00 in0.0 mm 0.00 in0.0 mm 0.15 in3.8 mm
07:48 PM 37.6°F3.1°C 34.7°F1.5°C 89% 6.6 mph SE10.6 kmh SE 12.0 mph19.3 kmh 29.16 in987.5 mb 0.00 in0.0 mm 0.00 in0.0 mm 0.15 in3.8 mm
07:49 PM 37.6°F3.1°C 34.7°F1.5°C 89% 6.8 mph ESE10.9 kmh ESE 11.0 mph17.7 kmh 29.16 in987.5 mb 0.00 in0.0 mm 0.00 in0.0 mm 0.15 in3.8 mm
07:50 PM 37.6°F3.1°C 34.7°F1.5°C 89% 9.4 mph ESE15.1 kmh ESE 11.0 mph17.7 kmh 29.16 in987.5 mb 0.00 in0.0 mm 0.00 in0.0 mm 0.15 in3.8 mm
07:51 PM 37.5°F3.1°C 34.6°F1.4°C 89% 8.1 mph ESE13.0 kmh ESE 11.0 mph17.7 kmh 29.16 in987.5 mb 0.00 in0.0 mm 0.00 in0.0 mm 0.15 in3.8 mm
07:52 PM 37.5°F3.1°C 34.6°F1.4°C 89% 8.8 mph ESE14.2 kmh ESE 12.0 mph19.3 kmh 29.16 in987.5 mb 0.00 in0.0 mm 0.00 in0.0 mm 0.15 in3.8 mm
07:53 PM 37.5°F3.1°C 34.6°F1.4°C 89% 8.2 mph ESE13.2 kmh ESE 12.0 mph19.3 kmh 29.16 in987.5 mb 0.00 in0.0 mm 0.00 in0.0 mm 0.15 in3.8 mm
07:54 PM 37.5°F3.1°C 34.6°F1.4°C 89% 8.7 mph ESE14.0 kmh ESE 13.0 mph20.9 kmh 29.16 in987.5 mb 0.00 in0.0 mm 0.00 in0.0 mm 0.15 in3.8 mm
07:55 PM 37.5°F3.1°C 34.6°F1.4°C 89% 9.2 mph ESE14.8 kmh ESE 14.0 mph22.5 kmh 29.16 in987.5 mb 0.00 in0.0 mm 0.00 in0.0 mm 0.15 in3.8 mm
07:56 PM 37.4°F3.0°C 34.5°F1.4°C 89% 10.0 mph E16.1 kmh E 14.0 mph22.5 kmh 29.16 in987.5 mb 0.00 in0.0 mm 0.00 in0.0 mm 0.15 in3.8 mm
07:57 PM 37.4°F3.0°C 34.5°F1.4°C 89% 7.3 mph ESE11.7 kmh ESE 14.0 mph22.5 kmh 29.16 in987.5 mb 0.00 in0.0 mm 0.00 in0.0 mm 0.15 in3.8 mm
07:58 PM 37.4°F3.0°C 34.5°F1.4°C 89% 9.6 mph ESE15.4 kmh ESE 13.0 mph20.9 kmh 29.16 in987.5 mb 0.00 in0.0 mm 0.00 in0.0 mm 0.15 in3.8 mm
07:59 PM 37.4°F3.0°C 34.5°F1.4°C 89% 10.3 mph E16.6 kmh E 13.0 mph20.9 kmh 29.16 in987.5 mb 0.00 in0.0 mm 0.00 in0.0 mm 0.15 in3.8 mm
08:00 PM 37.4°F3.0°C 34.5°F1.4°C 89% 8.5 mph ESE13.7 kmh ESE 13.0 mph20.9 kmh 29.16 in987.5 mb 0.00 in0.0 mm 0.00 in0.0 mm 0.15 in3.8 mm
08:01 PM 37.4°F3.0°C 34.5°F1.4°C 89% 9.7 mph E15.6 kmh E 14.0 mph22.5 kmh 29.16 in987.5 mb 0.00 in0.0 mm 0.00 in0.0 mm 0.15 in3.8 mm
08:02 PM 37.4°F3.0°C 34.7°F1.5°C 90% 10.4 mph ESE16.7 kmh ESE 15.0 mph24.1 kmh 29.16 in987.5 mb 0.00 in0.0 mm 0.00 in0.0 mm 0.15 in3.8 mm
08:03 PM 37.4°F3.0°C 34.7°F1.5°C 90% 7.6 mph ESE12.2 kmh ESE 13.0 mph20.9 kmh 29.17 in987.8 mb 0.00 in0.0 mm 0.00 in0.0 mm 0.15 in3.8 mm
08:04 PM 37.4°F3.0°C 34.7°F1.5°C 90% 7.3 mph ESE11.7 kmh ESE 10.0 mph16.1 kmh 29.17 in987.8 mb 0.01 in0.3 mm 0.60 in15.2 mm 0.16 in4.1 mm
08:05 PM 37.3°F2.9°C 34.6°F1.4°C 90% 5.4 mph E8.7 kmh E 9.0 mph14.5 kmh 29.17 in987.8 mb 0.01 in0.3 mm 0.00 in0.0 mm 0.16 in4.1 mm
08:06 PM 37.4°F3.0°C 34.7°F1.5°C 90% 6.1 mph ESE9.8 kmh ESE 10.0 mph16.1 kmh 29.16 in987.5 mb 0.01 in0.3 mm 0.00 in0.0 mm 0.16 in4.1 mm
08:07 PM 37.3°F2.9°C 34.6°F1.4°C 90% 7.7 mph ESE12.4 kmh ESE 12.0 mph19.3 kmh 29.16 in987.5 mb 0.01 in0.3 mm 0.00 in0.0 mm 0.16 in4.1 mm
08:08 PM 37.3°F2.9°C 34.6°F1.4°C 90% 8.5 mph ESE13.7 kmh ESE 12.0 mph19.3 kmh 29.16 in987.5 mb 0.01 in0.3 mm 0.00 in0.0 mm 0.16 in4.1 mm
08:09 PM 37.4°F3.0°C 34.7°F1.5°C 90% 11.0 mph ESE17.7 kmh ESE 14.0 mph22.5 kmh 29.17 in987.8 mb 0.01 in0.3 mm 0.00 in0.0 mm 0.16 in4.1 mm
08:10 PM 37.3°F2.9°C 34.6°F1.4°C 90% 6.2 mph ESE10.0 kmh ESE 14.0 mph22.5 kmh 29.16 in987.5 mb 0.01 in0.3 mm 0.00 in0.0 mm 0.16 in4.1 mm
08:11 PM 37.3°F2.9°C 34.6°F1.4°C 90% 7.1 mph ESE11.4 kmh ESE 12.0 mph19.3 kmh 29.17 in987.8 mb 0.01 in0.3 mm 0.00 in0.0 mm 0.16 in4.1 mm
08:12 PM 37.3°F2.9°C 34.6°F1.4°C 90% 7.4 mph E11.9 kmh E 12.0 mph19.3 kmh 29.17 in987.8 mb 0.01 in0.3 mm 0.00 in0.0 mm 0.16 in4.1 mm
08:13 PM 37.3°F2.9°C 34.6°F1.4°C 90% 8.1 mph ESE13.0 kmh ESE 11.0 mph17.7 kmh 29.17 in987.8 mb 0.01 in0.3 mm 0.00 in0.0 mm 0.16 in4.1 mm
08:14 PM 37.4°F3.0°C 34.7°F1.5°C 90% 9.1 mph ESE14.6 kmh ESE 12.0 mph19.3 kmh 29.17 in987.8 mb 0.01 in0.3 mm 0.00 in0.0 mm 0.16 in4.1 mm
08:15 PM 37.4°F3.0°C 34.7°F1.5°C 90% 6.1 mph ESE9.8 kmh ESE 12.0 mph19.3 kmh 29.17 in987.8 mb 0.01 in0.3 mm 0.00 in0.0 mm 0.16 in4.1 mm
08:16 PM 37.3°F2.9°C 34.6°F1.4°C 90% 6.9 mph E11.1 kmh E 12.0 mph19.3 kmh 29.17 in987.8 mb 0.01 in0.3 mm 0.00 in0.0 mm 0.16 in4.1 mm
08:17 PM 37.3°F2.9°C 34.6°F1.4°C 90% 6.6 mph ESE10.6 kmh ESE 9.0 mph14.5 kmh 29.17 in987.8 mb 0.01 in0.3 mm 0.00 in0.0 mm 0.16 in4.1 mm
08:18 PM 37.3°F2.9°C 34.6°F1.4°C 90% 10.2 mph ESE16.4 kmh ESE 13.0 mph20.9 kmh 29.17 in987.8 mb 0.01 in0.3 mm 0.00 in0.0 mm 0.16 in4.1 mm
08:19 PM 37.3°F2.9°C 34.6°F1.4°C 90% 7.9 mph ESE12.7 kmh ESE 13.0 mph20.9 kmh 29.17 in987.8 mb 0.01 in0.3 mm 0.00 in0.0 mm 0.16 in4.1 mm
08:20 PM 37.3°F2.9°C 34.6°F1.4°C 90% 8.6 mph ESE13.8 kmh ESE 10.0 mph16.1 kmh 29.17 in987.8 mb 0.01 in0.3 mm 0.00 in0.0 mm 0.16 in4.1 mm
08:21 PM 37.3°F2.9°C 34.6°F1.4°C 90% 7.2 mph ESE11.6 kmh ESE 10.0 mph16.1 kmh 29.17 in987.8 mb 0.01 in0.3 mm 0.00 in0.0 mm 0.16 in4.1 mm
08:22 PM 37.3°F2.9°C 34.6°F1.4°C 90% 7.7 mph ESE12.4 kmh ESE 9.0 mph14.5 kmh 29.17 in987.8 mb 0.01 in0.3 mm 0.00 in0.0 mm 0.16 in4.1 mm
08:23 PM 37.3°F2.9°C 34.6°F1.4°C 90% 7.5 mph ESE12.1 kmh ESE 11.0 mph17.7 kmh 29.17 in987.8 mb 0.01 in0.3 mm 0.00 in0.0 mm 0.16 in4.1 mm
08:24 PM 37.3°F2.9°C 34.6°F1.4°C 90% 8.5 mph ESE13.7 kmh ESE 13.0 mph20.9 kmh 29.17 in987.8 mb 0.01 in0.3 mm 0.00 in0.0 mm 0.16 in4.1 mm
08:25 PM 37.3°F2.9°C 34.6°F1.4°C 90% 9.0 mph ESE14.5 kmh ESE 13.0 mph20.9 kmh 29.17 in987.8 mb 0.01 in0.3 mm 0.00 in0.0 mm 0.16 in4.1 mm
08:26 PM 37.3°F2.9°C 34.6°F1.4°C 90% 8.3 mph ESE13.4 kmh ESE 11.0 mph17.7 kmh 29.17 in987.8 mb 0.02 in0.5 mm 0.60 in15.2 mm 0.17 in4.3 mm
08:27 PM 37.3°F2.9°C 34.6°F1.4°C 90% 7.5 mph SE12.1 kmh SE 12.0 mph19.3 kmh 29.17 in987.8 mb 0.02 in0.5 mm 0.00 in0.0 mm 0.17 in4.3 mm
08:28 PM 37.3°F2.9°C 34.6°F1.4°C 90% 9.3 mph SE15.0 kmh SE 12.0 mph19.3 kmh 29.17 in987.8 mb 0.02 in0.5 mm 0.00 in0.0 mm 0.17 in4.3 mm
08:29 PM 37.3°F2.9°C 34.6°F1.4°C 90% 7.5 mph ESE12.1 kmh ESE 12.0 mph19.3 kmh 29.17 in987.8 mb 0.02 in0.5 mm 0.00 in0.0 mm 0.17 in4.3 mm
08:30 PM 37.2°F2.9°C 34.5°F1.4°C 90% 9.6 mph ESE15.4 kmh ESE 13.0 mph20.9 kmh 29.17 in987.8 mb 0.02 in0.5 mm 0.00 in0.0 mm 0.17 in4.3 mm
08:31 PM 37.2°F2.9°C 34.5°F1.4°C 90% 10.8 mph ESE17.4 kmh ESE 13.0 mph20.9 kmh 29.17 in987.8 mb 0.02 in0.5 mm 0.00 in0.0 mm 0.17 in4.3 mm
08:32 PM 37.2°F2.9°C 34.5°F1.4°C 90% 9.2 mph ESE14.8 kmh ESE 13.0 mph20.9 kmh 29.17 in987.8 mb 0.02 in0.5 mm 0.00 in0.0 mm 0.17 in4.3 mm
08:33 PM 37.1°F2.8°C 34.4°F1.3°C 90% 11.5 mph ESE18.5 kmh ESE 15.0 mph24.1 kmh 29.17 in987.8 mb 0.02 in0.5 mm 0.00 in0.0 mm 0.17 in4.3 mm
08:34 PM 37.2°F2.9°C 34.5°F1.4°C 90% 9.7 mph ESE15.6 kmh ESE 15.0 mph24.1 kmh 29.17 in987.8 mb 0.02 in0.5 mm 0.00 in0.0 mm 0.17 in4.3 mm
08:35 PM 37.2°F2.9°C 34.5°F1.4°C 90% 8.4 mph ESE13.5 kmh ESE 12.0 mph19.3 kmh 29.17 in987.8 mb 0.02 in0.5 mm 0.00 in0.0 mm 0.17 in4.3 mm
08:36 PM 37.2°F2.9°C 34.5°F1.4°C 90% 10.6 mph ESE17.1 kmh ESE 13.0 mph20.9 kmh 29.17 in987.8 mb 0.02 in0.5 mm 0.00 in0.0 mm 0.17 in4.3 mm
08:37 PM 37.2°F2.9°C 34.5°F1.4°C 90% 9.5 mph ESE15.3 kmh ESE 13.0 mph20.9 kmh 29.17 in987.8 mb 0.02 in0.5 mm 0.00 in0.0 mm 0.17 in4.3 mm
08:38 PM 37.2°F2.9°C 34.5°F1.4°C 90% 10.5 mph ESE16.9 kmh ESE 14.0 mph22.5 kmh 29.17 in987.8 mb 0.02 in0.5 mm 0.00 in0.0 mm 0.17 in4.3 mm
08:39 PM 37.2°F2.9°C 34.5°F1.4°C 90% 9.8 mph ESE15.8 kmh ESE 14.0 mph22.5 kmh 29.17 in987.8 mb 0.02 in0.5 mm 0.00 in0.0 mm 0.17 in4.3 mm
08:40 PM 37.2°F2.9°C 34.5°F1.4°C 90% 7.5 mph ESE12.1 kmh ESE 13.0 mph20.9 kmh 29.17 in987.8 mb 0.02 in0.5 mm 0.00 in0.0 mm 0.17 in4.3 mm
08:41 PM 37.2°F2.9°C 34.5°F1.4°C 90% 7.1 mph ESE11.4 kmh ESE 12.0 mph19.3 kmh 29.17 in987.8 mb 0.02 in0.5 mm 0.00 in0.0 mm 0.17 in4.3 mm
08:42 PM 37.2°F2.9°C 34.5°F1.4°C 90% 8.2 mph ESE13.2 kmh ESE 12.0 mph19.3 kmh 29.17 in987.8 mb 0.02 in0.5 mm 0.00 in0.0 mm 0.17 in4.3 mm
08:43 PM 37.2°F2.9°C 34.5°F1.4°C 90% 8.7 mph ESE14.0 kmh ESE 12.0 mph19.3 kmh 29.17 in987.8 mb 0.02 in0.5 mm 0.00 in0.0 mm 0.17 in4.3 mm
08:44 PM 37.2°F2.9°C 34.5°F1.4°C 90% 8.6 mph ESE13.8 kmh ESE 12.0 mph19.3 kmh 29.17 in987.8 mb 0.02 in0.5 mm 0.00 in0.0 mm 0.17 in4.3 mm
08:45 PM 37.3°F2.9°C 34.6°F1.4°C 90% 7.4 mph ESE11.9 kmh ESE 11.0 mph17.7 kmh 29.17 in987.8 mb 0.02 in0.5 mm 0.00 in0.0 mm 0.17 in4.3 mm
08:46 PM 37.2°F2.9°C 34.5°F1.4°C 90% 7.2 mph ESE11.6 kmh ESE 10.0 mph16.1 kmh 29.17 in987.8 mb 0.02 in0.5 mm 0.00 in0.0 mm 0.17 in4.3 mm
08:47 PM 37.2°F2.9°C 34.5°F1.4°C 90% 7.0 mph ESE11.3 kmh ESE 10.0 mph16.1 kmh 29.17 in987.8 mb 0.02 in0.5 mm 0.00 in0.0 mm 0.17 in4.3 mm
08:48 PM 37.2°F2.9°C 34.5°F1.4°C 90% 6.2 mph E10.0 kmh E 10.0 mph16.1 kmh 29.17 in987.8 mb 0.02 in0.5 mm 0.00 in0.0 mm 0.17 in4.3 mm
08:49 PM 37.2°F2.9°C 34.5°F1.4°C 90% 6.0 mph ESE9.7 kmh ESE 10.0 mph16.1 kmh 29.17 in987.8 mb 0.02 in0.5 mm 0.00 in0.0 mm 0.17 in4.3 mm
08:50 PM 37.2°F2.9°C 34.5°F1.4°C 90% 6.7 mph E10.8 kmh E 15.0 mph24.1 kmh 29.17 in987.8 mb 0.02 in0.5 mm 0.00 in0.0 mm 0.17 in4.3 mm
08:51 PM 37.3°F2.9°C 34.6°F1.4°C 90% 10.1 mph E16.3 kmh E 15.0 mph24.1 kmh 29.17 in987.8 mb 0.02 in0.5 mm 0.00 in0.0 mm 0.17 in4.3 mm
08:52 PM 37.2°F2.9°C 34.5°F1.4°C 90% 9.2 mph E14.8 kmh E 14.0 mph22.5 kmh 29.17 in987.8 mb 0.02 in0.5 mm 0.00 in0.0 mm 0.17 in4.3 mm
08:53 PM 37.3°F2.9°C 34.6°F1.4°C 90% 5.9 mph ESE9.5 kmh ESE 12.0 mph19.3 kmh 29.17 in987.8 mb 0.02 in0.5 mm 0.00 in0.0 mm 0.17 in4.3 mm
08:54 PM 37.3°F2.9°C 34.6°F1.4°C 90% 7.5 mph E12.1 kmh E 10.0 mph16.1 kmh 29.17 in987.8 mb 0.03 in0.8 mm 0.60 in15.2 mm 0.18 in4.6 mm
08:55 PM 37.3°F2.9°C 34.9°F1.6°C 91% 8.6 mph E13.8 kmh E 10.0 mph16.1 kmh 29.17 in987.8 mb 0.03 in0.8 mm 0.00 in0.0 mm 0.18 in4.6 mm
08:56 PM 37.3°F2.9°C 34.9°F1.6°C 91% 6.3 mph ESE10.1 kmh ESE 10.0 mph16.1 kmh 29.17 in987.8 mb 0.03 in0.8 mm 0.00 in0.0 mm 0.18 in4.6 mm
08:57 PM 37.3°F2.9°C 34.9°F1.6°C 91% 3.7 mph E6.0 kmh E 9.0 mph14.5 kmh 29.17 in987.8 mb 0.03 in0.8 mm 0.00 in0.0 mm 0.18 in4.6 mm
08:58 PM 37.3°F2.9°C 34.9°F1.6°C 91% 5.0 mph E8.0 kmh E 9.0 mph14.5 kmh 29.17 in987.8 mb 0.03 in0.8 mm 0.00 in0.0 mm 0.18 in4.6 mm
08:59 PM 37.3°F2.9°C 34.9°F1.6°C 91% 8.8 mph E14.2 kmh E 10.0 mph16.1 kmh 29.17 in987.8 mb 0.03 in0.8 mm 0.00 in0.0 mm 0.18 in4.6 mm
09:00 PM 37.3°F2.9°C 34.9°F1.6°C 91% 7.0 mph E11.3 kmh E 10.0 mph16.1 kmh 29.17 in987.8 mb 0.03 in0.8 mm 0.00 in0.0 mm 0.18 in4.6 mm
09:01 PM 37.3°F2.9°C 34.9°F1.6°C 91% 6.3 mph E10.1 kmh E 9.0 mph14.5 kmh 29.17 in987.8 mb 0.03 in0.8 mm 0.00 in0.0 mm 0.18 in4.6 mm
09:02 PM 37.3°F2.9°C 34.9°F1.6°C 91% 8.0 mph E12.9 kmh E 10.0 mph16.1 kmh 29.17 in987.8 mb 0.03 in0.8 mm 0.00 in0.0 mm 0.18 in4.6 mm
09:03 PM 37.3°F2.9°C 34.9°F1.6°C 91% 8.6 mph E13.8 kmh E 12.0 mph19.3 kmh 29.17 in987.8 mb 0.03 in0.8 mm 0.00 in0.0 mm 0.18 in4.6 mm
09:04 PM 37.3°F2.9°C 34.9°F1.6°C 91% 7.5 mph E12.1 kmh E 12.0 mph19.3 kmh 29.17 in987.8 mb 0.02 in0.5 mm 0.00 in0.0 mm 0.18 in4.6 mm
09:05 PM 37.3°F2.9°C 34.9°F1.6°C 91% 8.5 mph E13.7 kmh E 12.0 mph19.3 kmh 29.17 in987.8 mb 0.02 in0.5 mm 0.00 in0.0 mm 0.18 in4.6 mm
09:06 PM 37.3°F2.9°C 34.9°F1.6°C 91% 6.8 mph E10.9 kmh E 12.0 mph19.3 kmh 29.17 in987.8 mb 0.02 in0.5 mm 0.00 in0.0 mm 0.18 in4.6 mm
09:07 PM 37.3°F2.9°C 34.9°F1.6°C 91% 8.6 mph E13.8 kmh E 12.0 mph19.3 kmh 29.18 in988.1 mb 0.02 in0.5 mm 0.00 in0.0 mm 0.18 in4.6 mm
09:08 PM 37.3°F2.9°C 34.9°F1.6°C 91% 8.0 mph E12.9 kmh E 12.0 mph19.3 kmh 29.18 in988.1 mb 0.02 in0.5 mm 0.00 in0.0 mm 0.18 in4.6 mm
09:09 PM 37.4°F3.0°C 35.0°F1.7°C 91% 6.4 mph E10.3 kmh E 11.0 mph17.7 kmh 29.17 in987.8 mb 0.02 in0.5 mm 0.00 in0.0 mm 0.18 in4.6 mm
09:10 PM 37.4°F3.0°C 35.0°F1.7°C 91% 10.2 mph E16.4 kmh E 13.0 mph20.9 kmh 29.18 in988.1 mb 0.02 in0.5 mm 0.00 in0.0 mm 0.18 in4.6 mm
09:11 PM 37.4°F3.0°C 35.0°F1.7°C 91% 9.7 mph E15.6 kmh E 13.0 mph20.9 kmh 29.18 in988.1 mb 0.02 in0.5 mm 0.00 in0.0 mm 0.18 in4.6 mm
09:12 PM 37.4°F3.0°C 35.0°F1.7°C 91% 7.5 mph E12.1 kmh E 12.0 mph19.3 kmh 29.18 in988.1 mb 0.02 in0.5 mm 0.00 in0.0 mm 0.18 in4.6 mm
09:13 PM 37.4°F3.0°C 35.0°F1.7°C 91% 8.7 mph E14.0 kmh E 11.0 mph17.7 kmh 29.18 in988.1 mb 0.02 in0.5 mm 0.00 in0.0 mm 0.18 in4.6 mm
09:14 PM 37.4°F3.0°C 35.0°F1.7°C 91% 7.1 mph E11.4 kmh E 10.0 mph16.1 kmh 29.18 in988.1 mb 0.02 in0.5 mm 0.00 in0.0 mm 0.18 in4.6 mm
09:15 PM 37.4°F3.0°C 35.0°F1.7°C 91% 7.1 mph E11.4 kmh E 10.0 mph16.1 kmh 29.18 in988.1 mb 0.02 in0.5 mm 0.00 in0.0 mm 0.18 in4.6 mm
09:16 PM 37.4°F3.0°C 35.0°F1.7°C 91% 9.3 mph E15.0 kmh E 12.0 mph19.3 kmh 29.18 in988.1 mb 0.03 in0.8 mm 0.60 in15.2 mm 0.19 in4.8 mm
09:17 PM 37.4°F3.0°C 35.0°F1.7°C 91% 8.3 mph E13.4 kmh E 12.0 mph19.3 kmh 29.18 in988.1 mb 0.03 in0.8 mm 0.00 in0.0 mm 0.19 in4.8 mm
09:18 PM 37.4°F3.0°C 35.0°F1.7°C 91% 7.8 mph E12.6 kmh E 11.0 mph17.7 kmh 29.18 in988.1 mb 0.03 in0.8 mm 0.00 in0.0 mm 0.19 in4.8 mm
09:19 PM 37.4°F3.0°C 35.0°F1.7°C 91% 7.4 mph E11.9 kmh E 10.0 mph16.1 kmh 29.18 in988.1 mb 0.03 in0.8 mm 0.00 in0.0 mm 0.19 in4.8 mm
09:20 PM 37.4°F3.0°C 35.0°F1.7°C 91% 8.1 mph E13.0 kmh E 10.0 mph16.1 kmh 29.18 in988.1 mb 0.03 in0.8 mm 0.00 in0.0 mm 0.19 in4.8 mm
09:21 PM 37.4°F3.0°C 35.0°F1.7°C 91% 7.5 mph E12.1 kmh E 10.0 mph16.1 kmh 29.18 in988.1 mb 0.03 in0.8 mm 0.00 in0.0 mm 0.19 in4.8 mm
09:22 PM 37.4°F3.0°C 35.0°F1.7°C 91% 8.5 mph E13.7 kmh E 11.0 mph17.7 kmh 29.18 in988.1 mb 0.03 in0.8 mm 0.00 in0.0 mm 0.19 in4.8 mm
09:23 PM 37.5°F3.1°C 35.1°F1.7°C 91% 9.2 mph E14.8 kmh E 13.0 mph20.9 kmh 29.18 in988.1 mb 0.03 in0.8 mm 0.00 in0.0 mm 0.19 in4.8 mm
09:24 PM 37.5°F3.1°C 35.1°F1.7°C 91% 9.3 mph E15.0 kmh E 13.0 mph20.9 kmh 29.18 in988.1 mb 0.03 in0.8 mm 0.00 in0.0 mm 0.19 in4.8 mm
09:25 PM 37.5°F3.1°C 35.1°F1.7°C 91% 8.5 mph E13.7 kmh E 12.0 mph19.3 kmh 29.18 in988.1 mb 0.03 in0.8 mm 0.00 in0.0 mm 0.19 in4.8 mm
09:26 PM 37.5°F3.1°C 35.1°F1.7°C 91% 9.3 mph E15.0 kmh E 12.0 mph19.3 kmh 29.18 in988.1 mb 0.02 in0.5 mm 0.00 in0.0 mm 0.19 in4.8 mm
09:27 PM 37.5°F3.1°C 35.1°F1.7°C 91% 7.9 mph E12.7 kmh E 12.0 mph19.3 kmh 29.18 in988.1 mb 0.02 in0.5 mm 0.00 in0.0 mm 0.19 in4.8 mm
09:28 PM 37.5°F3.1°C 35.1°F1.7°C 91% 8.3 mph E13.4 kmh E 11.0 mph17.7 kmh 29.18 in988.1 mb 0.02 in0.5 mm 0.00 in0.0 mm 0.19 in4.8 mm
09:29 PM 37.5°F3.1°C 35.1°F1.7°C 91% 8.1 mph E13.0 kmh E 10.0 mph16.1 kmh 29.18 in988.1 mb 0.02 in0.5 mm 0.00 in0.0 mm 0.19 in4.8 mm
09:30 PM 37.5°F3.1°C 35.1°F1.7°C 91% 6.8 mph E10.9 kmh E 11.0 mph17.7 kmh 29.18 in988.1 mb 0.02 in0.5 mm 0.00 in0.0 mm 0.19 in4.8 mm
09:31 PM 37.5°F3.1°C 35.1°F1.7°C 91% 7.5 mph E12.1 kmh E 11.0 mph17.7 kmh 29.18 in988.1 mb 0.02 in0.5 mm 0.00 in0.0 mm 0.19 in4.8 mm
09:32 PM 37.5°F3.1°C 35.1°F1.7°C 91% 7.6 mph E12.2 kmh E 10.0 mph16.1 kmh 29.18 in988.1 mb 0.02 in0.5 mm 0.00 in0.0 mm 0.19 in4.8 mm
09:33 PM 37.5°F3.1°C 35.1°F1.7°C 91% 8.2 mph E13.2 kmh E 11.0 mph17.7 kmh 29.18 in988.1 mb 0.03 in0.8 mm 0.60 in15.2 mm 0.20 in5.1 mm
09:34 PM 37.5°F3.1°C 35.1°F1.7°C 91% 8.9 mph E14.3 kmh E 13.0 mph20.9 kmh 29.18 in988.1 mb 0.03 in0.8 mm 0.00 in0.0 mm 0.20 in5.1 mm
09:35 PM 37.5°F3.1°C 35.1°F1.7°C 91% 10.3 mph E16.6 kmh E 14.0 mph22.5 kmh 29.18 in988.1 mb 0.03 in0.8 mm 0.00 in0.0 mm 0.20 in5.1 mm
09:36 PM 37.5°F3.1°C 35.1°F1.7°C 91% 9.5 mph E15.3 kmh E 14.0 mph22.5 kmh 29.18 in988.1 mb 0.03 in0.8 mm 0.00 in0.0 mm 0.20 in5.1 mm
09:37 PM 37.5°F3.1°C 35.1°F1.7°C 91% 8.5 mph E13.7 kmh E 11.0 mph17.7 kmh 29.18 in988.1 mb 0.03 in0.8 mm 0.00 in0.0 mm 0.20 in5.1 mm
09:38 PM 37.5°F3.1°C 35.1°F1.7°C 91% 7.4 mph E11.9 kmh E 11.0 mph17.7 kmh 29.18 in988.1 mb 0.03 in0.8 mm 0.00 in0.0 mm 0.20 in5.1 mm
09:39 PM 37.5°F3.1°C 35.1°F1.7°C 91% 9.1 mph E14.6 kmh E 12.0 mph19.3 kmh 29.18 in988.1 mb 0.03 in0.8 mm 0.00 in0.0 mm 0.20 in5.1 mm
09:40 PM 37.5°F3.1°C 35.1°F1.7°C 91% 9.7 mph E15.6 kmh E 12.0 mph19.3 kmh 29.18 in988.1 mb 0.03 in0.8 mm 0.00 in0.0 mm 0.20 in5.1 mm
09:41 PM 37.6°F3.1°C 35.2°F1.8°C 91% 6.8 mph E10.9 kmh E 12.0 mph19.3 kmh 29.18 in988.1 mb 0.03 in0.8 mm 0.00 in0.0 mm 0.20 in5.1 mm
09:42 PM 37.5°F3.1°C 35.1°F1.7°C 91% 7.2 mph E11.6 kmh E 9.0 mph14.5 kmh 29.18 in988.1 mb 0.03 in0.8 mm 0.00 in0.0 mm 0.20 in5.1 mm
09:43 PM 37.5°F3.1°C 35.1°F1.7°C 91% 8.6 mph E13.8 kmh E 10.0 mph16.1 kmh 29.18 in988.1 mb 0.02 in0.5 mm 0.00 in0.0 mm 0.20 in5.1 mm
09:44 PM 37.5°F3.1°C 35.1°F1.7°C 91% 9.8 mph E15.8 kmh E 12.0 mph19.3 kmh 29.18 in988.1 mb 0.02 in0.5 mm 0.00 in0.0 mm 0.20 in5.1 mm
09:45 PM 37.5°F3.1°C 35.1°F1.7°C 91% 8.6 mph E13.8 kmh E 12.0 mph19.3 kmh 29.18 in988.1 mb 0.02 in0.5 mm 0.00 in0.0 mm 0.20 in5.1 mm
09:46 PM 37.5°F3.1°C 35.1°F1.7°C 91% 8.7 mph E14.0 kmh E 12.0 mph19.3 kmh 29.18 in988.1 mb 0.02 in0.5 mm 0.00 in0.0 mm 0.20 in5.1 mm
09:47 PM 37.5°F3.1°C 35.1°F1.7°C 91% 10.2 mph E16.4 kmh E 12.0 mph19.3 kmh 29.18 in988.1 mb 0.02 in0.5 mm 0.00 in0.0 mm 0.20 in5.1 mm
09:48 PM 37.5°F3.1°C 35.1°F1.7°C 91% 9.1 mph E14.6 kmh E 12.0 mph19.3 kmh 29.19 in988.5 mb 0.02 in0.5 mm 0.00 in0.0 mm 0.20 in5.1 mm
09:49 PM 37.6°F3.1°C 35.2°F1.8°C 91% 9.0 mph E14.5 kmh E 13.0 mph20.9 kmh 29.18 in988.1 mb 0.02 in0.5 mm 0.00 in0.0 mm 0.20 in5.1 mm
09:50 PM 37.6°F3.1°C 35.2°F1.8°C 91% 7.8 mph E12.6 kmh E 13.0 mph20.9 kmh 29.18 in988.1 mb 0.02 in0.5 mm 0.00 in0.0 mm 0.20 in5.1 mm
09:51 PM 37.5°F3.1°C 35.1°F1.7°C 91% 7.6 mph E12.2 kmh E 10.0 mph16.1 kmh 29.18 in988.1 mb 0.02 in0.5 mm 0.00 in0.0 mm 0.20 in5.1 mm
09:52 PM 37.6°F3.1°C 35.2°F1.8°C 91% 8.0 mph E12.9 kmh E 12.0 mph19.3 kmh 29.19 in988.5 mb 0.02 in0.5 mm 0.00 in0.0 mm 0.20 in5.1 mm
09:53 PM 37.5°F3.1°C 35.1°F1.7°C 91% 8.5 mph E13.7 kmh E 12.0 mph19.3 kmh 29.19 in988.5 mb 0.02 in0.5 mm 0.00 in0.0 mm 0.20 in5.1 mm
09:54 PM 37.6°F3.1°C 35.2°F1.8°C 91% 8.6 mph E13.8 kmh E 10.0 mph16.1 kmh 29.19 in988.5 mb 0.02 in0.5 mm 0.00 in0.0 mm 0.20 in5.1 mm
09:55 PM 37.6°F3.1°C 35.2°F1.8°C 91% 10.2 mph E16.4 kmh E 13.0 mph20.9 kmh 29.19 in988.5 mb 0.02 in0.5 mm 0.00 in0.0 mm 0.20 in5.1 mm
09:56 PM 37.6°F3.1°C 35.2°F1.8°C 91% 9.0 mph E14.5 kmh E 13.0 mph20.9 kmh 29.19 in988.5 mb 0.02 in0.5 mm 0.00 in0.0 mm 0.20 in5.1 mm
09:57 PM 37.6°F3.1°C 35.2°F1.8°C 91% 7.0 mph E11.3 kmh E 12.0 mph19.3 kmh 29.19 in988.5 mb 0.02 in0.5 mm 0.00 in0.0 mm 0.20 in5.1 mm
09:58 PM 37.6°F3.1°C 35.2°F1.8°C 91% 8.8 mph E14.2 kmh E 11.0 mph17.7 kmh 29.19 in988.5 mb 0.02 in0.5 mm 0.00 in0.0 mm 0.20 in5.1 mm
09:59 PM 37.6°F3.1°C 35.2°F1.8°C 91% 9.7 mph E15.6 kmh E 12.0 mph19.3 kmh 29.19 in988.5 mb 0.02 in0.5 mm 0.00 in0.0 mm 0.20 in5.1 mm
10:00 PM 37.6°F3.1°C 35.2°F1.8°C 91% 8.5 mph E13.7 kmh E 12.0 mph19.3 kmh 29.19 in988.5 mb 0.02 in0.5 mm 0.00 in0.0 mm 0.20 in5.1 mm
10:01 PM 37.6°F3.1°C 35.2°F1.8°C 91% 8.4 mph E13.5 kmh E 11.0 mph17.7 kmh 29.19 in988.5 mb 0.02 in0.5 mm 0.00 in0.0 mm 0.20 in5.1 mm
10:02 PM 37.6°F3.1°C 35.2°F1.8°C 91% 6.4 mph E10.3 kmh E 10.0 mph16.1 kmh 29.19 in988.5 mb 0.02 in0.5 mm 0.00 in0.0 mm 0.20 in5.1 mm
10:03 PM 37.6°F3.1°C 35.2°F1.8°C 91% 8.3 mph E13.4 kmh E 11.0 mph17.7 kmh 29.19 in988.5 mb 0.02 in0.5 mm 0.00 in0.0 mm 0.20 in5.1 mm
10:04 PM 37.6°F3.1°C 35.2°F1.8°C 91% 6.9 mph E11.1 kmh E 11.0 mph17.7 kmh 29.19 in988.5 mb 0.02 in0.5 mm 0.00 in0.0 mm 0.20 in5.1 mm
10:05 PM 37.6°F3.1°C 35.2°F1.8°C 91% 9.2 mph E14.8 kmh E 11.0 mph17.7 kmh 29.19 in988.5 mb 0.02 in0.5 mm 0.00 in0.0 mm 0.20 in5.1 mm
10:06 PM 37.6°F3.1°C 35.2°F1.8°C 91% 7.9 mph E12.7 kmh E 11.0 mph17.7 kmh 29.19 in988.5 mb 0.02 in0.5 mm 0.00 in0.0 mm 0.20 in5.1 mm
10:07 PM 37.6°F3.1°C 35.2°F1.8°C 91% 8.2 mph E13.2 kmh E 10.0 mph16.1 kmh 29.19 in988.5 mb 0.02 in0.5 mm 0.00 in0.0 mm 0.20 in5.1 mm
10:08 PM 37.6°F3.1°C 35.2°F1.8°C 91% 8.6 mph E13.8 kmh E 10.0 mph16.1 kmh 29.19 in988.5 mb 0.02 in0.5 mm 0.00 in0.0 mm 0.20 in5.1 mm
10:09 PM 37.6°F3.1°C 35.2°F1.8°C 91% 8.6 mph E13.8 kmh E 10.0 mph16.1 kmh 29.19 in988.5 mb 0.02 in0.5 mm 0.00 in0.0 mm 0.20 in5.1 mm
10:10 PM 37.6°F3.1°C 35.2°F1.8°C 91% 9.0 mph E14.5 kmh E 12.0 mph19.3 kmh 29.19 in988.5 mb 0.02 in0.5 mm 0.00 in0.0 mm 0.20 in5.1 mm
10:11 PM 37.6°F3.1°C 35.2°F1.8°C 91% 10.4 mph E16.7 kmh E 13.0 mph20.9 kmh 29.19 in988.5 mb 0.02 in0.5 mm 0.00 in0.0 mm 0.20 in5.1 mm
10:12 PM 37.6°F3.1°C 35.2°F1.8°C 91% 8.9 mph E14.3 kmh E 13.0 mph20.9 kmh 29.19 in988.5 mb 0.02 in0.5 mm 0.00 in0.0 mm 0.20 in5.1 mm
10:13 PM 37.6°F3.1°C 35.2°F1.8°C 91% 10.4 mph E16.7 kmh E 14.0 mph22.5 kmh 29.19 in988.5 mb 0.02 in0.5 mm 0.00 in0.0 mm 0.20 in5.1 mm
10:14 PM 37.6°F3.1°C 35.2°F1.8°C 91% 8.5 mph E13.7 kmh E 14.0 mph22.5 kmh 29.19 in988.5 mb 0.02 in0.5 mm 0.00 in0.0 mm 0.20 in5.1 mm
10:15 PM 37.6°F3.1°C 35.2°F1.8°C 91% 7.7 mph E12.4 kmh E 11.0 mph17.7 kmh 29.19 in988.5 mb 0.02 in0.5 mm 0.00 in0.0 mm 0.20 in5.1 mm
10:16 PM 37.6°F3.1°C 35.2°F1.8°C 91% 8.4 mph E13.5 kmh E 10.0 mph16.1 kmh 29.19 in988.5 mb 0.01 in0.3 mm 0.00 in0.0 mm 0.20 in5.1 mm
10:17 PM 37.6°F3.1°C 35.2°F1.8°C 91% 8.2 mph E13.2 kmh E 11.0 mph17.7 kmh 29.19 in988.5 mb 0.01 in0.3 mm 0.00 in0.0 mm 0.20 in5.1 mm
10:18 PM 37.6°F3.1°C 35.2°F1.8°C 91% 7.0 mph E11.3 kmh E 11.0 mph17.7 kmh 29.19 in988.5 mb 0.01 in0.3 mm 0.00 in0.0 mm 0.20 in5.1 mm
10:19 PM 37.6°F3.1°C 35.2°F1.8°C 91% 8.1 mph E13.0 kmh E 10.0 mph16.1 kmh 29.19 in988.5 mb 0.01 in0.3 mm 0.00 in0.0 mm 0.20 in5.1 mm
10:20 PM 37.6°F3.1°C 35.2°F1.8°C 91% 9.2 mph E14.8 kmh E 14.0 mph22.5 kmh 29.19 in988.5 mb 0.01 in0.3 mm 0.00 in0.0 mm 0.20 in5.1 mm
10:21 PM 37.6°F3.1°C 35.2°F1.8°C 91% 5.5 mph E8.9 kmh E 14.0 mph22.5 kmh 29.20 in988.8 mb 0.01 in0.3 mm 0.00 in0.0 mm 0.20 in5.1 mm
10:22 PM 37.6°F3.1°C 35.2°F1.8°C 91% 6.9 mph E11.1 kmh E 10.0 mph16.1 kmh 29.19 in988.5 mb 0.01 in0.3 mm 0.00 in0.0 mm 0.20 in5.1 mm
10:23 PM 37.6°F3.1°C 35.2°F1.8°C 91% 7.8 mph E12.6 kmh E 10.0 mph16.1 kmh 29.19 in988.5 mb 0.01 in0.3 mm 0.00 in0.0 mm 0.20 in5.1 mm
10:24 PM 37.6°F3.1°C 35.2°F1.8°C 91% 8.2 mph E13.2 kmh E 12.0 mph19.3 kmh 29.20 in988.8 mb 0.01 in0.3 mm 0.00 in0.0 mm 0.20 in5.1 mm
10:25 PM 37.6°F3.1°C 35.2°F1.8°C 91% 7.7 mph E12.4 kmh E 12.0 mph19.3 kmh 29.20 in988.8 mb 0.01 in0.3 mm 0.00 in0.0 mm 0.20 in5.1 mm
10:26 PM 37.5°F3.1°C 35.1°F1.7°C 91% 9.3 mph E15.0 kmh E 12.0 mph19.3 kmh 29.20 in988.8 mb 0.01 in0.3 mm 0.00 in0.0 mm 0.20 in5.1 mm
10:27 PM 37.5°F3.1°C 35.1°F1.7°C 91% 10.8 mph E17.4 kmh E 14.0 mph22.5 kmh 29.20 in988.8 mb 0.01 in0.3 mm 0.00 in0.0 mm 0.20 in5.1 mm
10:28 PM 37.5°F3.1°C 35.1°F1.7°C 91% 5.5 mph E8.9 kmh E 14.0 mph22.5 kmh 29.20 in988.8 mb 0.01 in0.3 mm 0.00 in0.0 mm 0.20 in5.1 mm
10:29 PM 37.5°F3.1°C 35.1°F1.7°C 91% 8.5 mph E13.7 kmh E 14.0 mph22.5 kmh 29.20 in988.8 mb 0.01 in0.3 mm 0.00 in0.0 mm 0.20 in5.1 mm
10:30 PM 37.5°F3.1°C 35.1°F1.7°C 91% 11.4 mph E18.3 kmh E 14.0 mph22.5 kmh 29.20 in988.8 mb 0.01 in0.3 mm 0.00 in0.0 mm 0.20 in5.1 mm
10:31 PM 37.5°F3.1°C 35.1°F1.7°C 91% 9.2 mph E14.8 kmh E 13.0 mph20.9 kmh 29.20 in988.8 mb 0.01 in0.3 mm 0.00 in0.0 mm 0.20 in5.1 mm
10:32 PM 37.5°F3.1°C 35.1°F1.7°C 91% 6.8 mph E10.9 kmh E 11.0 mph17.7 kmh 29.20 in988.8 mb 0.01 in0.3 mm 0.00 in0.0 mm 0.20 in5.1 mm
10:33 PM 37.5°F3.1°C 35.1°F1.7°C 91% 9.3 mph E15.0 kmh E 11.0 mph17.7 kmh 29.20 in988.8 mb 0.00 in0.0 mm 0.00 in0.0 mm 0.20 in5.1 mm
10:34 PM 37.5°F3.1°C 35.1°F1.7°C 91% 8.3 mph E13.4 kmh E 11.0 mph17.7 kmh 29.20 in988.8 mb 0.00 in0.0 mm 0.00 in0.0 mm 0.20 in5.1 mm
10:35 PM 37.5°F3.1°C 35.1°F1.7°C 91% 8.0 mph E12.9 kmh E 12.0 mph19.3 kmh 29.20 in988.8 mb 0.00 in0.0 mm 0.00 in0.0 mm 0.20 in5.1 mm
10:36 PM 37.5°F3.1°C 35.1°F1.7°C 91% 7.3 mph E11.7 kmh E 12.0 mph19.3 kmh 29.20 in988.8 mb 0.00 in0.0 mm 0.00 in0.0 mm 0.20 in5.1 mm
10:37 PM 37.5°F3.1°C 35.1°F1.7°C 91% 8.7 mph E14.0 kmh E 12.0 mph19.3 kmh 29.20 in988.8 mb 0.00 in0.0 mm 0.00 in0.0 mm 0.20 in5.1 mm
10:38 PM 37.5°F3.1°C 35.1°F1.7°C 91% 6.2 mph E10.0 kmh E 12.0 mph19.3 kmh 29.20 in988.8 mb 0.00 in0.0 mm 0.00 in0.0 mm 0.20 in5.1 mm
10:39 PM 37.5°F3.1°C 35.1°F1.7°C 91% 6.3 mph ENE10.1 kmh ENE 8.0 mph12.9 kmh 29.20 in988.8 mb 0.00 in0.0 mm 0.00 in0.0 mm 0.20 in5.1 mm
10:40 PM 37.5°F3.1°C 35.1°F1.7°C 91% 6.3 mph E10.1 kmh E 8.0 mph12.9 kmh 29.20 in988.8 mb 0.00 in0.0 mm 0.00 in0.0 mm 0.20 in5.1 mm
10:41 PM 37.5°F3.1°C 35.1°F1.7°C 91% 6.9 mph ENE11.1 kmh ENE 12.0 mph19.3 kmh 29.20 in988.8 mb 0.00 in0.0 mm 0.00 in0.0 mm 0.20 in5.1 mm
10:42 PM 37.5°F3.1°C 35.1°F1.7°C 91% 9.6 mph E15.4 kmh E 12.0 mph19.3 kmh 29.20 in988.8 mb 0.00 in0.0 mm 0.00 in0.0 mm 0.20 in5.1 mm
10:43 PM 37.5°F3.1°C 35.1°F1.7°C 91% 8.0 mph E12.9 kmh E 11.0 mph17.7 kmh 29.20 in988.8 mb 0.00 in0.0 mm 0.00 in0.0 mm 0.20 in5.1 mm
10:44 PM 37.5°F3.1°C 35.1°F1.7°C 91% 5.0 mph ENE8.0 kmh ENE 10.0 mph16.1 kmh 29.20 in988.8 mb 0.00 in0.0 mm 0.00 in0.0 mm 0.20 in5.1 mm
10:45 PM 37.4°F3.0°C 35.0°F1.7°C 91% 7.2 mph ENE11.6 kmh ENE 12.0 mph19.3 kmh 29.20 in988.8 mb 0.00 in0.0 mm 0.00 in0.0 mm 0.20 in5.1 mm
10:46 PM 37.5°F3.1°C 35.1°F1.7°C 91% 6.1 mph ENE9.8 kmh ENE 12.0 mph19.3 kmh 29.20 in988.8 mb 0.00 in0.0 mm 0.00 in0.0 mm 0.20 in5.1 mm
10:47 PM 37.5°F3.1°C 35.1°F1.7°C 91% 9.0 mph E14.5 kmh E 11.0 mph17.7 kmh 29.20 in988.8 mb 0.00 in0.0 mm 0.00 in0.0 mm 0.20 in5.1 mm
10:48 PM 37.4°F3.0°C 35.0°F1.7°C 91% 6.9 mph ENE11.1 kmh ENE 11.0 mph17.7 kmh 29.20 in988.8 mb 0.00 in0.0 mm 0.00 in0.0 mm 0.20 in5.1 mm
10:49 PM 37.5°F3.1°C 35.1°F1.7°C 91% 7.7 mph E12.4 kmh E 11.0 mph17.7 kmh 29.20 in988.8 mb 0.00 in0.0 mm 0.00 in0.0 mm 0.20 in5.1 mm
10:50 PM 37.5°F3.1°C 35.1°F1.7°C 91% 7.2 mph ENE11.6 kmh ENE 10.0 mph16.1 kmh 29.20 in988.8 mb 0.00 in0.0 mm 0.00 in0.0 mm 0.20 in5.1 mm
10:51 PM 37.5°F3.1°C 35.1°F1.7°C 91% 7.2 mph ENE11.6 kmh ENE 10.0 mph16.1 kmh 29.20 in988.8 mb 0.00 in0.0 mm 0.00 in0.0 mm 0.20 in5.1 mm
10:52 PM 37.5°F3.1°C 35.1°F1.7°C 91% 7.4 mph ENE11.9 kmh ENE 10.0 mph16.1 kmh 29.20 in988.8 mb 0.00 in0.0 mm 0.00 in0.0 mm 0.20 in5.1 mm
10:53 PM 37.5°F3.1°C 35.1°F1.7°C 91% 6.7 mph ENE10.8 kmh ENE 9.0 mph14.5 kmh 29.20 in988.8 mb 0.00 in0.0 mm 0.00 in0.0 mm 0.20 in5.1 mm
10:54 PM 37.5°F3.1°C 35.1°F1.7°C 91% 9.4 mph ENE15.1 kmh ENE 11.0 mph17.7 kmh 29.20 in988.8 mb 0.00 in0.0 mm 0.00 in0.0 mm 0.20 in5.1 mm
10:55 PM 37.5°F3.1°C 35.1°F1.7°C 91% 8.4 mph ENE13.5 kmh ENE 11.0 mph17.7 kmh 29.20 in988.8 mb 0.00 in0.0 mm 0.00 in0.0 mm 0.20 in5.1 mm
10:56 PM 37.5°F3.1°C 35.1°F1.7°C 91% 7.2 mph ENE11.6 kmh ENE 11.0 mph17.7 kmh 29.20 in988.8 mb 0.00 in0.0 mm 0.00 in0.0 mm 0.20 in5.1 mm
10:57 PM 37.5°F3.1°C 35.1°F1.7°C 91% 7.0 mph ENE11.3 kmh ENE 11.0 mph17.7 kmh 29.20 in988.8 mb 0.00 in0.0 mm 0.00 in0.0 mm 0.20 in5.1 mm
10:58 PM 37.5°F3.1°C 35.1°F1.7°C 91% 7.5 mph ENE12.1 kmh ENE 11.0 mph17.7 kmh 29.20 in988.8 mb 0.00 in0.0 mm 0.00 in0.0 mm 0.20 in5.1 mm
10:59 PM 37.5°F3.1°C 35.1°F1.7°C 91% 7.0 mph ENE11.3 kmh ENE 10.0 mph16.1 kmh 29.21 in989.2 mb 0.00 in0.0 mm 0.00 in0.0 mm 0.20 in5.1 mm
11:00 PM 37.4°F3.0°C 35.0°F1.7°C 91% 8.4 mph NE13.5 kmh NE 11.0 mph17.7 kmh 29.21 in989.2 mb 0.00 in0.0 mm 0.00 in0.0 mm 0.20 in5.1 mm
11:01 PM 37.4°F3.0°C 35.0°F1.7°C 91% 8.1 mph ENE13.0 kmh ENE 11.0 mph17.7 kmh 29.21 in989.2 mb 0.00 in0.0 mm 0.00 in0.0 mm 0.20 in5.1 mm
11:02 PM 37.4°F3.0°C 35.0°F1.7°C 91% 7.4 mph ENE11.9 kmh ENE 10.0 mph16.1 kmh 29.21 in989.2 mb 0.00 in0.0 mm 0.00 in0.0 mm 0.20 in5.1 mm
11:03 PM 37.5°F3.1°C 35.1°F1.7°C 91% 9.5 mph ENE15.3 kmh ENE 12.0 mph19.3 kmh 29.21 in989.2 mb 0.00 in0.0 mm 0.00 in0.0 mm 0.20 in5.1 mm
11:04 PM 37.5°F3.1°C 35.1°F1.7°C 91% 7.6 mph ENE12.2 kmh ENE 12.0 mph19.3 kmh 29.21 in989.2 mb 0.00 in0.0 mm 0.00 in0.0 mm 0.20 in5.1 mm
11:05 PM 37.4°F3.0°C 35.0°F1.7°C 91% 8.0 mph ENE12.9 kmh ENE 10.0 mph16.1 kmh 29.21 in989.2 mb 0.00 in0.0 mm 0.00 in0.0 mm 0.20 in5.1 mm
11:06 PM 37.5°F3.1°C 35.1°F1.7°C 91% 7.3 mph ENE11.7 kmh ENE 10.0 mph16.1 kmh 29.21 in989.2 mb 0.00 in0.0 mm 0.00 in0.0 mm 0.20 in5.1 mm
11:07 PM 37.5°F3.1°C 35.1°F1.7°C 91% 9.5 mph ENE15.3 kmh ENE 12.0 mph19.3 kmh 29.21 in989.2 mb 0.00 in0.0 mm 0.00 in0.0 mm 0.20 in5.1 mm
11:08 PM 37.5°F3.1°C 35.1°F1.7°C 91% 6.5 mph NE10.5 kmh NE 12.0 mph19.3 kmh 29.21 in989.2 mb 0.00 in0.0 mm 0.00 in0.0 mm 0.20 in5.1 mm
11:09 PM 37.5°F3.1°C 35.1°F1.7°C 91% 6.5 mph ENE10.5 kmh ENE 10.0 mph16.1 kmh 29.21 in989.2 mb 0.00 in0.0 mm 0.00 in0.0 mm 0.20 in5.1 mm
11:10 PM 37.5°F3.1°C 35.1°F1.7°C 91% 7.3 mph ENE11.7 kmh ENE 9.0 mph14.5 kmh 29.21 in989.2 mb 0.00 in0.0 mm 0.00 in0.0 mm 0.20 in5.1 mm
11:11 PM 37.5°F3.1°C 35.1°F1.7°C 91% 6.5 mph NE10.5 kmh NE 10.0 mph16.1 kmh 29.21 in989.2 mb 0.00 in0.0 mm 0.00 in0.0 mm 0.20 in5.1 mm
11:12 PM 37.4°F3.0°C 35.0°F1.7°C 91% 6.2 mph ENE10.0 kmh ENE 10.0 mph16.1 kmh 29.21 in989.2 mb 0.00 in0.0 mm 0.00 in0.0 mm 0.20 in5.1 mm
11:13 PM 37.5°F3.1°C 35.1°F1.7°C 91% 6.3 mph ENE10.1 kmh ENE 9.0 mph14.5 kmh 29.21 in989.2 mb 0.00 in0.0 mm 0.00 in0.0 mm 0.20 in5.1 mm
11:14 PM 37.4°F3.0°C 35.0°F1.7°C 91% 6.8 mph ENE10.9 kmh ENE 9.0 mph14.5 kmh 29.21 in989.2 mb 0.00 in0.0 mm 0.00 in0.0 mm 0.20 in5.1 mm
11:15 PM 37.4°F3.0°C 35.0°F1.7°C 91% 8.1 mph ENE13.0 kmh ENE 11.0 mph17.7 kmh 29.21 in989.2 mb 0.00 in0.0 mm 0.00 in0.0 mm 0.20 in5.1 mm
11:16 PM 37.4°F3.0°C 35.0°F1.7°C 91% 7.6 mph ENE12.2 kmh ENE 11.0 mph17.7 kmh 29.21 in989.2 mb 0.00 in0.0 mm 0.00 in0.0 mm 0.20 in5.1 mm
11:17 PM 37.4°F3.0°C 35.0°F1.7°C 91% 7.6 mph ENE12.2 kmh ENE 12.0 mph19.3 kmh 29.21 in989.2 mb 0.00 in0.0 mm 0.00 in0.0 mm 0.20 in5.1 mm
11:18 PM 37.5°F3.1°C 35.1°F1.7°C 91% 7.8 mph ENE12.6 kmh ENE 12.0 mph19.3 kmh 29.22 in989.5 mb 0.00 in0.0 mm 0.00 in0.0 mm 0.20 in5.1 mm
11:19 PM 37.4°F3.0°C 35.0°F1.7°C 91% 7.5 mph NE12.1 kmh NE 11.0 mph17.7 kmh 29.22 in989.5 mb 0.00 in0.0 mm 0.00 in0.0 mm 0.20 in5.1 mm
11:20 PM 37.5°F3.1°C 35.1°F1.7°C 91% 8.2 mph NE13.2 kmh NE 12.0 mph19.3 kmh 29.22 in989.5 mb 0.00 in0.0 mm 0.00 in0.0 mm 0.20 in5.1 mm
11:21 PM 37.5°F3.1°C 35.1°F1.7°C 91% 8.2 mph NE13.2 kmh NE 12.0 mph19.3 kmh 29.22 in989.5 mb 0.00 in0.0 mm 0.00 in0.0 mm 0.20 in5.1 mm
11:22 PM 37.5°F3.1°C 35.1°F1.7°C 91% 9.4 mph NE15.1 kmh NE 13.0 mph20.9 kmh 29.22 in989.5 mb 0.00 in0.0 mm 0.00 in0.0 mm 0.20 in5.1 mm
11:23 PM 37.4°F3.0°C 35.0°F1.7°C 91% 9.0 mph NE14.5 kmh NE 13.0 mph20.9 kmh 29.22 in989.5 mb 0.00 in0.0 mm 0.00 in0.0 mm 0.20 in5.1 mm
11:24 PM 37.5°F3.1°C 35.1°F1.7°C 91% 9.5 mph ENE15.3 kmh ENE 12.0 mph19.3 kmh 29.22 in989.5 mb 0.00 in0.0 mm 0.00 in0.0 mm 0.20 in5.1 mm
11:25 PM 37.5°F3.1°C 35.1°F1.7°C 91% 7.7 mph ENE12.4 kmh ENE 12.0 mph19.3 kmh 29.22 in989.5 mb 0.00 in0.0 mm 0.00 in0.0 mm 0.20 in5.1 mm
11:26 PM 37.5°F3.1°C 35.1°F1.7°C 91% 8.8 mph NE14.2 kmh NE 12.0 mph19.3 kmh 29.22 in989.5 mb 0.00 in0.0 mm 0.00 in0.0 mm 0.20 in5.1 mm
11:27 PM 37.5°F3.1°C 35.1°F1.7°C 91% 10.7 mph ENE17.2 kmh ENE 12.0 mph19.3 kmh 29.22 in989.5 mb 0.00 in0.0 mm 0.00 in0.0 mm 0.20 in5.1 mm
11:28 PM 37.5°F3.1°C 35.1°F1.7°C 91% 10.6 mph ENE17.1 kmh ENE 13.0 mph20.9 kmh 29.22 in989.5 mb 0.00 in0.0 mm 0.00 in0.0 mm 0.20 in5.1 mm
11:29 PM 37.5°F3.1°C 35.1°F1.7°C 91% 10.1 mph ENE16.3 kmh ENE 13.0 mph20.9 kmh 29.22 in989.5 mb 0.00 in0.0 mm 0.00 in0.0 mm 0.20 in5.1 mm
11:30 PM 37.4°F3.0°C 35.0°F1.7°C 91% 9.6 mph NE15.4 kmh NE 13.0 mph20.9 kmh 29.22 in989.5 mb 0.00 in0.0 mm 0.00 in0.0 mm 0.20 in5.1 mm
11:31 PM 37.5°F3.1°C 35.1°F1.7°C 91% 7.2 mph ENE11.6 kmh ENE 12.0 mph19.3 kmh 29.22 in989.5 mb 0.00 in0.0 mm 0.00 in0.0 mm 0.20 in5.1 mm
11:32 PM 37.5°F3.1°C 35.1°F1.7°C 91% 8.2 mph ENE13.2 kmh ENE 13.0 mph20.9 kmh 29.22 in989.5 mb 0.00 in0.0 mm 0.00 in0.0 mm 0.20 in5.1 mm
11:33 PM 37.4°F3.0°C 35.0°F1.7°C 91% 8.0 mph NE12.9 kmh NE 13.0 mph20.9 kmh 29.22 in989.5 mb 0.00 in0.0 mm 0.00 in0.0 mm 0.20 in5.1 mm
11:34 PM 37.4°F3.0°C 35.0°F1.7°C 91% 9.1 mph ENE14.6 kmh ENE 13.0 mph20.9 kmh 29.22 in989.5 mb 0.00 in0.0 mm 0.00 in0.0 mm 0.20 in5.1 mm
11:35 PM 37.4°F3.0°C 35.0°F1.7°C 91% 8.4 mph ENE13.5 kmh ENE 11.0 mph17.7 kmh 29.22 in989.5 mb 0.00 in0.0 mm 0.00 in0.0 mm 0.20 in5.1 mm
11:36 PM 37.4°F3.0°C 35.0°F1.7°C 91% 9.5 mph ENE15.3 kmh ENE 13.0 mph20.9 kmh 29.22 in989.5 mb 0.00 in0.0 mm 0.00 in0.0 mm 0.20 in5.1 mm
11:37 PM 37.4°F3.0°C 35.0°F1.7°C 91% 8.9 mph ENE14.3 kmh ENE 13.0 mph20.9 kmh 29.22 in989.5 mb 0.00 in0.0 mm 0.00 in0.0 mm 0.20 in5.1 mm
11:38 PM 37.4°F3.0°C 35.0°F1.7°C 91% 10.0 mph NE16.1 kmh NE 13.0 mph20.9 kmh 29.22 in989.5 mb 0.00 in0.0 mm 0.00 in0.0 mm 0.20 in5.1 mm
11:39 PM 37.4°F3.0°C 35.0°F1.7°C 91% 6.8 mph ENE10.9 kmh ENE 12.0 mph19.3 kmh 29.22 in989.5 mb 0.00 in0.0 mm 0.00 in0.0 mm 0.20 in5.1 mm
11:40 PM 37.4°F3.0°C 35.0°F1.7°C 91% 7.4 mph ENE11.9 kmh ENE 13.0 mph20.9 kmh 29.22 in989.5 mb 0.00 in0.0 mm 0.00 in0.0 mm 0.20 in5.1 mm
11:41 PM 37.4°F3.0°C 35.0°F1.7°C 91% 9.6 mph ENE15.4 kmh ENE 13.0 mph20.9 kmh 29.22 in989.5 mb 0.00 in0.0 mm 0.00 in0.0 mm 0.20 in5.1 mm
11:42 PM 37.4°F3.0°C 35.0°F1.7°C 91% 7.7 mph ENE12.4 kmh ENE 12.0 mph19.3 kmh 29.22 in989.5 mb 0.00 in0.0 mm 0.00 in0.0 mm 0.20 in5.1 mm
11:43 PM 37.4°F3.0°C 35.0°F1.7°C 91% 8.3 mph ENE13.4 kmh ENE 10.0 mph16.1 kmh 29.22 in989.5 mb 0.00 in0.0 mm 0.00 in0.0 mm 0.20 in5.1 mm
11:44 PM 37.4°F3.0°C 35.0°F1.7°C 91% 8.2 mph ENE13.2 kmh ENE 14.0 mph22.5 kmh 29.22 in989.5 mb 0.00 in0.0 mm 0.00 in0.0 mm 0.20 in5.1 mm
11:45 PM 37.4°F3.0°C 35.0°F1.7°C 91% 11.5 mph ENE18.5 kmh ENE 14.0 mph22.5 kmh 29.22 in989.5 mb 0.00 in0.0 mm 0.00 in0.0 mm 0.20 in5.1 mm
11:46 PM 37.4°F3.0°C 35.0°F1.7°C 91% 11.2 mph E18.0 kmh E 14.0 mph22.5 kmh 29.22 in989.5 mb 0.00 in0.0 mm 0.00 in0.0 mm 0.20 in5.1 mm
11:47 PM 37.4°F3.0°C 35.0°F1.7°C 91% 8.6 mph ENE13.8 kmh ENE 14.0 mph22.5 kmh 29.22 in989.5 mb 0.00 in0.0 mm 0.00 in0.0 mm 0.20 in5.1 mm
11:48 PM 37.4°F3.0°C 35.0°F1.7°C 91% 9.0 mph E14.5 kmh E 13.0 mph20.9 kmh 29.23 in989.8 mb 0.00 in0.0 mm 0.00 in0.0 mm 0.20 in5.1 mm
11:49 PM 37.3°F2.9°C 34.9°F1.6°C 91% 10.3 mph ENE16.6 kmh ENE 14.0 mph22.5 kmh 29.22 in989.5 mb 0.00 in0.0 mm 0.00 in0.0 mm 0.20 in5.1 mm
11:50 PM 37.4°F3.0°C 35.0°F1.7°C 91% 9.9 mph ENE15.9 kmh ENE 14.0 mph22.5 kmh 29.23 in989.8 mb 0.00 in0.0 mm 0.00 in0.0 mm 0.20 in5.1 mm
11:51 PM 37.4°F3.0°C 35.0°F1.7°C 91% 8.5 mph E13.7 kmh E 12.0 mph19.3 kmh 29.23 in989.8 mb 0.00 in0.0 mm 0.00 in0.0 mm 0.20 in5.1 mm
11:52 PM 37.4°F3.0°C 35.0°F1.7°C 91% 11.5 mph E18.5 kmh E 16.0 mph25.7 kmh 29.23 in989.8 mb 0.00 in0.0 mm 0.00 in0.0 mm 0.20 in5.1 mm
11:53 PM 37.3°F2.9°C 34.9°F1.6°C 91% 9.3 mph ENE15.0 kmh ENE 16.0 mph25.7 kmh 29.23 in989.8 mb 0.00 in0.0 mm 0.00 in0.0 mm 0.20 in5.1 mm
11:54 PM 37.4°F3.0°C 35.0°F1.7°C 91% 9.8 mph ENE15.8 kmh ENE 14.0 mph22.5 kmh 29.23 in989.8 mb 0.00 in0.0 mm 0.00 in0.0 mm 0.20 in5.1 mm
11:55 PM 37.3°F2.9°C 34.9°F1.6°C 91% 9.7 mph E15.6 kmh E 13.0 mph20.9 kmh 29.23 in989.8 mb 0.00 in0.0 mm 0.00 in0.0 mm 0.20 in5.1 mm
11:56 PM 37.3°F2.9°C 34.9°F1.6°C 91% 7.2 mph ENE11.6 kmh ENE 13.0 mph20.9 kmh 29.23 in989.8 mb 0.00 in0.0 mm 0.00 in0.0 mm 0.20 in5.1 mm
11:57 PM 37.4°F3.0°C 35.0°F1.7°C 91% 9.8 mph ENE15.8 kmh ENE 14.0 mph22.5 kmh 29.23 in989.8 mb 0.00 in0.0 mm 0.00 in0.0 mm 0.20 in5.1 mm
11:58 PM 37.3°F2.9°C 34.9°F1.6°C 91% 10.2 mph ENE16.4 kmh ENE 14.0 mph22.5 kmh 29.23 in989.8 mb 0.00 in0.0 mm 0.00 in0.0 mm 0.20 in5.1 mm
11:59 PM 37.3°F2.9°C 34.9°F1.6°C 91% 9.6 mph NE15.4 kmh NE 15.0 mph24.1 kmh 29.23 in989.8 mb 0.00 in0.0 mm 0.00 in0.0 mm 0.20 in5.1 mm